Ship Status Report: callsign 000000

sailwx.info

Track history (hours):
 
Tides and Currents Weather Stations Pressure Air Temp Water Temp Dewpoint Dewpoint Depression Visibility Wind Speed Wind Dir Waves Ship Positions

Callsign 000000 (name unknown)

Last reported at 2015-May-06 19:33 UTC. Time now 2015-May-06 20:33 UTC.
Position N 30°57' E 121°11'.

Type: Fishing. MMSI: 200007452.

Date/timePositionNaut miles runAvg speedWind from/ knotsBaromVisibWave heightAir tempDewpointWater temp
2015-May-06 19:33N 30°57' E 121°11'36117795.3
2015-May-06 19:32N 36°53' E 122°26'35922671.4
2015-May-06 19:31N 30°58' E 121°18'244638.0
2015-May-06 19:31N 31°21' E 121°27'693208041.1
2015-May-06 19:31N 22°11' E 113°34'3156401.4
2015-May-06 19:31N 22°18' E 114°07'58689.3
2015-May-06 19:26N 23°04' E 113°29'66011158.4
2015-May-06 19:22N 31°41' E 121°12'35746.5
2015-May-06 19:19N 31°08' E 121°28'8113882.8
2015-May-06 19:19N 29°55' E 122°08'63122259.3
2015-May-06 19:17N 22°28' E 113°52'105821892.5
2015-May-06 19:14N 38°47' E 121°40'531776.9
2015-May-06 18:33N 29°56' E 122°00'7028192.1
2015-May-06 18:33N 30°60' E 121°25'124418.0
2015-May-06 18:33N 30°57' E 121°11'36123197.4
2015-May-06 18:32N 36°53' E 122°26'3186395.5
2015-May-06 18:29N 31°41' E 121°12'231153.6
2015-May-06 18:28N 31°21' E 121°27'6543490.3
2015-May-06 18:17N 23°04' E 113°29'1361.7
2015-May-06 18:04N 22°51' E 113°33'9611897.0
2015-May-06 17:33N 36°53' E 122°27'33518291.8
2015-May-06 17:32N 31°22' E 121°28'694208147.9
2015-May-06 17:32N 22°11' E 113°34'6669403.3
2015-May-06 17:28N 30°57' E 121°11'691203.2
2015-May-06 17:24N 29°58' E 121°51'7215204.0
2015-May-06 17:24N 31°06' E 121°27'372650.7
2015-May-06 17:23N 31°41' E 121°12'6606109.6
2015-May-06 17:17N 23°04' E 113°29'627867.6
2015-May-06 16:33N 30°57' E 121°11'213211.5
2015-May-06 16:33N 31°12' E 121°29'10277.2
2015-May-06 16:31N 31°22' E 121°28'69432010.5
2015-May-06 16:29N 22°11' E 113°35'53862.7
2015-May-06 16:26N 23°04' E 113°29'6604111.9
2015-May-06 16:16N 31°41' E 121°12'67811090.4
2015-May-06 16:13N 22°18' E 114°07'642988.3
2015-May-06 15:34N 30°57' E 121°11'46936724.1
2015-May-06 15:33N 38°46' E 121°31'4263333.6
2015-May-06 15:25N 31°41' E 121°12'429128632.5
2015-May-06 15:25N 38°49' E 121°35'447230116.2
2015-May-06 15:25N 31°22' E 121°28'83782.5
2015-May-06 15:18N 30°03' E 121°59'129705.0
2015-May-06 15:07N 31°58' E 120°51'63112.1
2015-May-06 14:33N 30°57' E 121°11'7639330.6
2015-May-06 14:33N 29°56' E 122°04'1414883.6
2015-May-06 14:32N 32°00' E 120°46'53819.1
2015-May-06 14:28N 31°22' E 121°28'325.7
2015-May-06 14:20N 31°21' E 121°32'44515554.4
2015-May-06 14:18N 38°46' E 121°36'103040312.3
2015-May-06 14:17N 23°04' E 113°29'613837.9
2015-May-06 13:33N 29°48' E 122°05'992876.9
2015-May-06 13:31N 31°22' E 121°28'44413666.3
2015-May-06 13:29N 38°46' E 121°39'10311237414.3
2015-May-06 13:29N 23°04' E 113°29'65813389.2
2015-May-06 13:26N 31°24' E 121°31'6976518.3
2015-May-06 13:19N 22°11' E 113°35'393207.5
2015-May-06 13:19N 22°48' E 113°19'6798981.2
2015-May-06 13:14N 31°41' E 121°12'66622632.7
2015-May-06 13:12N 23°03' E 113°19'66835893.8
2015-May-06 13:11N 31°58' E 120°50'408645.5
2015-May-06 12:33N 25°17' E 119°29'39520300.4
2015-May-06 12:32N 31°41' E 121°12'66546975.6
2015-May-06 12:31N 23°02' E 113°22'66016277.2
2015-May-06 12:29N 31°22' E 121°28'2881.0
2015-May-06 12:08N 30°57' E 121°11'62711697.2
2015-May-06 12:05N 23°04' E 113°29'6551257.8
2015-May-06 11:33N 31°22' E 121°28'656131214.0
2015-May-06 11:33N 23°05' E 113°26'629452829.9
2015-May-06 11:33N 30°57' E 121°12'442613.2
2015-May-06 11:32N 31°41' E 121°12'21530974.6
2015-May-06 11:32N 34°54' E 119°19'82017265.2
2015-May-06 11:29N 22°11' E 113°37'5432159.7
2015-May-06 11:29N 23°04' E 113°29'3629189.6
2015-May-06 11:26N 25°19' E 119°38'350396.5
2015-May-06 10:33N 30°58' E 121°15'630113437.9
2015-May-06 10:33N 23°03' E 113°31'644463929.6
2015-May-06 10:33N 31°57' E 120°17'5516457.3
2015-May-06 10:33N 31°36' E 121°17'17967.8
2015-May-06 10:32N 31°22' E 121°28'65512880.0
2015-May-06 10:29N 23°04' E 113°29'66015042.1
2015-May-06 10:26N 31°41' E 121°12'70054749.1
2015-May-06 10:25N 22°11' E 113°37'6972563.1
2015-May-06 10:09N 31°11' E 121°50'711.1
2015-May-06 09:33N 31°16' E 121°46'278969.2
2015-May-06 09:33N 30°59' E 121°20'627161210.7
2015-May-06 09:33N 23°06' E 113°38'6489008.2
2015-May-06 09:29N 31°22' E 121°28'733476.8
2015-May-06 09:27N 31°56' E 120°11'54818.5
2015-May-06 09:24N 31°41' E 121°12'3612354.0
2015-May-06 09:14N 37°42' E 121°09'9677533.4
2015-May-06 09:07N 22°57' E 113°37'6671206.8
2015-May-06 08:33N 31°21' E 121°48'175533.7
2015-May-06 08:33N 31°22' E 121°28'212171.4
2015-May-06 08:33N 31°01' E 121°26'40424635.0
2015-May-06 08:32N 37°44' E 121°16'9728115.6
2015-May-06 08:25N 22°57' E 113°37'64233016.8
2015-May-06 08:23N 31°55' E 120°11'6405743.6
2015-May-06 08:17N 23°04' E 113°29'642890.8
2015-May-06 07:33N 31°04' E 121°28'64312308.5
2015-May-06 07:30N 22°57' E 113°37'656147559.1
2015-May-06 07:30N 31°22' E 121°28'65528742.0
2015-May-06 07:29N 23°04' E 113°29'032.9
2015-May-06 07:29N 23°04' E 113°29'66019479.5
2015-May-06 07:27N 31°41' E 121°12'66715595.7
2015-May-06 07:24N 23°03' E 113°18'9824143.5
2015-May-06 07:10N 37°48' E 121°31'386636.8
2015-May-06 06:33N 31°22' E 121°28'66037117.8
2015-May-06 06:32N 23°02' E 113°24'66613866.3
2015-May-06 06:29N 31°58' E 120°50'66255428.9
2015-May-06 06:29N 23°04' E 113°29'6604860.1
2015-May-06 06:21N 31°41' E 121°12'66391748.0
2015-May-06 06:20N 22°57' E 113°36'668218562.3
2015-May-06 06:20N 31°33' E 121°32'68114766.7
2015-May-06 06:17N 22°19' E 114°07'574875.3
2015-May-06 06:16N 23°04' E 113°29'97818330.5
2015-May-06 06:13N 37°48' E 121°35'395581.4
2015-May-06 05:32N 31°12' E 121°30'64925960.7
2015-May-06 05:31N 23°04' E 113°30'9292.0
2015-May-06 05:29N 22°57' E 113°36'10938.0
2015-May-06 05:28N 23°04' E 113°29'85345820.6
2015-May-06 05:27N 36°01' E 120°13'26521206.9
2015-May-06 05:27N 31°41' E 121°12'42160633.5
2015-May-06 05:26N 38°41' E 121°42'1028127599.5
2015-May-06 05:26N 23°04' E 113°29'8654442.3
2015-May-06 05:14N 36°07' E 120°33'8751293.0
2015-May-06 04:33N 22°55' E 113°27'1039233853.6
2015-May-06 04:33N 38°41' E 121°47'42138890.0
2015-May-06 04:33N 31°41' E 121°12'3136976.0
2015-May-06 04:32N 31°15' E 121°32'652260961.0
2015-May-06 04:32N 23°04' E 113°30'1 4.5
2015-May-06 04:25N 23°04' E 113°29'2262.6
2015-May-06 04:25N 23°03' E 113°32'66211287.3
2015-May-06 04:21N 31°58' E 120°50'3525758.4
2015-May-06 04:18N 37°48' E 121°41'98057842.0
2015-May-06 04:17N 23°04' E 113°29'101718.0
2015-May-06 04:16N 22°57' E 113°37'1014.6
2015-May-06 03:33N 23°04' E 113°29'12385.6
2015-May-06 03:33N 23°04' E 113°30'66050549.2
2015-May-06 03:33N 31°41' E 121°12'28779.6
2015-May-06 03:30N 31°20' E 121°33'6598655.0
2015-May-06 03:26N 22°57' E 113°36'98322693.0
2015-May-06 03:23N 37°48' E 121°38'9798679.4
2015-May-06 03:16N 23°04' E 113°29'1270.9
2015-May-06 03:06N 23°03' E 113°16'916.6
2015-May-06 02:33N 23°04' E 113°26'4888.8
2015-May-06 02:33N 23°04' E 113°30'66098996.4
2015-May-06 02:33N 31°41' E 121°12'241646.8
2015-May-06 02:32N 31°22' E 121°30'66517989.0
2015-May-06 02:29N 23°03' E 113°16'9835249.1
2015-May-06 02:18N 37°48' E 121°33'97732572.3
2015-May-06 02:16N 23°04' E 113°29'0 2.7
2015-May-06 02:14N 23°04' E 113°29'6596111.2
2015-May-06 02:07N 31°26' E 121°28'6861210.4
2015-May-06 01:33N 22°17' E 113°48'5146059.0
2015-May-06 01:33N 23°02' E 113°22'981135780.8
2015-May-06 01:33N 37°48' E 121°30'36794467.1
2015-May-06 01:33N 31°41' E 121°12'66032547.0
2015-May-06 01:31N 23°04' E 113°30'114.6
2015-May-06 01:29N 23°04' E 113°29'98529073.0
2015-May-06 01:27N 39°04' E 117°49'98549264.0
2015-May-06 01:25N 23°04' E 113°29'86527553.4
2015-May-06 01:24N 36°07' E 120°33'2866121.1
2015-May-06 01:21N 31°25' E 121°31'812841.5
2015-May-06 01:19N 32°07' E 122°52'10695032.8
2015-May-06 01:19N 31°08' E 121°10'634820.3
2015-May-06 00:33N 23°04' E 113°30'97410826.7
2015-May-06 00:27N 37°48' E 121°25'36731491.2
2015-May-06 00:27N 31°41' E 121°12'66037136.4
2015-May-06 00:25N 23°04' E 113°29'65981760.9
2015-May-06 00:25N 31°29' E 121°25'2719677.2
2015-May-06 00:25N 31°05' E 121°10'2933.4
2015-May-05 23:33N 31°32' E 121°20'65878967.2
2015-May-05 23:33N 23°04' E 113°30'1 4.7
2015-May-05 23:26N 23°04' E 113°29'044.2
2015-May-05 23:26N 23°04' E 113°29'6605713.1
2015-May-05 23:19N 31°41' E 121°12'36612917.3
2015-May-05 23:17N 37°47' E 121°20'98110479.1
2015-May-05 23:11N 22°54' E 113°29'6374800.1
2015-May-05 23:03N 31°01' E 121°10'3773.8
2015-May-05 22:33N 31°37' E 121°15'659215713.3
2015-May-05 22:33N 23°04' E 113°30'628564854.6
2015-May-05 22:33N 30°59' E 121°10'40518922.2
2015-May-05 22:32N 37°44' E 121°13'36348392.1
2015-May-05 22:32N 31°41' E 121°12'66012987.5
2015-May-05 22:28N 23°04' E 113°29'65623867.8
2015-May-05 22:27N 31°21' E 121°32'115540.3
2015-May-05 22:14N 32°21' E 123°27'7694959.1
2015-May-05 22:05N 23°04' E 113°29'1 1.1
2015-May-05 21:33N 23°04' E 113°30'66022413.9
2015-May-05 21:32N 31°41' E 121°12'66013818.2
2015-May-05 21:29N 23°04' E 113°29'0 1.4
2015-May-05 21:25N 23°04' E 113°29'57225.8
2015-May-05 21:10N 22°20' E 114°07'47456.4
2015-May-05 21:04N 22°57' E 113°36'917.7
2015-May-05 20:33N 23°04' E 113°30'62911615.2
2015-May-05 20:30N 30°58' E 121°14'62937145.4
2015-May-05 20:29N 23°04' E 113°29'018.8
2015-May-05 20:28N 23°04' E 113°29'58104144.9
2015-May-05 20:28N 22°18' E 114°07'48909.3
2015-May-05 20:25N 22°57' E 113°36'6637037.1
2015-May-05 20:20N 31°41' E 121°12'26187.8
2015-May-05 20:11N 31°58' E 120°50'6621033.7
2015-May-05 19:33N 23°04' E 113°30'63350667.5
2015-May-05 19:32N 30°59' E 121°20'433740.5
2015-May-05 19:32N 31°41' E 121°12'66012846.2
2015-May-05 19:28N 23°04' E 113°29'0 2.7
2015-May-05 19:26N 23°04' E 113°29'58279.5
2015-May-05 19:13N 22°18' E 114°07'5785.0
2015-May-05 18:33N 23°04' E 113°30'572274.3
2015-May-05 18:31N 22°18' E 114°07'581310.5
2015-May-05 18:28N 23°04' E 113°29'6604992.7
2015-May-05 18:21N 31°41' E 121°12'660838.6
2015-May-05 17:33N 23°04' E 113°30'64364258.5
2015-May-05 17:33N 31°05' E 121°28'381046.0
2015-May-05 17:31N 31°41' E 121°12'67816054.0
2015-May-05 17:28N 22°18' E 114°07'581361.8
2015-May-05 17:25N 23°04' E 113°29'1 0.6
2015-May-05 16:33N 23°04' E 113°30'647387955.2
2015-May-05 16:33N 31°11' E 121°28'331488.8
2015-May-05 16:32N 31°41' E 121°12'67865951.0
2015-May-05 16:31N 22°18' E 114°07'58664.8
2015-May-05 16:26N 23°04' E 113°29'031.6
2015-May-05 16:25N 23°04' E 113°29'0 0.2
2015-May-05 15:33N 23°04' E 113°29'66037131.9
2015-May-05 15:32N 31°41' E 121°12'388478.3
2015-May-05 15:31N 31°18' E 121°48'6647115.0
2015-May-05 15:26N 23°04' E 113°29'583727.5
2015-May-05 15:25N 22°18' E 114°07'49147.0
2015-May-05 15:05N 22°53' E 113°30'4994.5
2015-May-05 14:33N 22°18' E 114°07'67664004.3
2015-May-05 14:33N 31°15' E 121°47'391408.2
2015-May-05 14:31N 31°41' E 121°12'6609582.9
2015-May-05 14:27N 23°04' E 113°29'1071.2
2015-May-05 14:18N 22°56' E 113°36'10334.0
2015-May-05 14:17N 23°04' E 113°29'5880.6
2015-May-05 13:33N 22°18' E 114°07'5817409.1
2015-May-05 13:33N 23°04' E 113°29'6609468.3
2015-May-05 13:29N 31°41' E 121°12'66095069.0
2015-May-05 13:29N 23°04' E 113°29'6564723.7
2015-May-05 13:20N 31°21' E 121°30'672852.3
2015-May-05 12:33N 22°18' E 114°07'587734.8
2015-May-05 12:33N 23°04' E 113°29'6602552.7
2015-May-05 12:17N 31°41' E 121°12'660897.1
2015-May-05 11:33N 23°04' E 113°29'581234.8
2015-May-05 11:30N 22°18' E 114°07'3397884.0
2015-May-05 11:28N 22°32' E 120°14'37511944.8
2015-May-05 11:26N 23°04' E 113°29'6604126.2
2015-May-05 11:16N 31°41' E 121°12'660925.8
2015-May-05 10:33N 23°04' E 113°29'5813914.6
2015-May-05 10:33N 22°18' E 114°07'67118450.3
2015-May-05 10:31N 31°22' E 121°29'23509.8
2015-May-05 10:28N 31°41' E 121°12'411034.5
2015-May-05 10:26N 32°04' E 120°32'20350.7
2015-May-05 10:22N 31°54' E 120°53'6607223.9
2015-May-05 10:17N 23°04' E 113°29'0 0.1
2015-May-05 09:33N 23°04' E 113°29'65611859.7
2015-May-05 09:30N 31°22' E 121°29'671345262.3
2015-May-05 09:30N 22°19' E 114°06'9925025.3
2015-May-05 09:18N 37°42' E 121°09'361482.1
2015-May-05 08:33N 31°41' E 121°12'660297059.8
2015-May-05 08:33N 23°04' E 113°29'66256754.1
2015-May-05 08:32N 31°58' E 120°50'51452.5
2015-May-05 08:26N 31°21' E 121°31'3873324.5
2015-May-05 08:19N 37°48' E 121°17'3482553.9
2015-May-05 08:10N 32°01' E 120°45'44932336.2
2015-May-05 08:10N 39°05' E 117°44'98512191.0
2015-May-05 08:05N 23°04' E 113°29'0 0.2
2015-May-05 07:33N 23°04' E 113°29'98562208.7
2015-May-05 07:32N 39°04' E 117°48'44918576.7
2015-May-05 07:31N 31°60' E 120°49'1128.5
2015-May-05 07:30N 31°58' E 120°50'060.0
2015-May-05 07:30N 31°58' E 120°50'3517528.0
2015-May-05 07:27N 37°49' E 121°19'3885627.5
2015-May-05 07:23N 31°21' E 121°31'25109.2
2015-May-05 07:09N 31°41' E 121°12'6609002.2
2015-May-05 07:05N 23°04' E 113°29'6601253.5
2015-May-05 06:33N 31°41' E 121°12'660396059.8
2015-May-05 06:33N 23°04' E 113°29'9759861.6
2015-May-05 06:27N 37°49' E 121°24'97545011.1
2015-May-05 06:26N 23°04' E 113°29'98557213.5
2015-May-05 06:25N 39°04' E 117°50'1771746.9
2015-May-05 06:19N 38°46' E 121°36'4454697.9
2015-May-05 06:13N 31°21' E 121°31'656993.0
2015-May-05 05:33N 23°04' E 113°29'65673824.4
2015-May-05 05:33N 31°21' E 121°31'25266.3
2015-May-05 05:27N 31°41' E 121°12'66027006.6
2015-May-05 05:26N 23°04' E 113°29'97810442.5
2015-May-05 05:20N 37°50' E 121°30'9771255.0
2015-May-05 04:33N 23°04' E 113°29'1032161539.6
2015-May-05 04:33N 38°46' E 121°40'18322711.3
2015-May-05 04:32N 39°04' E 117°46'1887865.3
2015-May-05 04:31N 37°50' E 121°27'38841120.1
2015-May-05 04:30N 31°21' E 121°27'23323.7
2015-May-05 04:26N 31°41' E 121°12'66091407.7
2015-May-05 04:26N 23°04' E 113°29'6622285.6
2015-May-05 04:08N 31°58' E 120°50'6621135.6
2015-May-05 03:33N 23°04' E 113°29'65449082.7
2015-May-05 03:33N 31°21' E 121°27'38945143.4
2015-May-05 03:32N 37°50' E 121°23'100418252.1
2015-May-05 03:29N 22°25' E 113°54'463925.2
2015-May-05 03:28N 23°04' E 113°29'65624607.2
2015-May-05 03:26N 31°21' E 121°31'4975938.6
2015-May-05 03:21N 39°04' E 117°52'47312512.0
2015-May-05 03:19N 31°41' E 121°12'4132210.3
2015-May-05 03:08N 25°03' E 119°05'8322996664.0
2015-May-05 03:08N 38°46' E 121°37'40910229.7
2015-May-05 03:05N 31°58' E 120°50'353661.5
2015-May-05 02:34N 37°50' E 121°19'1802856.0
2015-May-05 02:30N 39°04' E 117°49'98525338.5
2015-May-05 02:27N 23°04' E 113°29'65438623.4
2015-May-05 02:26N 31°21' E 121°27'67029434.8
2015-May-05 02:25N 22°27' E 113°53'67227201.6
2015-May-05 02:24N 31°20' E 121°33'029.2
2015-May-05 02:23N 31°20' E 121°32'44516033.5
2015-May-05 02:21N 38°46' E 121°35'4263266.8
2015-May-05 02:13N 31°41' E 121°12'660992.8
2015-May-05 01:33N 23°04' E 113°30'656124288.2
2015-May-05 01:33N 31°22' E 121°30'67217662.5
2015-May-05 01:31N 22°27' E 113°53'6787413.7
2015-May-05 01:25N 31°41' E 121°12'66084886.8
2015-May-05 01:25N 23°04' E 113°29'1029247006.3
2015-May-05 01:24N 38°46' E 121°33'102910291.6
2015-May-05 01:18N 23°04' E 113°29'1 0.7
2015-May-05 00:32N 23°04' E 113°30'432437.7
2015-May-05 00:31N 22°27' E 113°53'43761.7
2015-May-05 00:27N 23°04' E 113°29'10516.0
2015-May-05 00:26N 22°57' E 113°36'66549903.6
2015-May-05 00:25N 31°59' E 120°49'1345518.2
2015-May-05 00:25N 32°00' E 120°35'65648161.1
2015-May-05 00:25N 23°04' E 113°29'6605247.0
2015-May-05 00:17N 31°41' E 121°12'663882.9
2015-May-04 23:32N 22°57' E 113°36'9300.7
2015-May-04 23:30N 23°04' E 113°30'6603022.7
2015-May-04 23:17N 31°41' E 121°12'66023074.7
2015-May-04 23:15N 23°04' E 113°29'9511335.9
2015-May-04 22:33N 36°52' E 122°28'95149602.9
2015-May-04 22:32N 23°04' E 113°29'10362.4
2015-May-04 22:30N 22°57' E 113°36'968108852.1
2015-May-04 22:29N 37°42' E 121°09'36116874.3
2015-May-04 22:28N 31°41' E 121°12'66011427.4
2015-May-04 22:25N 23°04' E 113°29'0 0.6
2015-May-04 22:18N 23°04' E 113°29'1467.9
2015-May-04 22:06N 22°51' E 113°34'1425.2
2015-May-04 21:33N 23°04' E 113°29'66225625.3
2015-May-04 21:31N 31°58' E 120°50'66246728.4
2015-May-04 21:30N 23°04' E 113°29'0 0.6
2015-May-04 21:25N 23°04' E 113°29'295478.2
2015-May-04 21:24N 22°46' E 113°04'31933.9
2015-May-04 21:22N 22°57' E 113°36'66541995.0
2015-May-04 21:21N 31°60' E 120°48'28318.3
2015-May-04 21:16N 31°41' E 121°12'189835397.8
2015-May-04 21:13N 00°03' E 120°54'14482191.7
2015-May-04 20:33N 23°04' E 113°29'0 4.2
2015-May-04 20:30N 23°04' E 113°29'6602770.2
2015-May-04 20:16N 31°41' E 121°12'66313036.8
2015-May-04 20:13N 22°57' E 113°36'32555.8
2015-May-04 20:10N 22°39' E 113°06'143137614.7
2015-May-04 20:07N 00°02' E 120°52'14482526.4
2015-May-04 19:33N 23°04' E 113°29'657124416.3
2015-May-04 19:33N 31°23' E 121°30'2486.8
2015-May-04 19:16N 31°41' E 121°12'66011264.1
2015-May-04 19:13N 23°04' E 113°29'0 0.2
2015-May-04 19:06N 23°04' E 113°29'0 0.3
2015-May-04 18:33N 23°04' E 113°29'0 3.1
2015-May-04 18:30N 23°04' E 113°29'0 0.6
2015-May-04 18:25N 23°04' E 113°29'6626694.9
2015-May-04 18:19N 31°58' E 120°50'662873.0
2015-May-04 17:33N 23°04' E 113°29'66056578.6
2015-May-04 17:33N 31°39' E 121°15'66018564.6
2015-May-04 17:30N 23°04' E 113°29'6595513.6
2015-May-04 17:23N 31°51' E 120°54'65925223.6
2015-May-04 17:22N 23°04' E 113°29'43137.8
2015-May-04 17:03N 22°27' E 113°53'4385.4
2015-May-04 16:33N 23°04' E 113°29'465306.8
2015-May-04 16:32N 22°20' E 113°19'70081346.4
2015-May-04 16:32N 31°33' E 121°20'6595744.8
2015-May-04 16:25N 23°04' E 113°29'432092.4
2015-May-04 16:23N 22°27' E 113°53'43512.5
2015-May-04 16:18N 23°04' E 113°29'5167.3
2015-May-04 15:33N 22°14' E 113°23'518291.3
2015-May-04 15:33N 23°04' E 113°29'660118725.8
2015-May-04 15:33N 31°28' E 121°27'43740379.2
2015-May-04 15:32N 38°46' E 121°40'4258597.3
2015-May-04 15:29N 31°41' E 121°10'67718897.6
2015-May-04 15:27N 22°27' E 113°53'67629338.7
2015-May-04 15:25N 31°35' E 121°18'66010506.6
2015-May-04 15:22N 23°04' E 113°29'9694837.4
2015-May-04 15:10N 37°03' E 122°48'9699300.2
2015-May-04 15:03N 23°04' E 113°29'0 0.4
2015-May-04 14:33N 23°04' E 113°29'103330733.8
2015-May-04 14:31N 38°46' E 121°45'108423088.6
2015-May-04 14:28N 22°09' E 113°29'55513.5
2015-May-04 14:22N 23°04' E 113°29'0 0.6
2015-May-04 14:15N 23°04' E 113°29'96939660.1
2015-May-04 14:14N 37°04' E 122°48'3372270.7
2015-May-04 14:05N 31°35' E 121°19'7001323.4
2015-May-04 13:33N 22°11' E 113°35'548807.1
2015-May-04 13:33N 23°04' E 113°29'437764.1
2015-May-04 13:33N 22°27' E 113°53'67683893.3
2015-May-04 13:32N 31°27' E 121°29'66023512.4
2015-May-04 13:30N 23°04' E 113°29'0 0.2
2015-May-04 12:33N 23°04' E 113°29'5521859.0
2015-May-04 12:33N 22°11' E 113°41'6963367.6
2015-May-04 12:21N 31°25' E 121°32'6766469.0
2015-May-04 12:14N 22°27' E 113°53'106014023.9
2015-May-04 12:10N 38°45' E 121°47'103317887.4
2015-May-04 12:06N 23°04' E 113°29'6601195.2
2015-May-04 11:33N 31°25' E 121°32'660593716.6
2015-May-04 11:33N 23°04' E 113°29'432772.4
2015-May-04 11:32N 22°27' E 113°53'43526.2
2015-May-04 11:27N 23°04' E 113°29'66223139.4
2015-May-04 11:26N 31°58' E 120°50'662757.3
2015-May-04 10:33N 23°04' E 113°29'660169633.3
2015-May-04 10:33N 31°25' E 121°32'66015223.8
2015-May-04 10:30N 23°04' E 113°29'10316269.5
2015-May-04 10:21N 38°45' E 121°41'10575122.4
2015-May-04 10:08N 22°27' E 113°53'6741158.3
2015-May-04 09:33N 31°24' E 121°31'65830389.2
2015-May-04 09:32N 23°04' E 113°29'0 8.1
2015-May-04 09:30N 23°04' E 113°29'43594.4
2015-May-04 09:26N 22°27' E 113°53'10582812.1
2015-May-04 09:03N 38°47' E 121°39'10322053.9
2015-May-04 08:33N 23°04' E 113°29'95097693.3
2015-May-04 08:33N 36°51' E 122°28'786113.9
2015-May-04 08:32N 37°44' E 121°15'671417.2
2015-May-04 08:29N 38°45' E 121°47'1060346853.5
2015-May-04 08:29N 22°27' E 113°53'431644.8
2015-May-04 08:27N 23°04' E 113°29'67244.2
2015-May-04 08:11N 22°11' E 114°14'67106.5
2015-May-04 07:33N 23°04' E 113°29'6421155146.0
2015-May-04 07:33N 31°03' E 121°29'65619190.6
2015-May-04 07:31N 22°13' E 114°18'67386555.5
2015-May-04 07:31N 31°12' E 121°49'660139788.2
2015-May-04 07:30N 23°04' E 113°29'9757224.9
2015-May-04 07:22N 37°48' E 121°27'100111089.1
2015-May-04 07:17N 22°27' E 113°53'105811173.9
2015-May-04 07:11N 38°46' E 121°43'447709.6
2015-May-04 06:33N 31°18' E 121°46'663265209.9
2015-May-04 06:33N 23°04' E 113°29'97639047.0
2015-May-04 06:32N 37°49' E 121°28'1171295.5
2015-May-04 06:26N 36°06' E 120°20'8594715.7
2015-May-04 06:15N 23°04' E 113°29'43556.9
2015-May-04 06:11N 22°27' E 113°53'8891426.8
2015-May-04 05:33N 36°05' E 120°34'863444062.0
2015-May-04 05:33N 23°04' E 113°29'66896205.9
2015-May-04 05:33N 31°24' E 121°47'68333703.7
2015-May-04 05:32N 22°27' E 113°53'100315635.7
2015-May-04 05:28N 37°48' E 121°34'19245990.0
2015-May-04 05:28N 39°04' E 117°49'17816851.7
2015-May-04 05:27N 38°45' E 121°36'4624369.0
2015-May-04 05:21N 31°03' E 121°29'64217906.7
2015-May-04 05:18N 23°04' E 113°29'10135.8
2015-May-04 05:14N 22°56' E 113°36'646955.4
2015-May-04 04:33N 31°06' E 121°28'45223557.2
2015-May-04 04:32N 35°07' E 129°03'1091230946.0
2015-May-04 04:32N 23°04' E 113°29'436477.0
2015-May-04 04:31N 22°27' E 113°53'68619003.8
2015-May-04 04:29N 31°28' E 121°47'38039081.3
2015-May-04 04:29N 37°48' E 121°39'1944202.8
2015-May-04 04:26N 39°04' E 117°51'7864966.0
2015-May-04 04:16N 26°02' E 119°30'3742216.3
2015-May-04 04:06N 23°04' E 113°29'66246730.0
2015-May-04 04:06N 31°58' E 120°50'367686.5
2015-May-04 03:33N 25°59' E 119°26'717184484.8
2015-May-04 03:33N 37°48' E 121°39'19538974.7
2015-May-04 03:33N 39°04' E 117°50'49549500.7
2015-May-04 03:32N 31°28' E 121°47'671344950.2
2015-May-04 03:32N 23°04' E 113°29'63810688.3
2015-May-04 03:29N 31°00' E 121°26'63830237.4
2015-May-04 03:27N 23°04' E 113°29'43506.1
2015-May-04 03:22N 22°27' E 113°53'34274.8
2015-May-04 03:15N 22°54' E 113°30'6777.4
2015-May-04 03:14N 22°57' E 113°36'6578013.1
2015-May-04 03:09N 31°21' E 121°27'6541084.8
2015-May-04 02:33N 23°04' E 113°29'654235615.9
2015-May-04 02:33N 31°21' E 121°27'3865369.2
2015-May-04 02:29N 37°48' E 121°34'41021412.8
2015-May-04 02:28N 30°58' E 121°17'63329594.4
2015-May-04 02:26N 22°57' E 113°36'10923498.8
2015-May-04 02:08N 35°05' E 129°06'1102107261.6
2015-May-04 02:07N 22°27' E 113°53'43720.3
2015-May-04 02:03N 23°04' E 113°29'9761945.0
2015-May-04 01:33N 37°48' E 121°30'401240410.1
2015-May-04 01:33N 31°07' E 121°28'64464431.0
2015-May-04 01:33N 23°04' E 113°29'66218194.6
2015-May-04 01:30N 31°58' E 120°50'66535727.2
2015-May-04 01:29N 22°57' E 113°36'65725147.4
2015-May-04 01:28N 31°21' E 121°27'45215800.2
2015-May-04 01:26N 24°27' E 118°03'2593290.6
2015-May-04 01:21N 22°27' E 113°53'26179.7
2015-May-04 01:13N 22°45' E 113°33'6681024.1
2015-May-04 00:33N 31°21' E 121°27'654157077.3
2015-May-04 00:33N 23°04' E 113°29'975116972.9
2015-May-04 00:33N 37°48' E 121°25'722361.1
2015-May-04 00:31N 36°55' E 122°27'976351450.6
2015-May-04 00:31N 22°27' E 113°53'437035.9
2015-May-04 00:30N 23°04' E 113°29'20451.1
2015-May-04 00:28N 22°44' E 113°28'8836011.8
2015-May-04 00:19N 36°06' E 120°33'109143.0
2015-May-03 23:33N 37°48' E 121°21'973166726.7
2015-May-03 23:33N 23°04' E 113°29'65414725.7
2015-May-03 23:30N 31°21' E 121°27'28125270.9
2015-May-03 23:30N 35°59' E 120°33'88310813.8
2015-May-03 23:25N 22°27' E 113°53'43410.1
2015-May-03 23:18N 23°04' E 113°29'10467.2
2015-May-03 23:17N 22°57' E 113°36'49539.6
2015-May-03 23:12N 22°19' E 114°10'5992.2
2015-May-03 22:33N 23°04' E 113°29'65457466.3
2015-May-03 22:33N 31°21' E 121°27'38276327.4
2015-May-03 22:32N 37°43' E 121°11'96531009.2
2015-May-03 22:30N 23°04' E 113°29'593928.1
2015-May-03 22:29N 22°19' E 114°10'1846.1
2015-May-03 22:07N 22°27' E 113°53'6701213.5
2015-May-03 21:33N 31°21' E 121°27'654785372.8
2015-May-03 21:33N 23°04' E 113°29'66534717.4
2015-May-03 21:32N 31°20' E 121°48'6658232.3
2015-May-03 21:27N 23°04' E 113°29'59205.1
2015-May-03 21:10N 22°19' E 114°10'49572.6
2015-May-03 21:05N 22°57' E 113°36'1018.4
2015-May-03 20:33N 23°04' E 113°29'65444455.1
2015-May-03 20:32N 31°21' E 121°27'172701.2
2015-May-03 20:32N 31°20' E 121°48'66529214.6
2015-May-03 20:30N 23°04' E 113°29'6406902.8
2015-May-03 20:25N 31°57' E 120°10'29519.7
2015-May-03 20:22N 32°01' E 120°43'5467.8
2015-May-03 19:34N 31°21' E 121°27'654294512.7
2015-May-03 19:33N 23°04' E 113°29'644210755.5
2015-May-03 19:33N 31°57' E 120°17'852045.8
2015-May-03 19:31N 31°22' E 121°47'680174858.6
2015-May-03 19:30N 22°19' E 114°10'5930302.5
2015-May-03 19:30N 23°04' E 113°29'13836953.2
2015-May-03 19:18N 00°02' E 114°07'19272559.8
2015-May-03 18:33N 31°21' E 121°27'654181237.3
2015-May-03 18:33N 23°04' E 113°29'592025.9
2015-May-03 18:31N 22°19' E 114°10'68018269.0
2015-May-03 18:29N 31°22' E 121°47'66723528.5
2015-May-03 18:27N 23°04' E 113°29'43120.7
2015-May-03 18:06N 22°27' E 113°53'4378.6
2015-May-03 17:33N 23°04' E 113°29'432879.0
2015-May-03 17:32N 22°27' E 113°53'68227896.2
2015-May-03 17:31N 31°22' E 121°47'667133322.6
2015-May-03 17:30N 23°04' E 113°29'655235663.6
2015-May-03 17:30N 31°22' E 121°28'49340.8
2015-May-03 17:21N 31°59' E 120°50'662825.4
2015-May-03 16:33N 23°04' E 113°29'66715093.6
2015-May-03 16:31N 31°22' E 121°47'667199984.0
2015-May-03 16:31N 23°04' E 113°29'6706894.4
2015-May-03 16:25N 31°27' E 121°47'148603.9
2015-May-03 16:25N 31°24' E 121°31'6748578.4
2015-May-03 16:20N 22°27' E 113°53'1878.7
2015-May-03 16:06N 22°19' E 114°10'59107.2
2015-May-03 15:33N 23°04' E 113°29'66032996.3
2015-May-03 15:32N 31°38' E 121°15'677121867.5
2015-May-03 15:32N 22°27' E 113°53'681245155.3
2015-May-03 15:32N 31°21' E 121°48'154171.6
2015-May-03 15:31N 31°24' E 121°31'141116.0
2015-May-03 15:31N 31°22' E 121°47'3814133.4
2015-May-03 15:25N 37°41' E 122°42'9986132.3
2015-May-03 15:15N 23°04' E 113°29'59467.8
2015-May-03 15:08N 22°19' E 114°10'59103.1
2015-May-03 14:33N 23°04' E 113°29'65998856.7
2015-May-03 14:33N 31°33' E 121°21'37467370.5
2015-May-03 14:33N 37°41' E 122°44'381196057.1
2015-May-03 14:33N 31°24' E 121°31'66231779.4
2015-May-03 14:31N 22°58' E 113°30'66579835.2
2015-May-03 14:31N 31°17' E 121°45'62864.0
2015-May-03 14:31N 31°22' E 121°47'6823091.8
2015-May-03 14:17N 22°27' E 113°53'4359.0
2015-May-03 13:34N 23°04' E 113°29'66122657.6
2015-May-03 13:32N 31°10' E 121°53'242504.3
2015-May-03 13:31N 31°24' E 121°31'141559.4
2015-May-03 13:31N 31°22' E 121°47'38154878.8
2015-May-03 13:30N 37°40' E 122°48'102462453.2
2015-May-03 13:29N 22°27' E 113°53'181318.8
2015-May-03 13:28N 22°19' E 114°10'522719.5
2015-May-03 13:27N 22°54' E 113°28'1011.2
2015-May-03 12:33N 23°04' E 113°29'668267137.8
2015-May-03 12:33N 31°24' E 121°47'6834031.9
2015-May-03 12:23N 22°27' E 113°53'4352.1
2015-May-03 11:33N 23°04' E 113°29'66914950.8
2015-May-03 11:31N 31°25' E 121°48'152619.1
2015-May-03 11:30N 31°24' E 121°31'11146.3
2015-May-03 11:30N 31°23' E 121°30'6735507.4
2015-May-03 11:23N 22°27' E 113°53'4352.2
2015-May-03 10:33N 23°04' E 113°29'669185159.9
2015-May-03 10:33N 31°25' E 121°48'18503.5
2015-May-03 10:31N 31°28' E 121°27'6748303.6
2015-May-03 10:26N 22°19' E 114°10'682772.7
2015-May-03 09:33N 31°25' E 121°48'66983000.4
2015-May-03 09:33N 23°04' E 113°29'650194999.0
2015-May-03 09:32N 31°13' E 121°30'66610648.9
2015-May-03 09:29N 22°27' E 113°53'67518549.5
2015-May-03 09:27N 31°32' E 121°20'6743101.6
2015-May-03 09:14N 22°19' E 114°10'22186.4
2015-May-03 09:06N 22°18' E 113°45'4988.3
2015-May-03 08:33N 23°04' E 113°29'177212894.8
2015-May-03 08:33N 23°05' E 116°42'567255003.2
2015-May-03 08:33N 31°22' E 121°47'38165398.3
2015-May-03 08:33N 37°42' E 121°12'39517781.3
2015-May-03 08:31N 31°07' E 121°28'66062513.0
2015-May-03 08:31N 22°27' E 113°53'12807.3
2015-May-03 08:30N 22°17' E 113°47'6937579.6
2015-May-03 08:25N 31°59' E 120°50'6812604.2
2015-May-03 08:09N 22°19' E 114°10'6551112.2
2015-May-03 07:33N 31°03' E 121°29'64285587.5
2015-May-03 07:33N 23°04' E 113°29'66450858.1
2015-May-03 07:32N 31°19' E 121°47'55769131.2
2015-May-03 07:32N 23°10' E 116°47'536113401.5
2015-May-03 07:31N 31°03' E 121°29'65759121.8
2015-May-03 07:31N 22°27' E 113°53'1017261611.2
2015-May-03 07:31N 39°05' E 117°46'45117664.2
2015-May-03 07:29N 31°59' E 120°50'6819610.5
2015-May-03 07:25N 22°19' E 114°10'9783477.2
2015-May-03 07:08N 36°55' E 122°29'9541656.2
2015-May-03 06:33N 23°04' E 113°29'66435676.8
2015-May-03 06:32N 31°19' E 121°47'67928101.2
2015-May-03 06:31N 22°27' E 113°53'100118772.6
2015-May-03 06:28N 37°48' E 121°27'1861648.3
2015-May-03 06:21N 39°04' E 117°51'95077725.0
2015-May-03 06:20N 23°15' E 116°55'56567789.1
2015-May-03 06:20N 32°00' E 120°49'30632389.5
2015-May-03 06:19N 36°55' E 122°27'2546679.4
2015-May-03 06:17N 39°04' E 117°49'6046624.5
2015-May-03 06:11N 29°43' E 122°19'620981.2
2015-May-03 05:33N 23°04' E 113°29'62517724.6
2015-May-03 05:31N 29°50' E 122°21'60077133.0
2015-May-03 05:31N 39°05' E 117°45'1017915485.2
2015-May-03 05:31N 22°27' E 113°53'6799088.5
2015-May-03 05:26N 31°19' E 121°47'5048898.1
2015-May-03 05:23N 39°04' E 117°49'51383933.7
2015-May-03 05:22N 31°03' E 121°29'642779.4
2015-May-03 04:33N 23°04' E 113°29'66447808.5
2015-May-03 04:32N 31°19' E 121°47'504453402.1
2015-May-03 04:32N 39°04' E 117°50'101716796.1
2015-May-03 04:29N 22°27' E 113°53'101732405.3
2015-May-03 04:27N 39°04' E 117°49'5131477.1
2015-May-03 04:06N 31°03' E 121°29'6421171.3
2015-May-03 03:33N 23°04' E 113°29'63655813.6
2015-May-03 03:32N 30°10' E 122°17'744568.8
2015-May-03 03:31N 31°19' E 121°47'6794630.4
2015-May-03 03:22N 22°27' E 113°53'10175238.7
2015-May-03 03:11N 39°05' E 117°46'1963268.5
2015-May-03 03:07N 37°49' E 121°37'101624714.9
2015-May-03 03:05N 22°17' E 113°47'10281975.4
2015-May-03 02:34N 39°04' E 117°50'989889822.1
2015-May-03 02:33N 23°03' E 113°16'988254180.1
2015-May-03 02:33N 39°04' E 117°49'98549947.5
2015-May-03 02:32N 23°04' E 113°29'66431452.9
2015-May-03 02:31N 31°19' E 121°47'390351210.7
2015-May-03 02:31N 37°49' E 121°34'1932962.0
2015-May-03 02:27N 39°04' E 117°48'10175819.9
2015-May-03 02:16N 22°27' E 113°53'11124.6
2015-May-03 02:11N 22°17' E 113°49'10281643.4
2015-May-03 01:33N 39°04' E 117°50'18842320.4
2015-May-03 01:33N 37°49' E 121°30'188338452.3
2015-May-03 01:33N 39°04' E 117°50'985126680.9
2015-May-03 01:33N 23°04' E 113°29'91706.5
2015-May-03 01:32N 23°03' E 113°19'6713801.9
2015-May-03 01:22N 31°19' E 121°47'69010019.9
2015-May-03 01:18N 22°17' E 113°47'6886822.0
2015-May-03 01:12N 31°45' E 121°03'6591017.0
2015-May-03 00:33N 23°04' E 113°29'9753509393.4
2015-May-03 00:33N 37°48' E 121°25'18541673.5
2015-May-03 00:32N 39°04' E 117°49'50417454.8
2015-May-03 00:31N 31°19' E 121°47'67916084.4
2015-May-03 00:28N 22°27' E 113°53'9971087.7
2015-May-02 23:33N 37°47' E 121°19'971388571.8
2015-May-02 23:33N 23°04' E 113°29'66417972.5
2015-May-02 23:31N 31°19' E 121°47'6794665.6
2015-May-02 23:22N 22°27' E 113°53'67737476.3
2015-May-02 23:21N 31°45' E 121°03'1730587.1
2015-May-02 23:21N 31°58' E 120°51'116.2
2015-May-02 23:18N 31°59' E 120°50'6385.4
2015-May-02 22:33N 31°19' E 121°47'664140610.6
2015-May-02 22:33N 23°04' E 113°29'96396294.0
2015-May-02 22:32N 37°42' E 121°09'34255925.6
2015-May-02 22:32N 32°00' E 120°47'662669.0
2015-May-02 21:33N 23°04' E 113°29'66264454.9
2015-May-02 21:32N 31°59' E 120°50'632131.1
2015-May-02 21:30N 31°19' E 121°47'6714963.6
2015-May-02 21:22N 22°51' E 113°34'1417.2
2015-May-02 20:33N 23°04' E 113°29'66438554.3
2015-May-02 20:32N 31°19' E 121°47'661262.8
2015-May-02 20:29N 32°01' E 120°47'663712.6
2015-May-02 19:33N 23°04' E 113°29'66536286.5
2015-May-02 19:32N 31°20' E 121°48'45388.3
2015-May-02 19:25N 31°45' E 121°03'659752.2
2015-May-02 18:33N 23°04' E 113°29'66543546.9
2015-May-02 18:32N 31°20' E 121°48'3751613.5
2015-May-02 18:18N 37°34' E 122°26'9861330.0
2015-May-02 17:33N 23°04' E 113°29'982117884.0
2015-May-02 17:33N 37°34' E 122°17'37520768.7
2015-May-02 17:32N 31°20' E 121°48'48014523.0
2015-May-02 17:30N 24°04' E 118°01'4994679.1
2015-May-02 17:23N 32°01' E 120°47'663789.8
2015-May-02 16:33N 23°04' E 113°29'66343379.8
2015-May-02 16:32N 32°01' E 120°47'2114904.8
2015-May-02 16:32N 31°45' E 121°03'351115023.3
2015-May-02 16:32N 37°33' E 122°06'37320980.5
2015-May-02 16:31N 31°20' E 121°48'6754294.4
2015-May-02 16:21N 22°55' E 113°25'1013.0
2015-May-02 15:33N 23°04' E 113°29'27046227.9
2015-May-02 15:33N 24°13' E 118°14'46712553.1
2015-May-02 15:31N 31°20' E 121°48'65149.2
2015-May-02 15:04N 32°01' E 120°47'6631278.0
2015-May-02 14:33N 23°04' E 113°29'66582588.7
2015-May-02 14:33N 31°20' E 121°48'3733043.3
2015-May-02 14:26N 37°33' E 122°05'9761116.1
2015-May-02 13:33N 23°04' E 113°29'66558416.4
2015-May-02 13:32N 31°20' E 121°48'6736583.2
2015-May-02 13:26N 22°54' E 113°30'1111.9
2015-May-02 12:33N 23°04' E 113°29'66559874.6
2015-May-02 12:32N 31°20' E 121°48'6626214.4
2015-May-02 12:32N 32°01' E 120°47'663672.1
2015-May-02 11:33N 23°04' E 113°29'66558412.4
2015-May-02 11:32N 31°20' E 121°48'3731188.0
2015-May-02 11:14N 37°33' E 122°05'10011483.9
2015-May-02 10:33N 22°27' E 113°53'68061236.4
2015-May-02 10:32N 31°20' E 121°48'665108854.2
2015-May-02 10:32N 23°04' E 113°29'9768988.4
2015-May-02 10:26N 37°33' E 122°05'9761116.4
2015-May-02 09:33N 23°04' E 113°29'43155215.9
2015-May-02 09:33N 22°27' E 113°53'68061236.4
2015-May-02 09:32N 31°20' E 121°48'50614566.8
2015-May-02 09:30N 39°05' E 117°44'99214007.3
2015-May-02 09:26N 22°56' E 113°33'9824711.5
2015-May-02 09:14N 37°33' E 122°05'2252019.7
2015-May-02 09:07N 39°05' E 117°44'10171797.2
2015-May-02 08:33N 22°27' E 113°53'435174.5
2015-May-02 08:32N 23°04' E 113°29'985131370.5
2015-May-02 08:32N 39°04' E 117°50'50353222.6
2015-May-02 08:31N 31°20' E 121°48'5036143.3
2015-May-02 08:26N 39°04' E 117°49'041.5
2015-May-02 08:26N 39°04' E 117°49'100473763.4
2015-May-02 08:25N 22°45' E 113°31'12136.1
2015-May-02 08:20N 22°56' E 113°33'99215942.5
2015-May-02 08:16N 39°04' E 117°46'9851374.7
2015-May-02 07:33N 23°04' E 113°29'985253358.9
2015-May-02 07:33N 39°04' E 117°50'22112027.4
2015-May-02 07:32N 37°33' E 122°05'37363904.8
2015-May-02 07:31N 31°20' E 121°48'68012248.5
2015-May-02 07:28N 22°27' E 113°53'101728168.0
2015-May-02 07:26N 39°04' E 117°48'119.1
2015-May-02 07:22N 39°04' E 117°50'100413184.7
2015-May-02 07:17N 22°44' E 113°37'100410037.8
2015-May-02 07:11N 39°04' E 117°51'9861570.6
2015-May-02 06:33N 23°04' E 113°29'2416990.0
2015-May-02 06:33N 22°43' E 113°40'619445636.0
2015-May-02 06:33N 29°58' E 121°52'58456830.9
2015-May-02 06:33N 39°05' E 117°44'50613788.8
2015-May-02 06:30N 31°20' E 121°48'3734757.6
2015-May-02 06:26N 37°33' E 122°05'98219308.9
2015-May-02 06:23N 22°56' E 113°33'9923807.9
2015-May-02 06:07N 39°05' E 117°44'101719798.7
2015-May-02 06:04N 22°27' E 113°53'4383.8
2015-May-02 05:33N 23°04' E 113°29'9380.6
2015-May-02 05:32N 22°56' E 113°33'61947387.7
2015-May-02 05:31N 29°58' E 121°59'58315437.8
2015-May-02 05:29N 39°04' E 117°50'21739000.7
2015-May-02 05:28N 37°35' E 122°02'375675651.8
2015-May-02 05:28N 31°20' E 121°48'50475551.0
2015-May-02 05:28N 39°04' E 117°48'1645.5
2015-May-02 05:28N 39°05' E 117°46'124.3
2015-May-02 05:24N 39°04' E 117°48'5167581.5
2015-May-02 05:20N 30°57' E 121°17'63843352.2
2015-May-02 05:19N 22°51' E 113°34'6713978.0
2015-May-02 05:09N 31°59' E 120°50'450758.7
2015-May-02 04:33N 39°04' E 117°49'515927199.8
2015-May-02 04:33N 30°59' E 121°22'3136986.7
2015-May-02 04:33N 31°20' E 121°48'6651197661.2
2015-May-02 04:33N 23°04' E 113°29'97494757.4
2015-May-02 04:33N 37°37' E 121°51'20844149.5
2015-May-02 04:32N 39°04' E 117°49'587162672.4
2015-May-02 04:32N 29°56' E 122°05'6273790.6
2015-May-02 04:22N 22°55' E 113°27'995115538.2
2015-May-02 04:22N 39°04' E 117°49'327.8
2015-May-02 04:16N 39°05' E 117°46'9851389.3
2015-May-02 03:33N 23°04' E 113°29'66585547.2
2015-May-02 03:33N 31°20' E 121°48'50318091.2
2015-May-02 03:31N 39°04' E 117°50'4445158.2
2015-May-02 03:26N 32°19' E 121°35'31916620.9
2015-May-02 03:25N 37°38' E 121°42'76331210.7
2015-May-02 03:23N 25°05' E 119°15'35018253.0
2015-May-02 03:22N 23°04' E 113°16'98823879.4
2015-May-02 03:20N 39°05' E 117°44'5102358.6
2015-May-02 03:07N 31°08' E 121°24'64712664.9
2015-May-02 03:04N 22°57' E 113°30'6701282.4
2015-May-02 02:32N 31°20' E 121°48'665798446.0
2015-May-02 02:32N 23°04' E 113°29'64439289.1
2015-May-02 02:31N 31°08' E 121°26'38951854.7
2015-May-02 02:31N 37°37' E 121°43'37522131.7
2015-May-02 02:30N 31°22' E 121°30'49637988.1
2015-May-02 02:29N 39°04' E 117°50'98838262.7
2015-May-02 02:28N 23°04' E 113°16'651180364.8
2015-May-02 02:27N 31°06' E 121°28'51240944.1
2015-May-02 02:27N 39°05' E 117°46'98884697.6
2015-May-02 02:26N 23°01' E 113°31'98841861.1
2015-May-02 02:24N 39°04' E 117°51'9851156.3
2015-May-02 01:33N 23°04' E 113°29'98554559.4
2015-May-02 01:32N 39°04' E 117°47'50423268.5
2015-May-02 01:31N 31°20' E 121°48'375675500.0
2015-May-02 01:31N 37°36' E 121°44'2075094.4
2015-May-02 01:29N 39°05' E 117°46'9857254.3
2015-May-02 01:20N 23°04' E 113°29'940.3
2015-May-02 01:08N 22°56' E 113°33'915.4
2015-May-02 00:33N 23°04' E 113°29'017.8
2015-May-02 00:32N 23°04' E 113°29'9714.8
2015-May-02 00:32N 22°56' E 113°33'66960180.4
2015-May-02 00:31N 31°20' E 121°48'374336928.7
2015-May-02 00:31N 37°35' E 121°45'2052480.6
2015-May-02 00:26N 39°04' E 117°49'102316009.7
2015-May-02 00:22N 22°19' E 114°07'5770.2
2015-May-01 23:33N 23°04' E 113°29'583612.6
2015-May-01 23:32N 22°18' E 114°07'68028463.1
2015-May-01 23:31N 31°20' E 121°48'375674115.7
2015-May-01 23:31N 37°35' E 121°47'1061081.9
2015-May-01 23:25N 36°06' E 120°34'864997.0
2015-May-01 22:33N 23°04' E 113°29'582718.7
2015-May-01 22:32N 22°18' E 114°07'68053213.2
2015-May-01 22:31N 31°20' E 121°48'37619888.9
2015-May-01 22:30N 37°36' E 121°46'107601.6
2015-May-01 22:19N 36°07' E 120°33'293382.8
2015-May-01 21:33N 31°20' E 121°48'66544348.9
2015-May-01 21:32N 23°04' E 113°29'97322604.7
2015-May-01 21:30N 37°38' E 121°47'1092649.9
2015-May-01 21:27N 36°06' E 120°33'89444678.4
2015-May-01 21:26N 22°18' E 114°07'133611060.4
2015-May-01 21:19N 00°02' E 114°07'19302524.7
2015-May-01 20:33N 31°20' E 121°48'665133048.4
2015-May-01 20:33N 23°04' E 113°29'37383946.5
2015-May-01 20:32N 25°44' E 119°39'36652759.1
2015-May-01 20:32N 22°18' E 114°07'100343498.7
2015-May-01 20:31N 37°39' E 121°47'343933.0
2015-May-01 20:09N 31°59' E 120°50'66642828.8
2015-May-01 20:08N 22°56' E 113°33'915.3
2015-May-01 19:33N 23°04' E 113°29'665114045.9
2015-May-01 19:33N 31°20' E 121°48'67448493.9
2015-May-01 19:32N 22°54' E 113°28'98532545.5
2015-May-01 19:30N 37°40' E 121°47'100542547.9
2015-May-01 19:29N 22°18' E 114°07'50319.6
2015-May-01 19:20N 22°56' E 113°33'911.4
2015-May-01 18:33N 23°04' E 113°29'61656878.9
2015-May-01 18:33N 29°55' E 122°02'8623856.9
2015-May-01 18:33N 31°20' E 121°48'68055638.5
2015-May-01 18:32N 22°18' E 114°07'50339.0
2015-May-01 18:23N 22°56' E 113°33'63815305.3
2015-May-01 18:21N 30°59' E 121°21'1317.1
2015-May-01 17:33N 31°11' E 121°28'64730650.7
2015-May-01 17:32N 23°04' E 113°29'587480.1
2015-May-01 17:32N 22°18' E 114°07'68011884.0
2015-May-01 17:28N 31°20' E 121°48'82664.4
2015-May-01 17:21N 29°58' E 121°51'132884.5
2015-May-01 17:12N 31°59' E 120°50'563880.8
2015-May-01 16:33N 22°37' E 120°12'372446705.2
2015-May-01 16:33N 23°04' E 113°29'644772536.1
2015-May-01 16:33N 31°07' E 121°28'615028.7
2015-May-01 16:33N 31°59' E 120°50'6274988.7
2015-May-01 16:33N 31°20' E 121°48'68036001.4
2015-May-01 16:31N 22°18' E 114°07'65620730.0
2015-May-01 16:30N 31°03' E 121°29'4002931.6
2015-May-01 16:21N 37°43' E 121°47'99615005.0
2015-May-01 16:17N 22°48' E 113°19'15151.8
2015-May-01 16:11N 22°56' E 113°33'6456397.3
2015-May-01 16:05N 31°03' E 121°29'5 9.8
2015-May-01 15:34N 31°08' E 121°28'6882055.3
2015-May-01 15:33N 32°16' E 121°32'698419035.2
2015-May-01 15:33N 23°04' E 113°29'64231220.4
2015-May-01 15:32N 31°03' E 121°29'2414103.7
2015-May-01 15:32N 31°20' E 121°48'6805653.8
2015-May-01 15:25N 22°18' E 114°07'49202.9
2015-May-01 15:10N 22°45' E 113°23'2031.5
2015-May-01 14:33N 23°04' E 113°29'64977922.0
2015-May-01 14:33N 31°12' E 121°30'172020.3
2015-May-01 14:32N 31°20' E 121°48'68048961.5
2015-May-01 14:31N 22°18' E 114°07'44158.6
2015-May-01 14:14N 22°44' E 113°28'2029.7
2015-May-01 13:33N 23°04' E 113°29'6657930.9
2015-May-01 13:28N 31°20' E 121°48'67810947.8
2015-May-01 13:24N 22°45' E 113°33'99420448.2
2015-May-01 13:21N 37°43' E 121°46'3463221.0
2015-May-01 13:15N 32°00' E 120°43'6897.2
2015-May-01 12:33N 31°20' E 121°48'68018406.7
2015-May-01 12:31N 22°18' E 114°07'531499.0
2015-May-01 12:29N 22°60' E 113°31'66582516.9
2015-May-01 12:28N 32°01' E 120°46'34623928.1
2015-May-01 12:27N 37°43' E 121°46'3471588.3
2015-May-01 12:14N 31°59' E 120°50'23702.8
2015-May-01 12:12N 31°42' E 121°08'4060.1
2015-May-01 11:33N 31°20' E 121°48'67310492.0
2015-May-01 11:29N 22°54' E 113°29'98743341.7
2015-May-01 11:27N 37°43' E 121°46'204226.8
2015-May-01 10:33N 39°04' E 117°47'20491661.2
2015-May-01 10:33N 37°43' E 121°46'104889868.8
2015-May-01 10:33N 21°54' E 113°13'730656657.4
2015-May-01 10:33N 31°20' E 121°48'15104.0
2015-May-01 10:24N 31°24' E 121°31'26160.8
2015-May-01 10:14N 31°42' E 121°08'4057.2
2015-May-01 09:33N 31°20' E 121°48'3814506.4
2015-May-01 09:27N 37°41' E 121°46'10123642010.0
2015-May-01 09:27N 22°18' E 113°46'483062.1
2015-May-01 09:27N 23°04' E 113°29'6453806.1
2015-May-01 09:16N 31°09' E 121°27'6484658.4
2015-May-01 09:08N 22°56' E 113°33'99239243.5
2015-May-01 09:06N 39°05' E 117°46'203368.8
2015-May-01 08:33N 37°38' E 121°40'37868094.5
2015-May-01 08:33N 31°20' E 121°48'66621232.1
2015-May-01 08:31N 23°05' E 113°26'98582481.8
2015-May-01 08:31N 39°04' E 117°48'488135205.8
2015-May-01 08:30N 31°29' E 121°25'6873992.6
2015-May-01 08:20N 22°17' E 113°47'102818418.5
2015-May-01 08:17N 39°05' E 117°44'10311428.0
2015-May-01 07:33N 22°15' E 113°48'103056196.2
2015-May-01 07:32N 39°04' E 117°47'472850005.2
2015-May-01 07:32N 31°42' E 121°08'47131404.7
2015-May-01 07:31N 39°04' E 117°50'50324806.4
2015-May-01 07:30N 31°20' E 121°48'245333.5
2015-May-01 07:30N 31°31' E 121°23'315095.5
2015-May-01 07:29N 30°59' E 121°24'39915973.2
2015-May-01 07:28N 37°38' E 121°51'100210550.0
2015-May-01 07:22N 22°20' E 114°07'67626163.4
2015-May-01 07:21N 31°41' E 121°09'3948.9
2015-May-01 06:33N 31°20' E 121°48'493320.0
2015-May-01 06:32N 31°47' E 120°60'9176.6
2015-May-01 06:29N 31°42' E 121°08'69460900.9
2015-May-01 06:28N 22°10' E 113°48'69269188.5
2015-May-01 06:28N 31°31' E 121°23'2754810.9
2015-May-01 06:24N 36°03' E 120°32'30122540.7
2015-May-01 06:24N 31°09' E 121°52'51638732.1
2015-May-01 06:23N 39°05' E 117°45'252.3
2015-May-01 06:20N 39°04' E 117°48'508649.1
2015-May-01 05:33N 31°15' E 121°46'1922660.5
2015-May-01 05:33N 31°04' E 121°28'2589033.4
2015-May-01 05:33N 31°23' E 121°47'50036753.5
2015-May-01 05:32N 39°04' E 117°50'46717143.4
2015-May-01 05:31N 31°45' E 121°06'69519242.1
2015-May-01 05:28N 22°10' E 113°48'69225944.4
2015-May-01 05:27N 31°31' E 121°22'675757.5
2015-May-01 04:33N 22°28' E 113°53'680122437.6
2015-May-01 04:33N 31°20' E 121°48'2110786.8
2015-May-01 04:33N 31°08' E 121°28'223462.0
2015-May-01 04:33N 31°23' E 121°47'363774.0
2015-May-01 04:32N 31°41' E 121°11'69464088.5
2015-May-01 04:31N 22°10' E 113°48'69427743.9
2015-May-01 04:30N 31°42' E 121°08'44567.3
2015-May-01 04:25N 30°58' E 121°14'34464.4
2015-May-01 04:21N 31°31' E 121°22'4884173.1
2015-May-01 04:14N 39°05' E 117°44'10171512.2
2015-May-01 03:33N 22°28' E 113°53'677812585.5
2015-May-01 03:33N 31°38' E 121°17'288460.2
2015-May-01 03:33N 31°12' E 121°29'505454526.8
2015-May-01 03:33N 39°04' E 117°50'496357427.3
2015-May-01 03:33N 31°27' E 121°48'4474.7
2015-May-01 03:33N 31°23' E 121°47'50211651.1
2015-May-01 03:30N 39°05' E 117°46'98926762.7
2015-May-01 03:28N 23°02' E 113°22'9898052.0
2015-May-01 03:20N 39°04' E 117°48'50914669.4
2015-May-01 03:18N 31°08' E 121°28'38400.3
2015-May-01 03:13N 31°42' E 121°08'6645395.1
2015-May-01 03:05N 22°55' E 113°33'3362.6
2015-May-01 02:34N 22°28' E 113°53'6671199842.4
2015-May-01 02:33N 31°15' E 121°30'682409109.4
2015-May-01 02:33N 22°12' E 113°48'67859528.3
2015-May-01 02:33N 31°11' E 121°28'20378.9
2015-May-01 02:30N 31°23' E 121°47'29159.1
2015-May-01 02:19N 31°38' E 121°17'47918136.6
2015-May-01 02:17N 39°05' E 117°46'98822101.4
2015-May-01 02:14N 23°03' E 113°21'66215881.9
2015-May-01 02:12N 32°01' E 120°34'51789.0
2015-May-01 02:08N 31°31' E 121°22'6751168.8
2015-May-01 01:33N 22°28' E 113°53'67011832.1
2015-May-01 01:30N 31°17' E 121°34'12225.0
2015-May-01 01:27N 31°23' E 121°47'381156.0
2015-May-01 01:25N 31°42' E 121°08'7237274.9
2015-May-01 01:19N 21°56' E 113°13'725434934.3
2015-May-01 01:19N 31°38' E 121°17'40143157.6
2015-May-01 01:19N 32°00' E 120°38'6180.6
2015-May-01 00:33N 31°21' E 121°32'672483908.8
2015-May-01 00:33N 22°28' E 113°53'67557826.8
2015-May-01 00:33N 31°31' E 121°22'2219769.4
2015-May-01 00:32N 31°23' E 121°47'661312.6
2015-May-01 00:29N 32°01' E 120°42'4464777.1
2015-May-01 00:24N 39°04' E 117°49'471105931.9
2015-May-01 00:24N 31°42' E 121°08'8255.1
2015-May-01 00:22N 31°38' E 121°17'678841.5
2015-Apr-30 23:33N 22°28' E 113°53'681272476.2
2015-Apr-30 23:33N 32°01' E 120°47'537338.1
2015-Apr-30 23:33N 31°23' E 121°30'33154239.7
2015-Apr-30 23:32N 36°51' E 122°27'25618777.0
2015-Apr-30 23:32N 39°04' E 117°50'50064262.5
2015-Apr-30 23:31N 31°23' E 121°47'141675.8
2015-Apr-30 23:31N 31°22' E 121°30'19396.7
2015-Apr-30 23:28N 31°38' E 121°17'858.0
2015-Apr-30 23:19N 31°42' E 121°08'1682.0
2015-Apr-30 23:07N 31°31' E 121°23'2239.6
2015-Apr-30 22:34N 31°23' E 121°47'224944.3
2015-Apr-30 22:33N 31°31' E 121°23'87150.1
2015-Apr-30 22:33N 31°26' E 121°30'32924669.6
2015-Apr-30 22:32N 36°51' E 122°27'3167533.4
2015-Apr-30 22:30N 31°42' E 121°08'898.4
2015-Apr-30 22:25N 31°38' E 121°17'2934.3
2015-Apr-30 21:33N 31°23' E 121°47'2072744.3
2015-Apr-30 21:33N 31°29' E 121°24'10228.0
2015-Apr-30 21:31N 31°38' E 121°17'26912240.0
2015-Apr-30 21:29N 36°04' E 120°34'2431616.8
2015-Apr-30 21:20N 32°01' E 120°48'6824307.0
2015-Apr-30 21:11N 22°28' E 113°52'6821093.2
2015-Apr-30 20:33N 31°23' E 121°47'2215823.1
2015-Apr-30 20:33N 31°31' E 121°23'41422.7
2015-Apr-30 20:33N 31°33' E 121°20'5819.6
2015-Apr-30 20:33N 31°38' E 121°17'344213.0
2015-Apr-30 20:32N 32°01' E 120°48'17797.3
2015-Apr-30 20:31N 31°46' E 120°57'1048.0
2015-Apr-30 20:18N 31°42' E 121°08'67619475.0
2015-Apr-30 20:16N 22°18' E 114°09'681953.4
2015-Apr-30 19:33N 31°23' E 121°47'307834.8
2015-Apr-30 19:33N 31°37' E 121°15'2333.4
2015-Apr-30 19:33N 31°38' E 121°17'34675.8
2015-Apr-30 19:30N 32°01' E 120°48'42662.9
2015-Apr-30 19:26N 31°31' E 121°23'67453936.3
2015-Apr-30 19:25N 22°18' E 114°09'9747953.7
2015-Apr-30 19:18N 36°51' E 122°27'330444.4
2015-Apr-30 18:33N 31°23' E 121°47'293654.3
2015-Apr-30 18:33N 31°38' E 121°17'6163.7
2015-Apr-30 18:31N 31°41' E 121°10'28754.1
2015-Apr-30 18:28N 32°01' E 120°48'3014110.8
2015-Apr-30 18:24N 36°51' E 122°27'330390.9
2015-Apr-30 17:33N 31°23' E 121°47'591227.8
2015-Apr-30 17:30N 31°58' E 120°51'30271.1
2015-Apr-30 17:24N 31°38' E 121°17'843.6
2015-Apr-30 17:13N 31°42' E 121°09'3152590.3
2015-Apr-30 17:06N 36°51' E 122°27'329609.4
2015-Apr-30 16:33N 31°23' E 121°47'37971.9
2015-Apr-30 16:31N 31°42' E 121°09'8380.6
2015-Apr-30 16:30N 31°38' E 121°17'2931.1
2015-Apr-30 15:33N 31°25' E 121°48'4250213.4
2015-Apr-30 15:33N 31°45' E 121°05'12131130.7
2015-Apr-30 15:33N 29°55' E 122°04'1174020.8
2015-Apr-30 15:31N 31°42' E 121°09'846.1
2015-Apr-30 15:21N 31°38' E 121°17'3182095.2
2015-Apr-30 15:12N 36°51' E 122°27'414643.8
2015-Apr-30 14:33N 29°58' E 121°57'8731357.9
2015-Apr-30 14:33N 31°25' E 121°48'29566.1
2015-Apr-30 14:30N 31°38' E 121°17'103109.4
2015-Apr-30 13:34N 29°59' E 121°50'41451331.4
2015-Apr-30 13:33N 36°51' E 122°28'3289527.3
2015-Apr-30 13:31N 31°25' E 121°48'35112510.3
2015-Apr-30 13:29N 25°57' E 119°23'6042384.9
2015-Apr-30 13:14N 35°58' E 120°32'2632133.0
2015-Apr-30 13:07N 31°38' E 121°17'350627.9
2015-Apr-30 12:33N 26°01' E 119°29'38024858.1
2015-Apr-30 12:32N 22°55' E 113°26'67024367.1
2015-Apr-30 12:31N 31°38' E 121°17'29617.7
2015-Apr-30 12:28N 31°25' E 121°48'42375.0
2015-Apr-30 12:21N 30°57' E 121°11'37819.6
2015-Apr-30 12:19N 31°33' E 121°19'2634.1
2015-Apr-30 11:33N 31°24' E 121°47'67690192.2
2015-Apr-30 11:33N 22°54' E 113°28'668141378.1
2015-Apr-30 11:33N 31°36' E 121°16'371645.1
2015-Apr-30 11:31N 32°02' E 120°45'30630575.2
2015-Apr-30 11:31N 36°55' E 122°29'3193101.0
2015-Apr-30 11:25N 31°46' E 120°57'351317.1
2015-Apr-30 11:23N 31°22' E 121°28'18952.8
2015-Apr-30 11:22N 31°38' E 121°17'37164.9
2015-Apr-30 11:08N 31°02' E 121°04'62717922.2
2015-Apr-30 11:06N 23°02' E 113°31'6661226.5
2015-Apr-30 10:33N 31°20' E 121°48'33755164.3
2015-Apr-30 10:33N 36°55' E 122°29'3377623.3
2015-Apr-30 10:30N 31°22' E 121°30'18197.3
2015-Apr-30 10:25N 31°38' E 121°17'24325.8
2015-Apr-30 10:20N 31°50' E 120°54'14168.1
2015-Apr-30 10:15N 32°02' E 120°45'306433.5
2015-Apr-30 09:33N 36°55' E 122°29'33829003.6
2015-Apr-30 09:32N 31°19' E 121°47'281221.6
2015-Apr-30 09:31N 31°33' E 121°19'66679959.7
2015-Apr-30 09:31N 22°52' E 113°33'66811239.4
2015-Apr-30 09:27N 31°37' E 121°18'3015400.1
2015-Apr-30 09:27N 31°56' E 120°52'66214980.9
2015-Apr-30 09:24N 23°03' E 113°30'1505.8
2015-Apr-30 09:24N 23°04' E 113°29'98111697.1
2015-Apr-30 09:19N 37°36' E 122°10'1263521.5
2015-Apr-30 09:17N 35°58' E 120°32'2391342.0
2015-Apr-30 09:06N 31°60' E 120°49'67846924.7
2015-Apr-30 09:05N 22°53' E 113°17'6771263.6
2015-Apr-30 08:33N 32°00' E 120°47'307221024.4
2015-Apr-30 08:33N 36°55' E 122°29'324166706.9
2015-Apr-30 08:33N 31°37' E 121°18'3136854.7
2015-Apr-30 08:33N 31°19' E 121°47'37525956.5
2015-Apr-30 08:32N 37°33' E 122°20'3421830.8
2015-Apr-30 08:21N 31°59' E 120°50'663831.3
2015-Apr-30 07:33N 23°04' E 113°29'6602377794.5
2015-Apr-30 07:33N 31°37' E 121°18'3113822.1
2015-Apr-30 07:33N 31°19' E 121°47'33814676.8
2015-Apr-30 07:32N 36°55' E 122°29'98027549.0
2015-Apr-30 07:29N 22°18' E 114°07'102447864.1
2015-Apr-30 07:28N 39°05' E 117°44'4498410.3
2015-Apr-30 07:25N 32°01' E 120°44'3843.6
2015-Apr-30 06:33N 31°37' E 121°18'319217.8
2015-Apr-30 06:33N 31°19' E 121°47'311984.1
2015-Apr-30 06:32N 30°59' E 121°20'3613350.2
2015-Apr-30 06:25N 36°55' E 122°29'32010462.6
2015-Apr-30 06:24N 31°57' E 120°11'66399413.6
2015-Apr-30 06:23N 22°18' E 114°07'10256481.9
2015-Apr-30 06:14N 39°05' E 117°52'2331437.3
2015-Apr-30 06:04N 37°34' E 122°25'398776.1
2015-Apr-30 05:33N 30°59' E 121°20'315023.0
2015-Apr-30 05:33N 31°19' E 121°47'318511.7
2015-Apr-30 05:33N 31°37' E 121°18'6782439058.9
2015-Apr-30 05:33N 22°18' E 114°07'1024118935.6
2015-Apr-30 05:32N 39°05' E 117°50'443199477.3
2015-Apr-30 05:32N 31°58' E 120°17'31738050.6
2015-Apr-30 05:31N 36°55' E 122°29'41380.3
2015-Apr-30 05:25N 37°35' E 122°19'34529543.5
2015-Apr-30 05:24N 31°59' E 120°50'65359.0
2015-Apr-30 05:13N 30°59' E 121°21'4770.7
2015-Apr-30 04:33N 31°44' E 121°05'4717017.1
2015-Apr-30 04:33N 30°60' E 121°24'284152.3
2015-Apr-30 04:33N 31°19' E 121°47'33815419.9
2015-Apr-30 04:32N 36°55' E 122°29'32410703.4
2015-Apr-30 04:30N 31°37' E 121°18'423.6
2015-Apr-30 04:20N 31°33' E 121°20'3342.6
2015-Apr-30 03:33N 31°01' E 121°29'242707.9
2015-Apr-30 03:33N 31°19' E 121°48'33812303.5
2015-Apr-30 03:31N 36°55' E 122°29'443.1
2015-Apr-30 03:26N 36°52' E 122°28'3208172.2
2015-Apr-30 03:23N 31°37' E 121°18'3671278.7
2015-Apr-30 03:06N 37°42' E 121°55'398727.4
2015-Apr-30 02:33N 31°05' E 121°28'221658.4
2015-Apr-30 02:32N 31°19' E 121°48'3113898.6
2015-Apr-30 02:32N 31°37' E 121°18'36728758.8
2015-Apr-30 02:32N 37°43' E 121°49'579377.0
2015-Apr-30 02:31N 36°55' E 122°29'31537859.4
2015-Apr-30 02:31N 31°58' E 120°20'2403072.2
2015-Apr-30 02:26N 35°58' E 120°32'120136.9
2015-Apr-30 01:34N 37°45' E 121°39'356128312.6
2015-Apr-30 01:33N 31°56' E 120°13'7947283.6
2015-Apr-30 01:33N 31°09' E 121°28'202342.4
2015-Apr-30 01:33N 31°19' E 121°48'31805.6
2015-Apr-30 01:30N 31°37' E 121°18'32110503.6
2015-Apr-30 01:29N 36°52' E 122°28'354.8
2015-Apr-30 01:25N 36°55' E 122°29'110397767.7
2015-Apr-30 01:25N 35°58' E 120°32'264306.7
2015-Apr-30 00:33N 31°37' E 121°18'321128406.6
2015-Apr-30 00:33N 36°52' E 122°33'343246879.8
2015-Apr-30 00:33N 31°13' E 121°30'161804.0
2015-Apr-30 00:33N 31°19' E 121°48'28614114.3
2015-Apr-30 00:32N 35°58' E 120°32'1183994.2
2015-Apr-30 00:30N 37°47' E 121°27'3484945.2
2015-Apr-30 00:26N 32°01' E 120°45'6618917.0
2015-Apr-30 00:21N 23°04' E 113°29'0 2.9
2015-Apr-30 00:11N 23°04' E 113°29'12779.1
2015-Apr-30 00:10N 22°52' E 113°32'12256.1
2015-Apr-30 00:08N 23°04' E 113°29'6651145.2
2015-Apr-29 23:33N 31°20' E 121°48'673161633.2
2015-Apr-29 23:32N 22°54' E 113°28'64650576.0
2015-Apr-29 23:32N 31°17' E 121°05'233160.8
2015-Apr-29 23:31N 31°15' E 121°31'242096.9
2015-Apr-29 23:31N 31°37' E 121°18'6605504.0
2015-Apr-29 23:23N 23°04' E 113°29'97218506.4
2015-Apr-29 23:20N 37°49' E 121°15'9713728.3
2015-Apr-29 23:05N 23°04' E 113°29'0 0.2
2015-Apr-29 22:33N 23°04' E 113°29'665104120.1
2015-Apr-29 22:33N 31°20' E 121°48'665119727.3
2015-Apr-29 22:32N 23°04' E 113°29'65525346.4
2015-Apr-29 22:31N 31°17' E 121°34'24117.9
2015-Apr-29 22:19N 31°37' E 121°18'66330206.3
2015-Apr-29 22:17N 22°57' E 113°36'658867.6
2015-Apr-29 21:32N 31°19' E 121°33'12908.5
2015-Apr-29 21:31N 31°20' E 121°48'305724.3
2015-Apr-29 21:31N 31°37' E 121°18'6603891.5
2015-Apr-29 21:20N 23°04' E 113°29'9501205.0
2015-Apr-29 20:33N 36°50' E 122°30'33137234.6
2015-Apr-29 20:33N 31°21' E 121°48'30910.0
2015-Apr-29 20:31N 31°37' E 121°18'19593.7
2015-Apr-29 20:29N 31°21' E 121°31'6563872.3
2015-Apr-29 20:19N 23°04' E 113°29'666869.5
2015-Apr-29 19:33N 31°21' E 121°48'1518146.4
2015-Apr-29 19:33N 31°23' E 121°30'65719708.4
2015-Apr-29 19:31N 23°04' E 113°29'561128.7
2015-Apr-29 19:28N 22°20' E 114°07'67714330.4
2015-Apr-29 19:25N 31°37' E 121°18'4911911.0
2015-Apr-29 19:09N 39°44' E 120°01'2234271.6
2015-Apr-29 19:06N 36°02' E 120°37'242439.2
2015-Apr-29 18:33N 32°01' E 120°47'656911.1
2015-Apr-29 18:33N 31°21' E 121°48'30959.3
2015-Apr-29 18:31N 31°37' E 121°18'660198147.5
2015-Apr-29 18:31N 23°04' E 113°29'583146.0
2015-Apr-29 18:29N 22°18' E 114°07'58171.7
2015-Apr-29 18:09N 23°04' E 113°29'6661104.3
2015-Apr-29 17:33N 31°21' E 121°48'40697502.8
2015-Apr-29 17:33N 38°07' E 122°09'43277682.2
2015-Apr-29 17:32N 30°58' E 121°15'391511.7
2015-Apr-29 17:31N 31°37' E 121°18'660148611.6
2015-Apr-29 17:31N 23°04' E 113°29'58478.5
2015-Apr-29 17:23N 22°18' E 114°07'26233655.4
2015-Apr-29 17:23N 24°18' E 118°21'461554.2
2015-Apr-29 16:33N 31°21' E 121°48'322840.5
2015-Apr-29 16:32N 30°59' E 121°20'381646.9
2015-Apr-29 16:31N 31°37' E 121°18'661125148.8
2015-Apr-29 16:31N 23°04' E 113°29'2705952.7
2015-Apr-29 16:28N 24°14' E 118°13'486145808.7
2015-Apr-29 16:28N 32°00' E 120°49'68327322.0
2015-Apr-29 16:26N 22°18' E 114°07'58247.6
2015-Apr-29 16:12N 23°04' E 113°29'6661021.2
2015-Apr-29 15:33N 31°21' E 121°48'66639946.2
2015-Apr-29 15:32N 23°04' E 113°30'2627199.0
2015-Apr-29 15:30N 24°09' E 118°07'2632820.9
2015-Apr-29 15:24N 23°04' E 113°29'583077.0
2015-Apr-29 15:23N 22°18' E 114°07'65469241.9
2015-Apr-29 15:22N 31°01' E 121°27'2732.1
2015-Apr-29 14:32N 31°21' E 121°48'48210655.1
2015-Apr-29 14:30N 24°02' E 118°01'49111624.5
2015-Apr-29 14:27N 31°48' E 120°56'67632900.1
2015-Apr-29 14:26N 22°18' E 114°07'58717.4
2015-Apr-29 14:21N 23°04' E 113°29'140.6
2015-Apr-29 14:20N 23°04' E 113°30'3651313663.5
2015-Apr-29 14:20N 22°34' E 120°04'5 6.7
2015-Apr-29 13:32N 22°35' E 120°10'33538922.3
2015-Apr-29 13:32N 22°18' E 114°07'68144559.4
2015-Apr-29 13:31N 31°21' E 121°48'6666479.8
2015-Apr-29 13:25N 23°04' E 113°29'6606891.4
2015-Apr-29 13:19N 31°37' E 121°18'6605674.8
2015-Apr-29 13:12N 23°04' E 113°29'376580.9
2015-Apr-29 12:33N 22°37' E 120°16'376150511.7
2015-Apr-29 12:33N 23°04' E 113°29'138.4
2015-Apr-29 12:32N 23°04' E 113°30'030.9
2015-Apr-29 12:32N 23°04' E 113°30'66052815.7
2015-Apr-29 12:31N 31°37' E 121°18'30568.9
2015-Apr-29 12:28N 31°21' E 121°48'38222.0
2015-Apr-29 12:18N 31°41' E 121°10'514688.3
2015-Apr-29 11:33N 23°42' E 117°41'50963128.9
2015-Apr-29 11:32N 31°21' E 121°48'66695872.8
2015-Apr-29 11:32N 23°04' E 113°30'645290093.5
2015-Apr-29 11:32N 31°09' E 121°27'29462.7
2015-Apr-29 11:28N 31°37' E 121°18'468.0
2015-Apr-29 11:25N 31°39' E 121°15'66045688.7
2015-Apr-29 11:24N 23°04' E 113°29'9503153.0
2015-Apr-29 11:06N 36°53' E 122°26'95049572.6
2015-Apr-29 11:05N 23°04' E 113°30'6461231.6
2015-Apr-29 10:33N 31°10' E 121°28'211275.7
2015-Apr-29 10:32N 31°21' E 121°48'301438.8
2015-Apr-29 10:31N 31°37' E 121°18'112.0
2015-Apr-29 10:24N 31°35' E 121°19'660148440.8
2015-Apr-29 10:24N 23°04' E 113°29'95090035.9
2015-Apr-29 10:23N 36°53' E 122°26'95015911.0
2015-Apr-29 10:20N 23°04' E 113°30'0 0.3
2015-Apr-29 10:08N 23°04' E 113°30'6591119.7
2015-Apr-29 09:33N 31°32' E 121°22'256915.5
2015-Apr-29 09:32N 31°21' E 121°48'344486.4
2015-Apr-29 09:32N 31°39' E 121°14'65929301.9
2015-Apr-29 09:31N 23°04' E 113°30'95025720.8
2015-Apr-29 09:28N 36°53' E 122°26'95013158.8
2015-Apr-29 09:24N 23°04' E 113°29'135.6
2015-Apr-29 09:23N 23°04' E 113°30'86521772.6
2015-Apr-29 09:21N 36°07' E 120°33'292372.7
2015-Apr-29 08:34N 31°21' E 121°48'66624963.6
2015-Apr-29 08:32N 23°04' E 113°30'0 0.7
2015-Apr-29 08:28N 23°04' E 113°30'95010690.2
2015-Apr-29 08:22N 36°53' E 122°26'3273308.4
2015-Apr-29 08:16N 31°29' E 121°26'6609241.9
2015-Apr-29 08:12N 23°04' E 113°29'6661036.9
2015-Apr-29 07:34N 31°21' E 121°48'478997.4
2015-Apr-29 07:33N 31°46' E 121°00'65816685.4
2015-Apr-29 07:31N 23°04' E 113°29'659263797.9
2015-Apr-29 07:31N 31°28' E 121°28'6645454.1
2015-Apr-29 07:23N 22°56' E 113°33'95650605.1
2015-Apr-29 07:22N 36°53' E 122°26'95010792.6
2015-Apr-29 07:17N 23°04' E 113°29'6607662.5
2015-Apr-29 07:12N 31°41' E 121°11'3757.6
2015-Apr-29 06:34N 31°21' E 121°48'66663098.1
2015-Apr-29 06:33N 23°03' E 113°30'169.4
2015-Apr-29 06:32N 23°04' E 113°29'0 4.0
2015-Apr-29 06:31N 23°04' E 113°29'187672077.4
2015-Apr-29 06:31N 23°18' E 116°51'55386487.4
2015-Apr-29 06:31N 31°39' E 121°15'17762.0
2015-Apr-29 06:29N 31°26' E 121°28'33121648.1
2015-Apr-29 06:28N 36°53' E 122°26'9504266.2
2015-Apr-29 06:15N 23°04' E 113°29'666964.7
2015-Apr-29 05:34N 31°21' E 121°48'64229322.3
2015-Apr-29 05:33N 32°00' E 120°49'56359636.3
2015-Apr-29 05:33N 23°21' E 116°44'18011150.1
2015-Apr-29 05:32N 23°04' E 113°29'65838827.3
2015-Apr-29 05:31N 31°26' E 121°28'65812872.2
2015-Apr-29 05:28N 23°04' E 113°29'413.2
2015-Apr-29 05:10N 23°03' E 113°25'914.3
2015-Apr-29 04:33N 22°55' E 113°27'17422416.9
2015-Apr-29 04:33N 23°22' E 116°35'550989593.6
2015-Apr-29 04:33N 31°26' E 121°28'172065.2
2015-Apr-29 04:32N 31°21' E 121°48'49263294.5
2015-Apr-29 04:32N 38°55' E 117°54'97756727.7
2015-Apr-29 04:31N 23°04' E 113°29'440.6
2015-Apr-29 04:25N 23°03' E 113°25'429.5
2015-Apr-29 04:17N 23°04' E 113°29'6583784.7
2015-Apr-29 04:07N 31°29' E 121°24'6661177.6
2015-Apr-29 03:33N 22°54' E 113°29'10170.0
2015-Apr-29 03:29N 23°04' E 113°29'65876423.3
2015-Apr-29 03:28N 31°29' E 121°24'21594.2
2015-Apr-29 03:26N 31°21' E 121°48'33628139.8
2015-Apr-29 03:26N 36°56' E 122°28'33410010.1
2015-Apr-29 03:24N 31°26' E 121°28'5484874.3
2015-Apr-29 03:17N 23°26' E 116°28'1702578.0
2015-Apr-29 03:13N 23°03' E 113°25'66022637.5
2015-Apr-29 03:11N 31°23' E 121°30'66148559.8
2015-Apr-29 03:10N 22°58' E 113°30'16248.3
2015-Apr-29 03:06N 22°54' E 113°13'18560.9
2015-Apr-29 03:05N 23°04' E 113°29'2 4.5
2015-Apr-29 02:33N 23°03' E 113°30'65898771.9
2015-Apr-29 02:33N 31°26' E 121°28'415024.6
2015-Apr-29 02:33N 31°21' E 121°27'659103081.1
2015-Apr-29 02:33N 22°58' E 113°30'6689.7
2015-Apr-29 02:32N 23°04' E 113°29'66699898.3
2015-Apr-29 02:32N 31°21' E 121°48'642.6
2015-Apr-29 02:23N 31°27' E 121°48'67429220.5
2015-Apr-29 02:22N 23°03' E 113°25'416.1
2015-Apr-29 02:07N 23°04' E 113°29'4 7.0
2015-Apr-29 01:33N 23°03' E 113°25'42166.2
2015-Apr-29 01:33N 23°04' E 113°29'66695972.5
2015-Apr-29 01:33N 31°22' E 121°48'168.2
2015-Apr-29 01:32N 31°21' E 121°48'66611987.9
2015-Apr-29 01:29N 23°04' E 113°29'0 8.2
2015-Apr-29 01:28N 23°04' E 113°29'65864016.0
2015-Apr-29 01:28N 31°26' E 121°28'6612659.9
2015-Apr-29 01:13N 23°03' E 113°25'4 6.3
2015-Apr-29 00:34N 23°04' E 113°29'66252928.5
2015-Apr-29 00:33N 31°17' E 121°45'1720135.9
2015-Apr-29 00:33N 31°26' E 121°28'17963.9
2015-Apr-29 00:32N 31°21' E 121°48'666171253.9
2015-Apr-29 00:31N 23°04' E 113°29'580.8
2015-Apr-29 00:28N 23°02' E 113°24'128.2
2015-Apr-29 00:25N 23°03' E 113°25'591303.3
2015-Apr-29 00:22N 22°18' E 114°07'581122.8
2015-Apr-29 00:19N 23°04' E 113°29'6596872.5
2015-Apr-29 00:13N 32°00' E 120°40'1381.7
2015-Apr-29 00:04N 32°01' E 120°25'64125.7
2015-Apr-28 23:33N 31°26' E 121°28'2517985.2
2015-Apr-28 23:33N 31°11' E 121°52'661103430.0
2015-Apr-28 23:33N 23°04' E 113°29'66670521.9
2015-Apr-28 23:32N 31°21' E 121°48'68133561.1
2015-Apr-28 23:31N 22°18' E 114°07'581315.1
2015-Apr-28 23:28N 23°04' E 113°29'012.5
2015-Apr-28 23:28N 23°04' E 113°29'5791.3
2015-Apr-28 23:28N 23°02' E 113°24'6593048.1
2015-Apr-28 23:15N 32°02' E 120°30'65721712.8
2015-Apr-28 23:13N 23°03' E 113°25'4 6.1
2015-Apr-28 22:33N 23°04' E 113°29'66668507.5
2015-Apr-28 22:32N 31°21' E 121°48'33412129.7
2015-Apr-28 22:31N 36°53' E 122°26'95025921.8
2015-Apr-28 22:28N 23°04' E 113°29'5411.5
2015-Apr-28 22:28N 23°02' E 113°24'535.2
2015-Apr-28 22:19N 23°04' E 113°29'6593568.5
2015-Apr-28 22:08N 31°25' E 121°31'6591137.7
2015-Apr-28 21:33N 23°04' E 113°29'66641335.3
2015-Apr-28 21:32N 31°21' E 121°48'667800122.7
2015-Apr-28 21:32N 23°05' E 113°27'2108.6
2015-Apr-28 21:31N 23°04' E 113°29'590.5
2015-Apr-28 21:28N 23°02' E 113°24'955491137.4
2015-Apr-28 21:28N 36°54' E 122°26'9516999.9
2015-Apr-28 21:19N 23°04' E 113°29'6403728.8
2015-Apr-28 21:09N 31°57' E 120°09'317533.4
2015-Apr-28 20:33N 36°53' E 122°26'953201863.5
2015-Apr-28 20:33N 22°60' E 113°31'4786.5
2015-Apr-28 20:33N 23°04' E 113°29'666171247.6
2015-Apr-28 20:33N 31°21' E 121°48'66625502.6
2015-Apr-28 20:31N 23°04' E 113°29'0 1.5
2015-Apr-28 20:28N 23°04' E 113°29'6512290.3
2015-Apr-28 20:11N 31°15' E 121°30'341540.5
2015-Apr-28 19:33N 36°53' E 122°26'950201231.5
2015-Apr-28 19:33N 23°04' E 113°30'648179401.3
2015-Apr-28 19:33N 31°12' E 121°29'181478.5
2015-Apr-28 19:32N 31°21' E 121°48'66633764.1
2015-Apr-28 19:31N 23°04' E 113°29'65841553.7
2015-Apr-28 19:30N 31°26' E 121°28'65823451.3
2015-Apr-28 19:28N 23°04' E 113°29'5479.2
2015-Apr-28 19:28N 23°02' E 113°24'13117.0
2015-Apr-28 19:21N 22°53' E 113°34'664831.8
2015-Apr-28 18:33N 31°26' E 121°28'65851474.1
2015-Apr-28 18:33N 23°04' E 113°30'666126129.0
2015-Apr-28 18:32N 31°21' E 121°48'66649943.3
2015-Apr-28 18:31N 23°04' E 113°29'0 1.2
2015-Apr-28 18:28N 23°04' E 113°29'5591.2
2015-Apr-28 18:28N 23°02' E 113°24'95522313.6
2015-Apr-28 18:25N 36°53' E 122°26'9763085.6
2015-Apr-28 18:06N 22°18' E 114°07'2787533.0
2015-Apr-28 18:04N 24°24' E 118°38'293566.9
2015-Apr-28 17:33N 23°04' E 113°30'66661447.5
2015-Apr-28 17:32N 31°21' E 121°48'332170919.1
2015-Apr-28 17:32N 36°51' E 122°33'95257121.4
2015-Apr-28 17:31N 23°04' E 113°29'65833360.0
2015-Apr-28 17:30N 31°26' E 121°28'66318782.1
2015-Apr-28 17:28N 23°02' E 113°24'59365.2
2015-Apr-28 17:18N 22°18' E 114°07'5876.9
2015-Apr-28 16:33N 23°04' E 113°30'658147988.1
2015-Apr-28 16:33N 31°26' E 121°28'65825745.5
2015-Apr-28 16:31N 23°04' E 113°29'666217935.6
2015-Apr-28 16:31N 31°21' E 121°48'68123789.6
2015-Apr-28 16:30N 22°18' E 114°07'58137.6
2015-Apr-28 16:04N 23°04' E 113°29'5555.6
2015-Apr-28 16:04N 23°02' E 113°24'610.7
2015-Apr-28 15:33N 23°04' E 113°30'66659911.3
2015-Apr-28 15:32N 31°21' E 121°48'66651005.2
2015-Apr-28 15:31N 23°04' E 113°29'0 4.5
2015-Apr-28 15:31N 23°04' E 113°29'369331878.9
2015-Apr-28 15:30N 22°37' E 120°08'53321330.6
2015-Apr-28 15:29N 31°26' E 121°28'6632444.0
2015-Apr-28 15:13N 23°02' E 113°24'6 8.4
2015-Apr-28 14:33N 23°04' E 113°30'3321.7
2015-Apr-28 14:33N 23°01' E 113°31'667109218.6
2015-Apr-28 14:32N 31°21' E 121°48'66651009.1
2015-Apr-28 14:31N 23°04' E 113°29'6588029.0
2015-Apr-28 14:27N 31°26' E 121°28'6632873.9
2015-Apr-28 14:13N 23°02' E 113°24'5 7.8
2015-Apr-28 13:34N 23°04' E 113°29'667141201.4
2015-Apr-28 13:33N 31°23' E 121°47'175434.4
2015-Apr-28 13:33N 31°21' E 121°27'63228013.0
2015-Apr-28 13:33N 32°02' E 120°30'614243.2
2015-Apr-28 13:32N 31°26' E 121°28'65852634.6
2015-Apr-28 13:31N 23°04' E 113°29'1155.4
2015-Apr-28 13:20N 22°53' E 113°30'10155.7
2015-Apr-28 13:16N 23°02' E 113°24'5 7.1
2015-Apr-28 12:33N 23°04' E 113°29'667300055.1
2015-Apr-28 12:33N 31°23' E 121°47'171811.4
2015-Apr-28 12:32N 31°21' E 121°27'65451219.5
2015-Apr-28 12:31N 23°04' E 113°29'658197381.2
2015-Apr-28 12:31N 31°26' E 121°28'6702098.1
2015-Apr-28 12:12N 22°54' E 113°22'856.3
2015-Apr-28 12:04N 23°02' E 113°24'6711326.8
2015-Apr-28 11:33N 31°23' E 121°47'667400073.5
2015-Apr-28 11:33N 23°04' E 113°29'65436246.4
2015-Apr-28 11:32N 31°21' E 121°27'4358.2
2015-Apr-28 11:31N 31°26' E 121°28'65813086.1
2015-Apr-28 11:28N 23°04' E 113°29'10672.0
2015-Apr-28 11:28N 22°57' E 113°36'12249.7
2015-Apr-28 11:25N 23°02' E 113°24'44177.6
2015-Apr-28 11:10N 22°27' E 113°53'71473449.8
2015-Apr-28 11:09N 32°14' E 121°31'6961168.0
2015-Apr-28 10:34N 23°04' E 113°29'654471206.5
2015-Apr-28 10:33N 31°21' E 121°27'4200.3
2015-Apr-28 10:32N 31°26' E 121°28'16548.6
2015-Apr-28 10:30N 31°23' E 121°47'68224071.6
2015-Apr-28 10:29N 22°27' E 113°53'438657.1
2015-Apr-28 10:28N 23°04' E 113°29'1087.9
2015-Apr-28 10:21N 22°54' E 113°28'70657767.0
2015-Apr-28 10:21N 32°16' E 121°31'7025211.1
2015-Apr-28 10:13N 23°02' E 113°24'5 7.8
2015-Apr-28 09:33N 23°04' E 113°29'654168286.8
2015-Apr-28 09:33N 31°21' E 121°27'175142.6
2015-Apr-28 09:33N 31°24' E 121°47'66828978.7
2015-Apr-28 09:31N 23°04' E 113°29'65826613.0
2015-Apr-28 09:30N 31°26' E 121°28'6637572.4
2015-Apr-28 09:25N 23°02' E 113°24'5 5.9
2015-Apr-28 08:33N 23°04' E 113°29'66932523.8
2015-Apr-28 08:32N 31°25' E 121°47'172394.6
2015-Apr-28 08:32N 31°21' E 121°27'654294510.0
2015-Apr-28 08:31N 23°04' E 113°29'6581184286.9
2015-Apr-28 08:31N 31°26' E 121°28'66310744.7
2015-Apr-28 08:28N 23°02' E 113°24'171546.2
2015-Apr-28 08:09N 23°27' E 116°28'544919.7
2015-Apr-28 07:33N 31°21' E 121°27'65471393.9
2015-Apr-28 07:33N 23°04' E 113°29'1599.5
2015-Apr-28 07:33N 23°05' E 113°27'66951255.4
2015-Apr-28 07:32N 31°25' E 121°47'66975221.2
2015-Apr-28 07:31N 23°04' E 113°29'659107910.7
2015-Apr-28 07:31N 31°53' E 120°54'557286541.1
2015-Apr-28 07:31N 23°26' E 116°32'54716409.4
2015-Apr-28 07:29N 31°26' E 121°28'6667284.1
2015-Apr-28 07:23N 23°03' E 113°17'677809.9
2015-Apr-28 06:33N 31°25' E 121°47'1412778.8
2015-Apr-28 06:33N 31°11' E 121°50'660103316.9
2015-Apr-28 06:33N 23°04' E 113°29'654336570.3
2015-Apr-28 06:33N 31°21' E 121°27'54639311.9
2015-Apr-28 06:32N 23°21' E 116°35'1769331.2
2015-Apr-28 06:31N 23°02' E 113°25'66232199.5
2015-Apr-28 06:30N 31°26' E 121°28'67615504.5
2015-Apr-28 06:27N 22°54' E 113°12'63721039.8
2015-Apr-28 06:25N 30°02' E 121°59'61947432.0
2015-Apr-28 06:24N 22°57' E 113°36'33956.6
2015-Apr-28 06:22N 22°27' E 113°53'43175.5
2015-Apr-28 06:07N 23°04' E 113°29'6378343.7
2015-Apr-28 06:03N 31°09' E 121°14'3366.1
2015-Apr-28 05:33N 31°25' E 121°47'669481331.1
2015-Apr-28 05:33N 23°04' E 113°29'4377709.7
2015-Apr-28 05:33N 22°27' E 113°53'629755119.2
2015-Apr-28 05:33N 29°57' E 122°04'490117480.9
2015-Apr-28 05:33N 23°21' E 116°42'548219370.1
2015-Apr-28 05:33N 31°18' E 121°46'301330.3
2015-Apr-28 05:31N 31°08' E 121°13'224614.2
2015-Apr-28 05:31N 31°26' E 121°28'4102.8
2015-Apr-28 05:29N 31°21' E 121°27'6543210.0
2015-Apr-28 05:16N 23°04' E 113°29'10146.3
2015-Apr-28 05:12N 22°57' E 113°36'124713.3
2015-Apr-28 05:12N 23°02' E 113°25'187286.3
2015-Apr-28 04:33N 23°17' E 116°47'526631787.7
2015-Apr-28 04:33N 31°09' E 121°09'3415426.4
2015-Apr-28 04:33N 31°20' E 121°48'182004.9
2015-Apr-28 04:32N 31°26' E 121°28'1425354.8
2015-Apr-28 04:32N 31°26' E 121°45'967540.6
2015-Apr-28 04:31N 29°52' E 122°10'620743530.4
2015-Apr-28 04:31N 23°04' E 113°29'4257.7
2015-Apr-28 04:30N 23°02' E 113°25'131393.7
2015-Apr-28 04:30N 22°54' E 113°35'95755546.8
2015-Apr-28 04:29N 36°53' E 122°26'33518853.8
2015-Apr-28 04:28N 31°21' E 121°27'8987.6
2015-Apr-28 04:27N 31°29' E 121°24'66111326.7
2015-Apr-28 04:24N 22°59' E 113°32'6632046.1
2015-Apr-28 04:04N 31°45' E 121°05'2344.6
2015-Apr-28 03:33N 31°29' E 121°24'827652.3
2015-Apr-28 03:33N 31°21' E 121°27'1762386.1
2015-Apr-28 03:33N 31°19' E 121°48'89159884.2
2015-Apr-28 03:33N 29°52' E 122°10'62023756.0
2015-Apr-28 03:31N 23°05' E 113°28'4107.1
2015-Apr-28 03:29N 23°02' E 113°25'123535.0
2015-Apr-28 03:29N 22°57' E 113°36'1782.6
2015-Apr-28 03:29N 22°57' E 113°37'111463.2
2015-Apr-28 03:28N 23°04' E 113°29'95195054.5
2015-Apr-28 03:28N 36°53' E 122°26'3311191616.5
2015-Apr-28 03:28N 31°26' E 121°28'45768.6
2015-Apr-28 03:24N 31°58' E 120°52'4842868.2
2015-Apr-28 03:24N 31°23' E 121°30'6734907.4
2015-Apr-28 03:16N 22°27' E 113°53'4462.0
2015-Apr-28 02:33N 23°03' E 113°25'661198385.6
2015-Apr-28 02:33N 31°26' E 121°28'329395313.9
2015-Apr-28 02:33N 36°51' E 122°27'33421879.4
2015-Apr-28 02:32N 31°19' E 121°47'221439.6
2015-Apr-28 02:31N 31°29' E 121°24'66049528.5
2015-Apr-28 02:30N 22°57' E 113°36'65773870.6
2015-Apr-28 02:30N 31°21' E 121°27'9786930.7
2015-Apr-28 02:30N 29°52' E 122°10'620371834.5
2015-Apr-28 02:30N 23°04' E 113°29'66456942.7
2015-Apr-28 02:29N 32°02' E 120°50'66454349.9
2015-Apr-28 02:28N 23°04' E 113°29'63645804.6
2015-Apr-28 02:27N 31°11' E 121°09'64028077.1
2015-Apr-28 02:26N 23°03' E 113°25'70472436.9
2015-Apr-28 02:25N 32°18' E 121°34'7017088.7
2015-Apr-28 02:19N 23°04' E 113°29'65322595.4
2015-Apr-28 02:18N 31°21' E 121°26'411891.3
2015-Apr-28 02:16N 31°52' E 120°54'1115.0
2015-Apr-28 01:34N 32°01' E 120°49'1518335.6
2015-Apr-28 01:33N 31°48' E 120°57'4439638.1
2015-Apr-28 01:33N 32°18' E 121°34'6941621.2
2015-Apr-28 01:33N 31°12' E 121°09'1865126.2
2015-Apr-28 01:33N 31°21' E 121°27'65549088.0
2015-Apr-28 01:32N 23°03' E 113°30'66455608.0
2015-Apr-28 01:32N 31°19' E 121°47'183772.1
2015-Apr-28 01:31N 31°26' E 121°28'1003220.3
2015-Apr-28 01:30N 29°52' E 122°10'6202231249.4
2015-Apr-28 01:30N 23°04' E 113°29'5265.2
2015-Apr-28 01:28N 23°02' E 113°24'553.3
2015-Apr-28 01:23N 23°04' E 113°29'43360.7
2015-Apr-28 01:16N 22°27' E 113°53'441432.6
2015-Apr-28 01:14N 23°03' E 113°25'1217.3
2015-Apr-28 00:33N 22°57' E 113°36'706133784.5
2015-Apr-28 00:33N 32°19' E 121°38'6814382.5
2015-Apr-28 00:33N 31°16' E 121°09'9971001.2
2015-Apr-28 00:33N 29°52' E 122°10'896797.3
2015-Apr-28 00:32N 31°19' E 121°47'66877595.9
2015-Apr-28 00:31N 23°02' E 113°25'662397192.2
2015-Apr-28 00:31N 31°26' E 121°28'665125971.0
2015-Apr-28 00:31N 22°55' E 113°30'66119040.8
2015-Apr-28 00:29N 31°21' E 121°27'65414723.1
2015-Apr-28 00:26N 23°04' E 113°29'42332.6
2015-Apr-28 00:26N 23°03' E 113°25'6684496.8
2015-Apr-28 00:17N 32°02' E 120°50'6653500.7
2015-Apr-28 00:06N 23°04' E 113°29'66022846.9
2015-Apr-28 00:04N 31°44' E 121°07'2853.7
2015-Apr-27 23:33N 31°17' E 121°08'28835796.8
2015-Apr-27 23:33N 36°04' E 120°33'8881065613.4
2015-Apr-27 23:33N 22°27' E 113°53'6741213602.6
2015-Apr-27 23:33N 31°26' E 121°28'10060051.7
2015-Apr-27 23:32N 29°52' E 122°10'12187450.4
2015-Apr-27 23:32N 31°42' E 121°09'403680.6
2015-Apr-27 23:32N 31°19' E 121°48'66816941.0
2015-Apr-27 23:29N 23°02' E 113°25'496.0
2015-Apr-27 23:27N 23°04' E 113°29'016.7
2015-Apr-27 23:26N 23°04' E 113°29'44662.7
2015-Apr-27 23:26N 23°03' E 113°25'1235.7
2015-Apr-27 23:06N 22°57' E 113°36'66420082.2
2015-Apr-27 23:04N 32°00' E 120°45'5199.2
2015-Apr-27 22:33N 31°26' E 121°28'1760330.3
2015-Apr-27 22:33N 31°38' E 121°15'2035411.1
2015-Apr-27 22:33N 31°21' E 121°27'213706.4
2015-Apr-27 22:33N 31°16' E 121°04'1017913.6
2015-Apr-27 22:32N 29°53' E 122°10'889927.6
2015-Apr-27 22:32N 31°19' E 121°48'66840734.8
2015-Apr-27 22:31N 23°03' E 113°25'4199.8
2015-Apr-27 22:30N 23°04' E 113°29'10238.5
2015-Apr-27 22:27N 22°57' E 113°36'10517.5
2015-Apr-27 22:26N 23°04' E 113°29'664759.7
2015-Apr-27 21:33N 31°19' E 121°48'282693.1
2015-Apr-27 21:33N 31°33' E 121°20'142714.5
2015-Apr-27 21:33N 31°21' E 121°27'34185.2
2015-Apr-27 21:33N 31°24' E 121°31'273460.4
2015-Apr-27 21:32N 31°17' E 121°00'63926440.7
2015-Apr-27 21:31N 23°03' E 113°25'4244.8
2015-Apr-27 21:30N 23°04' E 113°29'65817167.8
2015-Apr-27 21:27N 31°26' E 121°28'660158461.6
2015-Apr-27 21:27N 22°57' E 113°36'10144.1
2015-Apr-27 21:23N 23°04' E 113°29'660798.9
2015-Apr-27 20:33N 31°30' E 121°26'5921.3
2015-Apr-27 20:33N 31°26' E 121°28'183996.2
2015-Apr-27 20:33N 31°19' E 121°48'66818209.5
2015-Apr-27 20:31N 23°03' E 113°25'662476477.5
2015-Apr-27 20:31N 31°24' E 121°31'65840869.8
2015-Apr-27 20:30N 23°04' E 113°29'65444450.6
2015-Apr-27 20:29N 31°21' E 121°27'65414452.4
2015-Apr-27 20:26N 23°04' E 113°29'6209299.1
2015-Apr-27 20:22N 29°52' E 122°10'4 5.4
2015-Apr-27 19:34N 29°55' E 122°06'9638430.7
2015-Apr-27 19:33N 31°26' E 121°30'192025.7
2015-Apr-27 19:33N 31°14' E 121°48'662198642.7
2015-Apr-27 19:33N 22°57' E 113°37'131269.7
2015-Apr-27 19:32N 23°04' E 113°25'65743783.7
2015-Apr-27 19:31N 31°21' E 121°27'65425607.4
2015-Apr-27 19:30N 23°04' E 113°29'65843098.5
2015-Apr-27 19:29N 31°24' E 121°31'3104.5
2015-Apr-27 19:27N 31°26' E 121°28'6582991.2
2015-Apr-27 19:14N 23°04' E 113°29'664969.0
2015-Apr-27 18:33N 31°19' E 121°48'66748983.2
2015-Apr-27 18:32N 23°04' E 113°25'659169376.5
2015-Apr-27 18:32N 31°21' E 121°31'832934.9
2015-Apr-27 18:30N 30°01' E 121°58'61871731.3
2015-Apr-27 18:30N 23°04' E 113°29'65853842.4
2015-Apr-27 18:29N 31°26' E 121°28'4219.6
2015-Apr-27 18:28N 31°21' E 121°27'65638070.4
2015-Apr-27 18:27N 22°57' E 113°37'1149.8
2015-Apr-27 18:14N 23°04' E 113°29'665984.2
2015-Apr-27 17:33N 31°20' E 121°48'145081.2
2015-Apr-27 17:33N 31°15' E 121°32'1922197674.3
2015-Apr-27 17:33N 00°02' E 114°08'1383124469.9
2015-Apr-27 17:32N 23°04' E 113°25'657262700.1
2015-Apr-27 17:32N 31°21' E 121°27'4102.2
2015-Apr-27 17:29N 31°26' E 121°28'27129605.8
2015-Apr-27 17:29N 35°52' E 120°26'8498735.7
2015-Apr-27 17:23N 23°04' E 113°29'0 2.0
2015-Apr-27 17:18N 23°04' E 113°29'647871.5
2015-Apr-27 16:33N 31°11' E 121°28'19941.2
2015-Apr-27 16:32N 31°20' E 121°48'66760025.6
2015-Apr-27 16:31N 23°04' E 113°26'656472352.1
2015-Apr-27 16:31N 31°21' E 121°27'65424541.9
2015-Apr-27 16:30N 23°04' E 113°29'65843871.3
2015-Apr-27 16:29N 31°26' E 121°28'65814622.9
2015-Apr-27 16:26N 23°04' E 113°29'642728.8
2015-Apr-27 15:33N 31°04' E 121°28'181671.4
2015-Apr-27 15:32N 31°21' E 121°27'65573646.3
2015-Apr-27 15:32N 23°03' E 113°30'6661197912.4
2015-Apr-27 15:32N 31°20' E 121°48'171021.9
2015-Apr-27 15:31N 31°26' E 121°28'65960830.3
2015-Apr-27 15:30N 23°02' E 113°31'8871.7
2015-Apr-27 15:30N 22°54' E 113°28'10158.3
2015-Apr-27 15:26N 23°04' E 113°29'9 9.9
2015-Apr-27 14:32N 22°55' E 113°30'671805679.0
2015-Apr-27 14:32N 31°20' E 121°48'17428.4
2015-Apr-27 14:29N 31°21' E 121°27'4141.5
2015-Apr-27 14:28N 31°26' E 121°28'65823225.1
2015-Apr-27 14:26N 23°04' E 113°29'657750.2
2015-Apr-27 13:33N 31°23' E 121°30'3546.1
2015-Apr-27 13:33N 31°26' E 121°28'1710377.2
2015-Apr-27 13:33N 31°20' E 121°48'68147115.2
2015-Apr-27 13:32N 22°27' E 113°53'3713483.0
2015-Apr-27 13:32N 22°55' E 113°25'9221.3
2015-Apr-27 13:29N 22°50' E 113°34'768.6
2015-Apr-27 13:23N 22°57' E 113°37'64210696.2
2015-Apr-27 13:20N 31°01' E 121°30'21358.5
2015-Apr-27 13:19N 31°03' E 121°29'1 0.8
2015-Apr-27 12:33N 31°02' E 121°29'2486766.2
2015-Apr-27 12:33N 31°20' E 121°48'17889.6
2015-Apr-27 12:32N 31°26' E 121°28'111.2
2015-Apr-27 12:28N 31°26' E 121°28'65923951.8
2015-Apr-27 12:26N 23°04' E 113°29'643734.3
2015-Apr-27 11:34N 31°06' E 121°27'222343.0
2015-Apr-27 11:33N 31°20' E 121°48'172223.7
2015-Apr-27 11:32N 31°26' E 121°28'6586027.6
2015-Apr-27 11:26N 23°04' E 113°29'43420.1
2015-Apr-27 11:20N 22°27' E 113°53'336280.1
2015-Apr-27 11:19N 22°57' E 113°37'13610.7
2015-Apr-27 11:18N 23°02' E 113°25'650872.8
2015-Apr-27 10:33N 31°10' E 121°28'202216.3
2015-Apr-27 10:33N 31°20' E 121°48'68240937.7
2015-Apr-27 10:32N 22°54' E 113°14'4510124.1
2015-Apr-27 10:32N 22°27' E 113°53'4439581.2
2015-Apr-27 10:32N 23°02' E 113°25'662794347.8
2015-Apr-27 10:32N 31°26' E 121°28'66042431.3
2015-Apr-27 10:31N 22°57' E 113°35'237.3
2015-Apr-27 10:28N 22°57' E 113°37'11320.9
2015-Apr-27 10:26N 23°04' E 113°29'650743.5
2015-Apr-27 09:34N 31°13' E 121°30'131739.6
2015-Apr-27 09:33N 31°26' E 121°28'66243325.5
2015-Apr-27 09:32N 23°02' E 113°25'66963406.9
2015-Apr-27 09:32N 31°20' E 121°48'6665539.4
2015-Apr-27 09:24N 22°57' E 113°37'63828691.7
2015-Apr-27 09:23N 31°20' E 120°57'636763372.7
2015-Apr-27 09:23N 23°04' E 113°29'43277.8
2015-Apr-27 09:14N 22°27' E 113°53'6741000.4
2015-Apr-27 08:33N 31°26' E 121°28'17628.8
2015-Apr-27 08:32N 31°20' E 121°48'66938247.5
2015-Apr-27 08:30N 23°02' E 113°25'4412178.8
2015-Apr-27 08:30N 22°27' E 113°53'66834856.1
2015-Apr-27 08:29N 31°15' E 121°32'6526365.6
2015-Apr-27 08:23N 23°04' E 113°29'658770.6
2015-Apr-27 07:32N 31°26' E 121°28'174446.9
2015-Apr-27 07:31N 31°20' E 121°48'6654678.2
2015-Apr-27 07:23N 23°04' E 113°29'11240.7
2015-Apr-27 07:20N 22°57' E 113°37'13704.6
2015-Apr-27 07:19N 23°02' E 113°25'646843.4
2015-Apr-27 06:33N 31°03' E 121°29'64626413.3
2015-Apr-27 06:32N 23°02' E 113°25'669104749.1
2015-Apr-27 06:31N 31°20' E 121°48'176235.8
2015-Apr-27 06:31N 31°26' E 121°28'6227.5
2015-Apr-27 06:30N 31°21' E 121°32'65610364.0
2015-Apr-27 06:26N 23°04' E 113°29'65940931.8
2015-Apr-27 06:25N 31°38' E 121°14'6612382.1
2015-Apr-27 06:08N 22°57' E 113°37'6581124.7
2015-Apr-27 05:33N 31°22' E 121°30'65839459.2
2015-Apr-27 05:32N 22°57' E 113°37'66648953.2
2015-Apr-27 05:31N 31°20' E 121°48'29111627.2
2015-Apr-27 05:30N 36°04' E 120°34'28253498.5
2015-Apr-27 05:30N 31°26' E 121°28'66213773.7
2015-Apr-27 05:27N 23°02' E 113°25'468.6
2015-Apr-27 05:23N 23°04' E 113°29'15106.2
2015-Apr-27 05:14N 22°53' E 113°18'681990.7
2015-Apr-27 04:33N 31°20' E 121°48'66623288.1
2015-Apr-27 04:31N 22°57' E 113°37'13483.2
2015-Apr-27 04:30N 23°02' E 113°25'66299290.8
2015-Apr-27 04:29N 31°26' E 121°28'677152257.8
2015-Apr-27 04:29N 22°24' E 113°54'89422499.3
2015-Apr-27 04:27N 36°07' E 120°33'86577845.2
2015-Apr-27 04:26N 23°04' E 113°29'1036.2
2015-Apr-27 04:09N 22°57' E 113°36'6608031.8
2015-Apr-27 04:05N 31°29' E 121°24'6621273.9
2015-Apr-27 03:33N 23°02' E 113°25'662238301.2
2015-Apr-27 03:33N 31°26' E 121°28'173667.7
2015-Apr-27 03:33N 31°20' E 121°48'2934689.0
2015-Apr-27 03:29N 36°07' E 120°33'8658348.3
2015-Apr-27 03:23N 23°04' E 113°29'65822565.6
2015-Apr-27 03:21N 31°29' E 121°24'112.4
2015-Apr-27 03:15N 31°30' E 121°24'6653530.5
2015-Apr-27 03:04N 22°55' E 113°30'1221.4
2015-Apr-27 02:31N 23°05' E 113°24'86628592.6
2015-Apr-27 02:30N 36°07' E 120°33'29365889.0
2015-Apr-27 02:29N 31°20' E 121°48'261822.8
2015-Apr-27 02:29N 31°32' E 121°20'10107.3
2015-Apr-27 02:23N 31°26' E 121°28'6584291.3
2015-Apr-27 02:14N 23°04' E 113°29'6584609.4
2015-Apr-27 02:05N 31°29' E 121°24'2037.0
2015-Apr-27 01:33N 31°23' E 121°47'67023632.7
2015-Apr-27 01:31N 23°04' E 113°25'66158020.2
2015-Apr-27 01:30N 31°26' E 121°28'28515768.7
2015-Apr-27 01:29N 36°07' E 120°33'2816703.0
2015-Apr-27 01:27N 31°29' E 121°24'65840849.1
2015-Apr-27 01:26N 23°04' E 113°29'1078.9
2015-Apr-27 01:18N 22°57' E 113°36'66221657.3
2015-Apr-27 01:17N 31°37' E 121°16'6597150.5
2015-Apr-27 01:11N 23°04' E 113°29'658993.4
2015-Apr-27 00:31N 31°26' E 121°28'67434181.4
2015-Apr-27 00:30N 22°18' E 114°07'481051.4
2015-Apr-27 00:27N 22°57' E 113°36'12328.8
2015-Apr-27 00:25N 23°02' E 113°25'6718443.2
2015-Apr-27 00:20N 31°23' E 121°47'6676235.5
2015-Apr-27 00:14N 23°04' E 113°29'0148.4
2015-Apr-27 00:14N 23°04' E 113°29'619906.5
2015-Apr-26 23:33N 29°55' E 122°07'975276.3
2015-Apr-26 23:32N 31°26' E 121°28'674110318.6
2015-Apr-26 23:31N 22°18' E 114°07'893247193.1
2015-Apr-26 23:31N 36°05' E 120°34'867519987.7
2015-Apr-26 23:31N 23°02' E 113°25'8139.7
2015-Apr-26 23:28N 22°58' E 113°32'7266.1
2015-Apr-26 23:26N 23°04' E 113°29'0 3.8
2015-Apr-26 23:23N 23°04' E 113°29'615732.0
2015-Apr-26 22:33N 29°56' E 121°60'931465.8
2015-Apr-26 22:29N 31°26' E 121°28'66048504.4
2015-Apr-26 22:28N 22°59' E 113°32'6183.0
2015-Apr-26 22:26N 23°04' E 113°29'585516.6
2015-Apr-26 22:25N 22°18' E 114°07'58227.1
2015-Apr-26 22:10N 23°04' E 113°30'611986.9
2015-Apr-26 21:33N 29°57' E 121°53'916533.0
2015-Apr-26 21:32N 31°26' E 121°28'66420421.7
2015-Apr-26 21:30N 23°02' E 113°22'611518.2
2015-Apr-26 21:28N 22°18' E 114°07'58602.2
2015-Apr-26 21:22N 23°04' E 113°30'1 5.8
2015-Apr-26 21:14N 23°04' E 113°29'1 1.5
2015-Apr-26 20:33N 23°05' E 113°28'658107737.9
2015-Apr-26 20:33N 31°26' E 121°28'67422896.1
2015-Apr-26 20:31N 22°18' E 114°07'52981.4
2015-Apr-26 20:28N 22°59' E 113°32'6201.3
2015-Apr-26 20:26N 23°04' E 113°29'1 2.9
2015-Apr-26 20:10N 23°04' E 113°30'5894.5
2015-Apr-26 19:33N 22°18' E 114°07'  
Track history (hours):
 
Tides and Currents Weather Stations Pressure Air Temp Water Temp Dewpoint Dewpoint Depression Visibility Wind Speed Wind Dir Waves Ship Positions

Callsign 000000 (name unknown)

Last reported at 2015-May-06 19:33 UTC. Time now 2015-May-06 20:33 UTC.
Position N 30°57' E 121°11'.

Type: Fishing. MMSI: 200007452.

Date/timePositionNaut miles runAvg speedWind from/ knotsBaromVisibWave heightAir tempDewpointWater temp
2015-May-06 19:33N 30°57' E 121°11'36117795.3
2015-May-06 19:32N 36°53' E 122°26'35922671.4
2015-May-06 19:31N 30°58' E 121°18'244638.0
2015-May-06 19:31N 31°21' E 121°27'693208041.1
2015-May-06 19:31N 22°11' E 113°34'3156401.4
2015-May-06 19:31N 22°18' E 114°07'58689.3
2015-May-06 19:26N 23°04' E 113°29'66011158.4
2015-May-06 19:22N 31°41' E 121°12'35746.5
2015-May-06 19:19N 31°08' E 121°28'8113882.8
2015-May-06 19:19N 29°55' E 122°08'63122259.3
2015-May-06 19:17N 22°28' E 113°52'105821892.5
2015-May-06 19:14N 38°47' E 121°40'531776.9
2015-May-06 18:33N 29°56' E 122°00'7028192.1
2015-May-06 18:33N 30°60' E 121°25'124418.0
2015-May-06 18:33N 30°57' E 121°11'36123197.4
2015-May-06 18:32N 36°53' E 122°26'3186395.5
2015-May-06 18:29N 31°41' E 121°12'231153.6
2015-May-06 18:28N 31°21' E 121°27'6543490.3
2015-May-06 18:17N 23°04' E 113°29'1361.7
2015-May-06 18:04N 22°51' E 113°33'9611897.0
2015-May-06 17:33N 36°53' E 122°27'33518291.8
2015-May-06 17:32N 31°22' E 121°28'694208147.9
2015-May-06 17:32N 22°11' E 113°34'6669403.3
2015-May-06 17:28N 30°57' E 121°11'691203.2
2015-May-06 17:24N 29°58' E 121°51'7215204.0
2015-May-06 17:24N 31°06' E 121°27'372650.7
2015-May-06 17:23N 31°41' E 121°12'6606109.6
2015-May-06 17:17N 23°04' E 113°29'627867.6
2015-May-06 16:33N 30°57' E 121°11'213211.5
2015-May-06 16:33N 31°12' E 121°29'10277.2
2015-May-06 16:31N 31°22' E 121°28'69432010.5
2015-May-06 16:29N 22°11' E 113°35'53862.7
2015-May-06 16:26N 23°04' E 113°29'6604111.9
2015-May-06 16:16N 31°41' E 121°12'67811090.4
2015-May-06 16:13N 22°18' E 114°07'642988.3
2015-May-06 15:34N 30°57' E 121°11'46936724.1
2015-May-06 15:33N 38°46' E 121°31'4263333.6
2015-May-06 15:25N 31°41' E 121°12'429128632.5
2015-May-06 15:25N 38°49' E 121°35'447230116.2
2015-May-06 15:25N 31°22' E 121°28'83782.5
2015-May-06 15:18N 30°03' E 121°59'129705.0
2015-May-06 15:07N 31°58' E 120°51'63112.1
2015-May-06 14:33N 30°57' E 121°11'7639330.6
2015-May-06 14:33N 29°56' E 122°04'1414883.6
2015-May-06 14:32N 32°00' E 120°46'53819.1
2015-May-06 14:28N 31°22' E 121°28'325.7
2015-May-06 14:20N 31°21' E 121°32'44515554.4
2015-May-06 14:18N 38°46' E 121°36'103040312.3
2015-May-06 14:17N 23°04' E 113°29'613837.9
2015-May-06 13:33N 29°48' E 122°05'992876.9
2015-May-06 13:31N 31°22' E 121°28'44413666.3
2015-May-06 13:29N 38°46' E 121°39'10311237414.3
2015-May-06 13:29N 23°04' E 113°29'65813389.2
2015-May-06 13:26N 31°24' E 121°31'6976518.3
2015-May-06 13:19N 22°11' E 113°35'393207.5
2015-May-06 13:19N 22°48' E 113°19'6798981.2
2015-May-06 13:14N 31°41' E 121°12'66622632.7
2015-May-06 13:12N 23°03' E 113°19'66835893.8
2015-May-06 13:11N 31°58' E 120°50'408645.5
2015-May-06 12:33N 25°17' E 119°29'39520300.4
2015-May-06 12:32N 31°41' E 121°12'66546975.6
2015-May-06 12:31N 23°02' E 113°22'66016277.2
2015-May-06 12:29N 31°22' E 121°28'2881.0
2015-May-06 12:08N 30°57' E 121°11'62711697.2
2015-May-06 12:05N 23°04' E 113°29'6551257.8
2015-May-06 11:33N 31°22' E 121°28'656131214.0
2015-May-06 11:33N 23°05' E 113°26'629452829.9
2015-May-06 11:33N 30°57' E 121°12'442613.2
2015-May-06 11:32N 31°41' E 121°12'21530974.6
2015-May-06 11:32N 34°54' E 119°19'82017265.2
2015-May-06 11:29N 22°11' E 113°37'5432159.7
2015-May-06 11:29N 23°04' E 113°29'3629189.6
2015-May-06 11:26N 25°19' E 119°38'350396.5
2015-May-06 10:33N 30°58' E 121°15'630113437.9
2015-May-06 10:33N 23°03' E 113°31'644463929.6
2015-May-06 10:33N 31°57' E 120°17'5516457.3
2015-May-06 10:33N 31°36' E 121°17'17967.8
2015-May-06 10:32N 31°22' E 121°28'65512880.0
2015-May-06 10:29N 23°04' E 113°29'66015042.1
2015-May-06 10:26N 31°41' E 121°12'70054749.1
2015-May-06 10:25N 22°11' E 113°37'6972563.1
2015-May-06 10:09N 31°11' E 121°50'711.1
2015-May-06 09:33N 31°16' E 121°46'278969.2
2015-May-06 09:33N 30°59' E 121°20'627161210.7
2015-May-06 09:33N 23°06' E 113°38'6489008.2
2015-May-06 09:29N 31°22' E 121°28'733476.8
2015-May-06 09:27N 31°56' E 120°11'54818.5
2015-May-06 09:24N 31°41' E 121°12'3612354.0
2015-May-06 09:14N 37°42' E 121°09'9677533.4
2015-May-06 09:07N 22°57' E 113°37'6671206.8
2015-May-06 08:33N 31°21' E 121°48'175533.7
2015-May-06 08:33N 31°22' E 121°28'212171.4
2015-May-06 08:33N 31°01' E 121°26'40424635.0
2015-May-06 08:32N 37°44' E 121°16'9728115.6
2015-May-06 08:25N 22°57' E 113°37'64233016.8
2015-May-06 08:23N 31°55' E 120°11'6405743.6
2015-May-06 08:17N 23°04' E 113°29'642890.8
2015-May-06 07:33N 31°04' E 121°28'64312308.5
2015-May-06 07:30N 22°57' E 113°37'656147559.1
2015-May-06 07:30N 31°22' E 121°28'65528742.0
2015-May-06 07:29N 23°04' E 113°29'032.9
2015-May-06 07:29N 23°04' E 113°29'66019479.5
2015-May-06 07:27N 31°41' E 121°12'66715595.7
2015-May-06 07:24N 23°03' E 113°18'9824143.5
2015-May-06 07:10N 37°48' E 121°31'386636.8
2015-May-06 06:33N 31°22' E 121°28'66037117.8
2015-May-06 06:32N 23°02' E 113°24'66613866.3
2015-May-06 06:29N 31°58' E 120°50'66255428.9
2015-May-06 06:29N 23°04' E 113°29'6604860.1
2015-May-06 06:21N 31°41' E 121°12'66391748.0
2015-May-06 06:20N 22°57' E 113°36'668218562.3
2015-May-06 06:20N 31°33' E 121°32'68114766.7
2015-May-06 06:17N 22°19' E 114°07'574875.3
2015-May-06 06:16N 23°04' E 113°29'97818330.5
2015-May-06 06:13N 37°48' E 121°35'395581.4
2015-May-06 05:32N 31°12' E 121°30'64925960.7
2015-May-06 05:31N 23°04' E 113°30'9292.0
2015-May-06 05:29N 22°57' E 113°36'10938.0
2015-May-06 05:28N 23°04' E 113°29'85345820.6
2015-May-06 05:27N 36°01' E 120°13'26521206.9
2015-May-06 05:27N 31°41' E 121°12'42160633.5
2015-May-06 05:26N 38°41' E 121°42'1028127599.5
2015-May-06 05:26N 23°04' E 113°29'8654442.3
2015-May-06 05:14N 36°07' E 120°33'8751293.0
2015-May-06 04:33N 22°55' E 113°27'1039233853.6
2015-May-06 04:33N 38°41' E 121°47'42138890.0
2015-May-06 04:33N 31°41' E 121°12'3136976.0
2015-May-06 04:32N 31°15' E 121°32'652260961.0
2015-May-06 04:32N 23°04' E 113°30'1 4.5
2015-May-06 04:25N 23°04' E 113°29'2262.6
2015-May-06 04:25N 23°03' E 113°32'66211287.3
2015-May-06 04:21N 31°58' E 120°50'3525758.4
2015-May-06 04:18N 37°48' E 121°41'98057842.0
2015-May-06 04:17N 23°04' E 113°29'101718.0
2015-May-06 04:16N 22°57' E 113°37'1014.6
2015-May-06 03:33N 23°04' E 113°29'12385.6
2015-May-06 03:33N 23°04' E 113°30'66050549.2
2015-May-06 03:33N 31°41' E 121°12'28779.6
2015-May-06 03:30N 31°20' E 121°33'6598655.0
2015-May-06 03:26N 22°57' E 113°36'98322693.0
2015-May-06 03:23N 37°48' E 121°38'9798679.4
2015-May-06 03:16N 23°04' E 113°29'1270.9
2015-May-06 03:06N 23°03' E 113°16'916.6
2015-May-06 02:33N 23°04' E 113°26'4888.8
2015-May-06 02:33N 23°04' E 113°30'66098996.4
2015-May-06 02:33N 31°41' E 121°12'241646.8
2015-May-06 02:32N 31°22' E 121°30'66517989.0
2015-May-06 02:29N 23°03' E 113°16'9835249.1
2015-May-06 02:18N 37°48' E 121°33'97732572.3
2015-May-06 02:16N 23°04' E 113°29'0 2.7
2015-May-06 02:14N 23°04' E 113°29'6596111.2
2015-May-06 02:07N 31°26' E 121°28'6861210.4
2015-May-06 01:33N 22°17' E 113°48'5146059.0
2015-May-06 01:33N 23°02' E 113°22'981135780.8
2015-May-06 01:33N 37°48' E 121°30'36794467.1
2015-May-06 01:33N 31°41' E 121°12'66032547.0
2015-May-06 01:31N 23°04' E 113°30'114.6
2015-May-06 01:29N 23°04' E 113°29'98529073.0
2015-May-06 01:27N 39°04' E 117°49'98549264.0
2015-May-06 01:25N 23°04' E 113°29'86527553.4
2015-May-06 01:24N 36°07' E 120°33'2866121.1
2015-May-06 01:21N 31°25' E 121°31'812841.5
2015-May-06 01:19N 32°07' E 122°52'10695032.8
2015-May-06 01:19N 31°08' E 121°10'634820.3
2015-May-06 00:33N 23°04' E 113°30'97410826.7
2015-May-06 00:27N 37°48' E 121°25'36731491.2
2015-May-06 00:27N 31°41' E 121°12'66037136.4
2015-May-06 00:25N 23°04' E 113°29'65981760.9
2015-May-06 00:25N 31°29' E 121°25'2719677.2
2015-May-06 00:25N 31°05' E 121°10'2933.4
2015-May-05 23:33N 31°32' E 121°20'65878967.2
2015-May-05 23:33N 23°04' E 113°30'1 4.7
2015-May-05 23:26N 23°04' E 113°29'044.2
2015-May-05 23:26N 23°04' E 113°29'6605713.1
2015-May-05 23:19N 31°41' E 121°12'36612917.3
2015-May-05 23:17N 37°47' E 121°20'98110479.1
2015-May-05 23:11N 22°54' E 113°29'6374800.1
2015-May-05 23:03N 31°01' E 121°10'3773.8
2015-May-05 22:33N 31°37' E 121°15'659215713.3
2015-May-05 22:33N 23°04' E 113°30'628564854.6
2015-May-05 22:33N 30°59' E 121°10'40518922.2
2015-May-05 22:32N 37°44' E 121°13'36348392.1
2015-May-05 22:32N 31°41' E 121°12'66012987.5
2015-May-05 22:28N 23°04' E 113°29'65623867.8
2015-May-05 22:27N 31°21' E 121°32'115540.3
2015-May-05 22:14N 32°21' E 123°27'7694959.1
2015-May-05 22:05N 23°04' E 113°29'1 1.1
2015-May-05 21:33N 23°04' E 113°30'66022413.9
2015-May-05 21:32N 31°41' E 121°12'66013818.2
2015-May-05 21:29N 23°04' E 113°29'0 1.4
2015-May-05 21:25N 23°04' E 113°29'57225.8
2015-May-05 21:10N 22°20' E 114°07'47456.4
2015-May-05 21:04N 22°57' E 113°36'917.7
2015-May-05 20:33N 23°04' E 113°30'62911615.2
2015-May-05 20:30N 30°58' E 121°14'62937145.4
2015-May-05 20:29N 23°04' E 113°29'018.8
2015-May-05 20:28N 23°04' E 113°29'58104144.9
2015-May-05 20:28N 22°18' E 114°07'48909.3
2015-May-05 20:25N 22°57' E 113°36'6637037.1
2015-May-05 20:20N 31°41' E 121°12'26187.8
2015-May-05 20:11N 31°58' E 120°50'6621033.7
2015-May-05 19:33N 23°04' E 113°30'63350667.5
2015-May-05 19:32N 30°59' E 121°20'433740.5
2015-May-05 19:32N 31°41' E 121°12'66012846.2
2015-May-05 19:28N 23°04' E 113°29'0 2.7
2015-May-05 19:26N 23°04' E 113°29'58279.5
2015-May-05 19:13N 22°18' E 114°07'5785.0
2015-May-05 18:33N 23°04' E 113°30'572274.3
2015-May-05 18:31N 22°18' E 114°07'581310.5
2015-May-05 18:28N 23°04' E 113°29'6604992.7
2015-May-05 18:21N 31°41' E 121°12'660838.6
2015-May-05 17:33N 23°04' E 113°30'64364258.5
2015-May-05 17:33N 31°05' E 121°28'381046.0
2015-May-05 17:31N 31°41' E 121°12'67816054.0
2015-May-05 17:28N 22°18' E 114°07'581361.8
2015-May-05 17:25N 23°04' E 113°29'1 0.6
2015-May-05 16:33N 23°04' E 113°30'647387955.2
2015-May-05 16:33N 31°11' E 121°28'331488.8
2015-May-05 16:32N 31°41' E 121°12'67865951.0
2015-May-05 16:31N 22°18' E 114°07'58664.8
2015-May-05 16:26N 23°04' E 113°29'031.6
2015-May-05 16:25N 23°04' E 113°29'0 0.2
2015-May-05 15:33N 23°04' E 113°29'66037131.9
2015-May-05 15:32N 31°41' E 121°12'388478.3
2015-May-05 15:31N 31°18' E 121°48'6647115.0
2015-May-05 15:26N 23°04' E 113°29'583727.5
2015-May-05 15:25N 22°18' E 114°07'49147.0
2015-May-05 15:05N 22°53' E 113°30'4994.5
2015-May-05 14:33N 22°18' E 114°07'67664004.3
2015-May-05 14:33N 31°15' E 121°47'391408.2
2015-May-05 14:31N 31°41' E 121°12'6609582.9
2015-May-05 14:27N 23°04' E 113°29'1071.2
2015-May-05 14:18N 22°56' E 113°36'10334.0
2015-May-05 14:17N 23°04' E 113°29'5880.6
2015-May-05 13:33N 22°18' E 114°07'5817409.1
2015-May-05 13:33N 23°04' E 113°29'6609468.3
2015-May-05 13:29N 31°41' E 121°12'66095069.0
2015-May-05 13:29N 23°04' E 113°29'6564723.7
2015-May-05 13:20N 31°21' E 121°30'672852.3
2015-May-05 12:33N 22°18' E 114°07'587734.8
2015-May-05 12:33N 23°04' E 113°29'6602552.7
2015-May-05 12:17N 31°41' E 121°12'660897.1
2015-May-05 11:33N 23°04' E 113°29'581234.8
2015-May-05 11:30N 22°18' E 114°07'3397884.0
2015-May-05 11:28N 22°32' E 120°14'37511944.8
2015-May-05 11:26N 23°04' E 113°29'6604126.2
2015-May-05 11:16N 31°41' E 121°12'660925.8
2015-May-05 10:33N 23°04' E 113°29'5813914.6
2015-May-05 10:33N 22°18' E 114°07'67118450.3
2015-May-05 10:31N 31°22' E 121°29'23509.8
2015-May-05 10:28N 31°41' E 121°12'411034.5
2015-May-05 10:26N 32°04' E 120°32'20350.7
2015-May-05 10:22N 31°54' E 120°53'6607223.9
2015-May-05 10:17N 23°04' E 113°29'0 0.1
2015-May-05 09:33N 23°04' E 113°29'65611859.7
2015-May-05 09:30N 31°22' E 121°29'671345262.3
2015-May-05 09:30N 22°19' E 114°06'9925025.3
2015-May-05 09:18N 37°42' E 121°09'361482.1
2015-May-05 08:33N 31°41' E 121°12'660297059.8
2015-May-05 08:33N 23°04' E 113°29'66256754.1
2015-May-05 08:32N 31°58' E 120°50'51452.5
2015-May-05 08:26N 31°21' E 121°31'3873324.5
2015-May-05 08:19N 37°48' E 121°17'3482553.9
2015-May-05 08:10N 32°01' E 120°45'44932336.2
2015-May-05 08:10N 39°05' E 117°44'98512191.0
2015-May-05 08:05N 23°04' E 113°29'0 0.2
2015-May-05 07:33N 23°04' E 113°29'98562208.7
2015-May-05 07:32N 39°04' E 117°48'44918576.7
2015-May-05 07:31N 31°60' E 120°49'1128.5
2015-May-05 07:30N 31°58' E 120°50'060.0
2015-May-05 07:30N 31°58' E 120°50'3517528.0
2015-May-05 07:27N 37°49' E 121°19'3885627.5
2015-May-05 07:23N 31°21' E 121°31'25109.2
2015-May-05 07:09N 31°41' E 121°12'6609002.2
2015-May-05 07:05N 23°04' E 113°29'6601253.5
2015-May-05 06:33N 31°41' E 121°12'660396059.8
2015-May-05 06:33N 23°04' E 113°29'9759861.6
2015-May-05 06:27N 37°49' E 121°24'97545011.1
2015-May-05 06:26N 23°04' E 113°29'98557213.5
2015-May-05 06:25N 39°04' E 117°50'1771746.9
2015-May-05 06:19N 38°46' E 121°36'4454697.9
2015-May-05 06:13N 31°21' E 121°31'656993.0
2015-May-05 05:33N 23°04' E 113°29'65673824.4
2015-May-05 05:33N 31°21' E 121°31'25266.3
2015-May-05 05:27N 31°41' E 121°12'66027006.6
2015-May-05 05:26N 23°04' E 113°29'97810442.5
2015-May-05 05:20N 37°50' E 121°30'9771255.0
2015-May-05 04:33N 23°04' E 113°29'1032161539.6
2015-May-05 04:33N 38°46' E 121°40'18322711.3
2015-May-05 04:32N 39°04' E 117°46'1887865.3
2015-May-05 04:31N 37°50' E 121°27'38841120.1
2015-May-05 04:30N 31°21' E 121°27'23323.7
2015-May-05 04:26N 31°41' E 121°12'66091407.7
2015-May-05 04:26N 23°04' E 113°29'6622285.6
2015-May-05 04:08N 31°58' E 120°50'6621135.6
2015-May-05 03:33N 23°04' E 113°29'65449082.7
2015-May-05 03:33N 31°21' E 121°27'38945143.4
2015-May-05 03:32N 37°50' E 121°23'100418252.1
2015-May-05 03:29N 22°25' E 113°54'463925.2
2015-May-05 03:28N 23°04' E 113°29'65624607.2
2015-May-05 03:26N 31°21' E 121°31'4975938.6
2015-May-05 03:21N 39°04' E 117°52'47312512.0
2015-May-05 03:19N 31°41' E 121°12'4132210.3
2015-May-05 03:08N 25°03' E 119°05'8322996664.0
2015-May-05 03:08N 38°46' E 121°37'40910229.7
2015-May-05 03:05N 31°58' E 120°50'353661.5
2015-May-05 02:34N 37°50' E 121°19'1802856.0
2015-May-05 02:30N 39°04' E 117°49'98525338.5
2015-May-05 02:27N 23°04' E 113°29'65438623.4
2015-May-05 02:26N 31°21' E 121°27'67029434.8
2015-May-05 02:25N 22°27' E 113°53'67227201.6
2015-May-05 02:24N 31°20' E 121°33'029.2
2015-May-05 02:23N 31°20' E 121°32'44516033.5
2015-May-05 02:21N 38°46' E 121°35'4263266.8
2015-May-05 02:13N 31°41' E 121°12'660992.8
2015-May-05 01:33N 23°04' E 113°30'656124288.2
2015-May-05 01:33N 31°22' E 121°30'67217662.5
2015-May-05 01:31N 22°27' E 113°53'6787413.7
2015-May-05 01:25N 31°41' E 121°12'66084886.8
2015-May-05 01:25N 23°04' E 113°29'1029247006.3
2015-May-05 01:24N 38°46' E 121°33'102910291.6
2015-May-05 01:18N 23°04' E 113°29'1 0.7
2015-May-05 00:32N 23°04' E 113°30'432437.7
2015-May-05 00:31N 22°27' E 113°53'43761.7
2015-May-05 00:27N 23°04' E 113°29'10516.0
2015-May-05 00:26N 22°57' E 113°36'66549903.6
2015-May-05 00:25N 31°59' E 120°49'1345518.2
2015-May-05 00:25N 32°00' E 120°35'65648161.1
2015-May-05 00:25N 23°04' E 113°29'6605247.0
2015-May-05 00:17N 31°41' E 121°12'663882.9
2015-May-04 23:32N 22°57' E 113°36'9300.7
2015-May-04 23:30N 23°04' E 113°30'6603022.7
2015-May-04 23:17N 31°41' E 121°12'66023074.7
2015-May-04 23:15N 23°04' E 113°29'9511335.9
2015-May-04 22:33N 36°52' E 122°28'95149602.9
2015-May-04 22:32N 23°04' E 113°29'10362.4
2015-May-04 22:30N 22°57' E 113°36'968108852.1
2015-May-04 22:29N 37°42' E 121°09'36116874.3
2015-May-04 22:28N 31°41' E 121°12'66011427.4
2015-May-04 22:25N 23°04' E 113°29'0 0.6
2015-May-04 22:18N 23°04' E 113°29'1467.9
2015-May-04 22:06N 22°51' E 113°34'1425.2
2015-May-04 21:33N 23°04' E 113°29'66225625.3
2015-May-04 21:31N 31°58' E 120°50'66246728.4
2015-May-04 21:30N 23°04' E 113°29'0 0.6
2015-May-04 21:25N 23°04' E 113°29'295478.2
2015-May-04 21:24N 22°46' E 113°04'31933.9
2015-May-04 21:22N 22°57' E 113°36'66541995.0
2015-May-04 21:21N 31°60' E 120°48'28318.3
2015-May-04 21:16N 31°41' E 121°12'189835397.8
2015-May-04 21:13N 00°03' E 120°54'14482191.7
2015-May-04 20:33N 23°04' E 113°29'0 4.2
2015-May-04 20:30N 23°04' E 113°29'6602770.2
2015-May-04 20:16N 31°41' E 121°12'66313036.8
2015-May-04 20:13N 22°57' E 113°36'32555.8
2015-May-04 20:10N 22°39' E 113°06'143137614.7
2015-May-04 20:07N 00°02' E 120°52'14482526.4
2015-May-04 19:33N 23°04' E 113°29'657124416.3
2015-May-04 19:33N 31°23' E 121°30'2486.8
2015-May-04 19:16N 31°41' E 121°12'66011264.1
2015-May-04 19:13N 23°04' E 113°29'0 0.2
2015-May-04 19:06N 23°04' E 113°29'0 0.3
2015-May-04 18:33N 23°04' E 113°29'0 3.1
2015-May-04 18:30N 23°04' E 113°29'0 0.6
2015-May-04 18:25N 23°04' E 113°29'6626694.9
2015-May-04 18:19N 31°58' E 120°50'662873.0
2015-May-04 17:33N 23°04' E 113°29'66056578.6
2015-May-04 17:33N 31°39' E 121°15'66018564.6
2015-May-04 17:30N 23°04' E 113°29'6595513.6
2015-May-04 17:23N 31°51' E 120°54'65925223.6
2015-May-04 17:22N 23°04' E 113°29'43137.8
2015-May-04 17:03N 22°27' E 113°53'4385.4
2015-May-04 16:33N 23°04' E 113°29'465306.8
2015-May-04 16:32N 22°20' E 113°19'70081346.4
2015-May-04 16:32N 31°33' E 121°20'6595744.8
2015-May-04 16:25N 23°04' E 113°29'432092.4
2015-May-04 16:23N 22°27' E 113°53'43512.5
2015-May-04 16:18N 23°04' E 113°29'5167.3
2015-May-04 15:33N 22°14' E 113°23'518291.3
2015-May-04 15:33N 23°04' E 113°29'660118725.8
2015-May-04 15:33N 31°28' E 121°27'43740379.2
2015-May-04 15:32N 38°46' E 121°40'4258597.3
2015-May-04 15:29N 31°41' E 121°10'67718897.6
2015-May-04 15:27N 22°27' E 113°53'67629338.7
2015-May-04 15:25N 31°35' E 121°18'66010506.6
2015-May-04 15:22N 23°04' E 113°29'9694837.4
2015-May-04 15:10N 37°03' E 122°48'9699300.2
2015-May-04 15:03N 23°04' E 113°29'0 0.4
2015-May-04 14:33N 23°04' E 113°29'103330733.8
2015-May-04 14:31N 38°46' E 121°45'108423088.6
2015-May-04 14:28N 22°09' E 113°29'55513.5
2015-May-04 14:22N 23°04' E 113°29'0 0.6
2015-May-04 14:15N 23°04' E 113°29'96939660.1
2015-May-04 14:14N 37°04' E 122°48'3372270.7
2015-May-04 14:05N 31°35' E 121°19'7001323.4
2015-May-04 13:33N 22°11' E 113°35'548807.1
2015-May-04 13:33N 23°04' E 113°29'437764.1
2015-May-04 13:33N 22°27' E 113°53'67683893.3
2015-May-04 13:32N 31°27' E 121°29'66023512.4
2015-May-04 13:30N 23°04' E 113°29'0 0.2
2015-May-04 12:33N 23°04' E 113°29'5521859.0
2015-May-04 12:33N 22°11' E 113°41'6963367.6
2015-May-04 12:21N 31°25' E 121°32'6766469.0
2015-May-04 12:14N 22°27' E 113°53'106014023.9
2015-May-04 12:10N 38°45' E 121°47'103317887.4
2015-May-04 12:06N 23°04' E 113°29'6601195.2
2015-May-04 11:33N 31°25' E 121°32'660593716.6
2015-May-04 11:33N 23°04' E 113°29'432772.4
2015-May-04 11:32N 22°27' E 113°53'43526.2
2015-May-04 11:27N 23°04' E 113°29'66223139.4
2015-May-04 11:26N 31°58' E 120°50'662757.3
2015-May-04 10:33N 23°04' E 113°29'660169633.3
2015-May-04 10:33N 31°25' E 121°32'66015223.8
2015-May-04 10:30N 23°04' E 113°29'10316269.5
2015-May-04 10:21N 38°45' E 121°41'10575122.4
2015-May-04 10:08N 22°27' E 113°53'6741158.3
2015-May-04 09:33N 31°24' E 121°31'65830389.2
2015-May-04 09:32N 23°04' E 113°29'0 8.1
2015-May-04 09:30N 23°04' E 113°29'43594.4
2015-May-04 09:26N 22°27' E 113°53'10582812.1
2015-May-04 09:03N 38°47' E 121°39'10322053.9
2015-May-04 08:33N 23°04' E 113°29'95097693.3
2015-May-04 08:33N 36°51' E 122°28'786113.9
2015-May-04 08:32N 37°44' E 121°15'671417.2
2015-May-04 08:29N 38°45' E 121°47'1060346853.5
2015-May-04 08:29N 22°27' E 113°53'431644.8
2015-May-04 08:27N 23°04' E 113°29'67244.2
2015-May-04 08:11N 22°11' E 114°14'67106.5
2015-May-04 07:33N 23°04' E 113°29'6421155146.0
2015-May-04 07:33N 31°03' E 121°29'65619190.6
2015-May-04 07:31N 22°13' E 114°18'67386555.5
2015-May-04 07:31N 31°12' E 121°49'660139788.2
2015-May-04 07:30N 23°04' E 113°29'9757224.9
2015-May-04 07:22N 37°48' E 121°27'100111089.1
2015-May-04 07:17N 22°27' E 113°53'105811173.9
2015-May-04 07:11N 38°46' E 121°43'447709.6
2015-May-04 06:33N 31°18' E 121°46'663265209.9
2015-May-04 06:33N 23°04' E 113°29'97639047.0
2015-May-04 06:32N 37°49' E 121°28'1171295.5
2015-May-04 06:26N 36°06' E 120°20'8594715.7
2015-May-04 06:15N 23°04' E 113°29'43556.9
2015-May-04 06:11N 22°27' E 113°53'8891426.8
2015-May-04 05:33N 36°05' E 120°34'863444062.0
2015-May-04 05:33N 23°04' E 113°29'66896205.9
2015-May-04 05:33N 31°24' E 121°47'68333703.7
2015-May-04 05:32N 22°27' E 113°53'100315635.7
2015-May-04 05:28N 37°48' E 121°34'19245990.0
2015-May-04 05:28N 39°04' E 117°49'17816851.7
2015-May-04 05:27N 38°45' E 121°36'4624369.0
2015-May-04 05:21N 31°03' E 121°29'64217906.7
2015-May-04 05:18N 23°04' E 113°29'10135.8
2015-May-04 05:14N 22°56' E 113°36'646955.4
2015-May-04 04:33N 31°06' E 121°28'45223557.2
2015-May-04 04:32N 35°07' E 129°03'1091230946.0
2015-May-04 04:32N 23°04' E 113°29'436477.0
2015-May-04 04:31N 22°27' E 113°53'68619003.8
2015-May-04 04:29N 31°28' E 121°47'38039081.3
2015-May-04 04:29N 37°48' E 121°39'1944202.8
2015-May-04 04:26N 39°04' E 117°51'7864966.0
2015-May-04 04:16N 26°02' E 119°30'3742216.3
2015-May-04 04:06N 23°04' E 113°29'66246730.0
2015-May-04 04:06N 31°58' E 120°50'367686.5
2015-May-04 03:33N 25°59' E 119°26'717184484.8
2015-May-04 03:33N 37°48' E 121°39'19538974.7
2015-May-04 03:33N 39°04' E 117°50'49549500.7
2015-May-04 03:32N 31°28' E 121°47'671344950.2
2015-May-04 03:32N 23°04' E 113°29'63810688.3
2015-May-04 03:29N 31°00' E 121°26'63830237.4
2015-May-04 03:27N 23°04' E 113°29'43506.1
2015-May-04 03:22N 22°27' E 113°53'34274.8
2015-May-04 03:15N 22°54' E 113°30'6777.4
2015-May-04 03:14N 22°57' E 113°36'6578013.1
2015-May-04 03:09N 31°21' E 121°27'6541084.8
2015-May-04 02:33N 23°04' E 113°29'654235615.9
2015-May-04 02:33N 31°21' E 121°27'3865369.2
2015-May-04 02:29N 37°48' E 121°34'41021412.8
2015-May-04 02:28N 30°58' E 121°17'63329594.4
2015-May-04 02:26N 22°57' E 113°36'10923498.8
2015-May-04 02:08N 35°05' E 129°06'1102107261.6
2015-May-04 02:07N 22°27' E 113°53'43720.3
2015-May-04 02:03N 23°04' E 113°29'9761945.0
2015-May-04 01:33N 37°48' E 121°30'401240410.1
2015-May-04 01:33N 31°07' E 121°28'64464431.0
2015-May-04 01:33N 23°04' E 113°29'66218194.6
2015-May-04 01:30N 31°58' E 120°50'66535727.2
2015-May-04 01:29N 22°57' E 113°36'65725147.4
2015-May-04 01:28N 31°21' E 121°27'45215800.2
2015-May-04 01:26N 24°27' E 118°03'2593290.6
2015-May-04 01:21N 22°27' E 113°53'26179.7
2015-May-04 01:13N 22°45' E 113°33'6681024.1
2015-May-04 00:33N 31°21' E 121°27'654157077.3
2015-May-04 00:33N 23°04' E 113°29'975116972.9
2015-May-04 00:33N 37°48' E 121°25'722361.1
2015-May-04 00:31N 36°55' E 122°27'976351450.6
2015-May-04 00:31N 22°27' E 113°53'437035.9
2015-May-04 00:30N 23°04' E 113°29'20451.1
2015-May-04 00:28N 22°44' E 113°28'8836011.8
2015-May-04 00:19N 36°06' E 120°33'109143.0
2015-May-03 23:33N 37°48' E 121°21'973166726.7
2015-May-03 23:33N 23°04' E 113°29'65414725.7
2015-May-03 23:30N 31°21' E 121°27'28125270.9
2015-May-03 23:30N 35°59' E 120°33'88310813.8
2015-May-03 23:25N 22°27' E 113°53'43410.1
2015-May-03 23:18N 23°04' E 113°29'10467.2
2015-May-03 23:17N 22°57' E 113°36'49539.6
2015-May-03 23:12N 22°19' E 114°10'5992.2
2015-May-03 22:33N 23°04' E 113°29'65457466.3
2015-May-03 22:33N 31°21' E 121°27'38276327.4
2015-May-03 22:32N 37°43' E 121°11'96531009.2
2015-May-03 22:30N 23°04' E 113°29'593928.1
2015-May-03 22:29N 22°19' E 114°10'1846.1
2015-May-03 22:07N 22°27' E 113°53'6701213.5
2015-May-03 21:33N 31°21' E 121°27'654785372.8
2015-May-03 21:33N 23°04' E 113°29'66534717.4
2015-May-03 21:32N 31°20' E 121°48'6658232.3
2015-May-03 21:27N 23°04' E 113°29'59205.1
2015-May-03 21:10N 22°19' E 114°10'49572.6
2015-May-03 21:05N 22°57' E 113°36'1018.4
2015-May-03 20:33N 23°04' E 113°29'65444455.1
2015-May-03 20:32N 31°21' E 121°27'172701.2
2015-May-03 20:32N 31°20' E 121°48'66529214.6
2015-May-03 20:30N 23°04' E 113°29'6406902.8
2015-May-03 20:25N 31°57' E 120°10'29519.7
2015-May-03 20:22N 32°01' E 120°43'5467.8
2015-May-03 19:34N 31°21' E 121°27'654294512.7
2015-May-03 19:33N 23°04' E 113°29'644210755.5
2015-May-03 19:33N 31°57' E 120°17'852045.8
2015-May-03 19:31N 31°22' E 121°47'680174858.6
2015-May-03 19:30N 22°19' E 114°10'5930302.5
2015-May-03 19:30N 23°04' E 113°29'13836953.2
2015-May-03 19:18N 00°02' E 114°07'19272559.8
2015-May-03 18:33N 31°21' E 121°27'654181237.3
2015-May-03 18:33N 23°04' E 113°29'592025.9
2015-May-03 18:31N 22°19' E 114°10'68018269.0
2015-May-03 18:29N 31°22' E 121°47'66723528.5
2015-May-03 18:27N 23°04' E 113°29'43120.7
2015-May-03 18:06N 22°27' E 113°53'4378.6
2015-May-03 17:33N 23°04' E 113°29'432879.0
2015-May-03 17:32N 22°27' E 113°53'68227896.2
2015-May-03 17:31N 31°22' E 121°47'667133322.6
2015-May-03 17:30N 23°04' E 113°29'655235663.6
2015-May-03 17:30N 31°22' E 121°28'49340.8
2015-May-03 17:21N 31°59' E 120°50'662825.4
2015-May-03 16:33N 23°04' E 113°29'66715093.6
2015-May-03 16:31N 31°22' E 121°47'667199984.0
2015-May-03 16:31N 23°04' E 113°29'6706894.4
2015-May-03 16:25N 31°27' E 121°47'148603.9
2015-May-03 16:25N 31°24' E 121°31'6748578.4
2015-May-03 16:20N 22°27' E 113°53'1878.7
2015-May-03 16:06N 22°19' E 114°10'59107.2
2015-May-03 15:33N 23°04' E 113°29'66032996.3
2015-May-03 15:32N 31°38' E 121°15'677121867.5
2015-May-03 15:32N 22°27' E 113°53'681245155.3
2015-May-03 15:32N 31°21' E 121°48'154171.6
2015-May-03 15:31N 31°24' E 121°31'141116.0
2015-May-03 15:31N 31°22' E 121°47'3814133.4
2015-May-03 15:25N 37°41' E 122°42'9986132.3
2015-May-03 15:15N 23°04' E 113°29'59467.8
2015-May-03 15:08N 22°19' E 114°10'59103.1
2015-May-03 14:33N 23°04' E 113°29'65998856.7
2015-May-03 14:33N 31°33' E 121°21'37467370.5
2015-May-03 14:33N 37°41' E 122°44'381196057.1
2015-May-03 14:33N 31°24' E 121°31'66231779.4
2015-May-03 14:31N 22°58' E 113°30'66579835.2
2015-May-03 14:31N 31°17' E 121°45'62864.0
2015-May-03 14:31N 31°22' E 121°47'6823091.8
2015-May-03 14:17N 22°27' E 113°53'4359.0
2015-May-03 13:34N 23°04' E 113°29'66122657.6
2015-May-03 13:32N 31°10' E 121°53'242504.3
2015-May-03 13:31N 31°24' E 121°31'141559.4
2015-May-03 13:31N 31°22' E 121°47'38154878.8
2015-May-03 13:30N 37°40' E 122°48'102462453.2
2015-May-03 13:29N 22°27' E 113°53'181318.8
2015-May-03 13:28N 22°19' E 114°10'522719.5
2015-May-03 13:27N 22°54' E 113°28'1011.2
2015-May-03 12:33N 23°04' E 113°29'668267137.8
2015-May-03 12:33N 31°24' E 121°47'6834031.9
2015-May-03 12:23N 22°27' E 113°53'4352.1
2015-May-03 11:33N 23°04' E 113°29'66914950.8
2015-May-03 11:31N 31°25' E 121°48'152619.1
2015-May-03 11:30N 31°24' E 121°31'11146.3
2015-May-03 11:30N 31°23' E 121°30'6735507.4
2015-May-03 11:23N 22°27' E 113°53'4352.2
2015-May-03 10:33N 23°04' E 113°29'669185159.9
2015-May-03 10:33N 31°25' E 121°48'18503.5
2015-May-03 10:31N 31°28' E 121°27'6748303.6
2015-May-03 10:26N 22°19' E 114°10'682772.7
2015-May-03 09:33N 31°25' E 121°48'66983000.4
2015-May-03 09:33N 23°04' E 113°29'650194999.0
2015-May-03 09:32N 31°13' E 121°30'66610648.9
2015-May-03 09:29N 22°27' E 113°53'67518549.5
2015-May-03 09:27N 31°32' E 121°20'6743101.6
2015-May-03 09:14N 22°19' E 114°10'22186.4
2015-May-03 09:06N 22°18' E 113°45'4988.3
2015-May-03 08:33N 23°04' E 113°29'177212894.8
2015-May-03 08:33N 23°05' E 116°42'567255003.2
2015-May-03 08:33N 31°22' E 121°47'38165398.3
2015-May-03 08:33N 37°42' E 121°12'39517781.3
2015-May-03 08:31N 31°07' E 121°28'66062513.0
2015-May-03 08:31N 22°27' E 113°53'12807.3
2015-May-03 08:30N 22°17' E 113°47'6937579.6
2015-May-03 08:25N 31°59' E 120°50'6812604.2
2015-May-03 08:09N 22°19' E 114°10'6551112.2
2015-May-03 07:33N 31°03' E 121°29'64285587.5
2015-May-03 07:33N 23°04' E 113°29'66450858.1
2015-May-03 07:32N 31°19' E 121°47'55769131.2
2015-May-03 07:32N 23°10' E 116°47'536113401.5
2015-May-03 07:31N 31°03' E 121°29'65759121.8
2015-May-03 07:31N 22°27' E 113°53'1017261611.2
2015-May-03 07:31N 39°05' E 117°46'45117664.2
2015-May-03 07:29N 31°59' E 120°50'6819610.5
2015-May-03 07:25N 22°19' E 114°10'9783477.2
2015-May-03 07:08N 36°55' E 122°29'9541656.2
2015-May-03 06:33N 23°04' E 113°29'66435676.8
2015-May-03 06:32N 31°19' E 121°47'67928101.2
2015-May-03 06:31N 22°27' E 113°53'100118772.6
2015-May-03 06:28N 37°48' E 121°27'1861648.3
2015-May-03 06:21N 39°04' E 117°51'95077725.0
2015-May-03 06:20N 23°15' E 116°55'56567789.1
2015-May-03 06:20N 32°00' E 120°49'30632389.5
2015-May-03 06:19N 36°55' E 122°27'2546679.4
2015-May-03 06:17N 39°04' E 117°49'6046624.5
2015-May-03 06:11N 29°43' E 122°19'620981.2
2015-May-03 05:33N 23°04' E 113°29'62517724.6
2015-May-03 05:31N 29°50' E 122°21'60077133.0
2015-May-03 05:31N 39°05' E 117°45'1017915485.2
2015-May-03 05:31N 22°27' E 113°53'6799088.5
2015-May-03 05:26N 31°19' E 121°47'5048898.1
2015-May-03 05:23N 39°04' E 117°49'51383933.7
2015-May-03 05:22N 31°03' E 121°29'642779.4
2015-May-03 04:33N 23°04' E 113°29'66447808.5
2015-May-03 04:32N 31°19' E 121°47'504453402.1
2015-May-03 04:32N 39°04' E 117°50'101716796.1
2015-May-03 04:29N 22°27' E 113°53'101732405.3
2015-May-03 04:27N 39°04' E 117°49'5131477.1
2015-May-03 04:06N 31°03' E 121°29'6421171.3
2015-May-03 03:33N 23°04' E 113°29'63655813.6
2015-May-03 03:32N 30°10' E 122°17'744568.8
2015-May-03 03:31N 31°19' E 121°47'6794630.4
2015-May-03 03:22N 22°27' E 113°53'10175238.7
2015-May-03 03:11N 39°05' E 117°46'1963268.5
2015-May-03 03:07N 37°49' E 121°37'101624714.9
2015-May-03 03:05N 22°17' E 113°47'10281975.4
2015-May-03 02:34N 39°04' E 117°50'989889822.1
2015-May-03 02:33N 23°03' E 113°16'988254180.1
2015-May-03 02:33N 39°04' E 117°49'98549947.5
2015-May-03 02:32N 23°04' E 113°29'66431452.9
2015-May-03 02:31N 31°19' E 121°47'390351210.7
2015-May-03 02:31N 37°49' E 121°34'1932962.0
2015-May-03 02:27N 39°04' E 117°48'10175819.9
2015-May-03 02:16N 22°27' E 113°53'11124.6
2015-May-03 02:11N 22°17' E 113°49'10281643.4
2015-May-03 01:33N 39°04' E 117°50'18842320.4
2015-May-03 01:33N 37°49' E 121°30'188338452.3
2015-May-03 01:33N 39°04' E 117°50'985126680.9
2015-May-03 01:33N 23°04' E 113°29'91706.5
2015-May-03 01:32N 23°03' E 113°19'6713801.9
2015-May-03 01:22N 31°19' E 121°47'69010019.9
2015-May-03 01:18N 22°17' E 113°47'6886822.0
2015-May-03 01:12N 31°45' E 121°03'6591017.0
2015-May-03 00:33N 23°04' E 113°29'9753509393.4
2015-May-03 00:33N 37°48' E 121°25'18541673.5
2015-May-03 00:32N 39°04' E 117°49'50417454.8
2015-May-03 00:31N 31°19' E 121°47'67916084.4
2015-May-03 00:28N 22°27' E 113°53'9971087.7
2015-May-02 23:33N 37°47' E 121°19'971388571.8
2015-May-02 23:33N 23°04' E 113°29'66417972.5
2015-May-02 23:31N 31°19' E 121°47'6794665.6
2015-May-02 23:22N 22°27' E 113°53'67737476.3
2015-May-02 23:21N 31°45' E 121°03'1730587.1
2015-May-02 23:21N 31°58' E 120°51'116.2
2015-May-02 23:18N 31°59' E 120°50'6385.4
2015-May-02 22:33N 31°19' E 121°47'664140610.6
2015-May-02 22:33N 23°04' E 113°29'96396294.0
2015-May-02 22:32N 37°42' E 121°09'34255925.6
2015-May-02 22:32N 32°00' E 120°47'662669.0
2015-May-02 21:33N 23°04' E 113°29'66264454.9
2015-May-02 21:32N 31°59' E 120°50'632131.1
2015-May-02 21:30N 31°19' E 121°47'6714963.6
2015-May-02 21:22N 22°51' E 113°34'1417.2
2015-May-02 20:33N 23°04' E 113°29'66438554.3
2015-May-02 20:32N 31°19' E 121°47'661262.8
2015-May-02 20:29N 32°01' E 120°47'663712.6
2015-May-02 19:33N 23°04' E 113°29'66536286.5
2015-May-02 19:32N 31°20' E 121°48'45388.3
2015-May-02 19:25N 31°45' E 121°03'659752.2
2015-May-02 18:33N 23°04' E 113°29'66543546.9
2015-May-02 18:32N 31°20' E 121°48'3751613.5
2015-May-02 18:18N 37°34' E 122°26'9861330.0
2015-May-02 17:33N 23°04' E 113°29'982117884.0
2015-May-02 17:33N 37°34' E 122°17'37520768.7
2015-May-02 17:32N 31°20' E 121°48'48014523.0
2015-May-02 17:30N 24°04' E 118°01'4994679.1
2015-May-02 17:23N 32°01' E 120°47'663789.8
2015-May-02 16:33N 23°04' E 113°29'66343379.8
2015-May-02 16:32N 32°01' E 120°47'2114904.8
2015-May-02 16:32N 31°45' E 121°03'351115023.3
2015-May-02 16:32N 37°33' E 122°06'37320980.5
2015-May-02 16:31N 31°20' E 121°48'6754294.4
2015-May-02 16:21N 22°55' E 113°25'1013.0
2015-May-02 15:33N 23°04' E 113°29'27046227.9
2015-May-02 15:33N 24°13' E 118°14'46712553.1
2015-May-02 15:31N 31°20' E 121°48'65149.2
2015-May-02 15:04N 32°01' E 120°47'6631278.0
2015-May-02 14:33N 23°04' E 113°29'66582588.7
2015-May-02 14:33N 31°20' E 121°48'3733043.3
2015-May-02 14:26N 37°33' E 122°05'9761116.1
2015-May-02 13:33N 23°04' E 113°29'66558416.4
2015-May-02 13:32N 31°20' E 121°48'6736583.2
2015-May-02 13:26N 22°54' E 113°30'1111.9
2015-May-02 12:33N 23°04' E 113°29'66559874.6
2015-May-02 12:32N 31°20' E 121°48'6626214.4
2015-May-02 12:32N 32°01' E 120°47'663672.1
2015-May-02 11:33N 23°04' E 113°29'66558412.4
2015-May-02 11:32N 31°20' E 121°48'3731188.0
2015-May-02 11:14N 37°33' E 122°05'10011483.9
2015-May-02 10:33N 22°27' E 113°53'68061236.4
2015-May-02 10:32N 31°20' E 121°48'665108854.2
2015-May-02 10:32N 23°04' E 113°29'9768988.4
2015-May-02 10:26N 37°33' E 122°05'9761116.4
2015-May-02 09:33N 23°04' E 113°29'43155215.9
2015-May-02 09:33N 22°27' E 113°53'68061236.4
2015-May-02 09:32N 31°20' E 121°48'50614566.8
2015-May-02 09:30N 39°05' E 117°44'99214007.3
2015-May-02 09:26N 22°56' E 113°33'9824711.5
2015-May-02 09:14N 37°33' E 122°05'2252019.7
2015-May-02 09:07N 39°05' E 117°44'10171797.2
2015-May-02 08:33N 22°27' E 113°53'435174.5
2015-May-02 08:32N 23°04' E 113°29'985131370.5
2015-May-02 08:32N 39°04' E 117°50'50353222.6
2015-May-02 08:31N 31°20' E 121°48'5036143.3
2015-May-02 08:26N 39°04' E 117°49'041.5
2015-May-02 08:26N 39°04' E 117°49'100473763.4
2015-May-02 08:25N 22°45' E 113°31'12136.1
2015-May-02 08:20N 22°56' E 113°33'99215942.5
2015-May-02 08:16N 39°04' E 117°46'9851374.7
2015-May-02 07:33N 23°04' E 113°29'985253358.9
2015-May-02 07:33N 39°04' E 117°50'22112027.4
2015-May-02 07:32N 37°33' E 122°05'37363904.8
2015-May-02 07:31N 31°20' E 121°48'68012248.5
2015-May-02 07:28N 22°27' E 113°53'101728168.0
2015-May-02 07:26N 39°04' E 117°48'119.1
2015-May-02 07:22N 39°04' E 117°50'100413184.7
2015-May-02 07:17N 22°44' E 113°37'100410037.8
2015-May-02 07:11N 39°04' E 117°51'9861570.6
2015-May-02 06:33N 23°04' E 113°29'2416990.0
2015-May-02 06:33N 22°43' E 113°40'619445636.0
2015-May-02 06:33N 29°58' E 121°52'58456830.9
2015-May-02 06:33N 39°05' E 117°44'50613788.8
2015-May-02 06:30N 31°20' E 121°48'3734757.6
2015-May-02 06:26N 37°33' E 122°05'98219308.9
2015-May-02 06:23N 22°56' E 113°33'9923807.9
2015-May-02 06:07N 39°05' E 117°44'101719798.7
2015-May-02 06:04N 22°27' E 113°53'4383.8
2015-May-02 05:33N 23°04' E 113°29'9380.6
2015-May-02 05:32N 22°56' E 113°33'61947387.7
2015-May-02 05:31N 29°58' E 121°59'58315437.8
2015-May-02 05:29N 39°04' E 117°50'21739000.7
2015-May-02 05:28N 37°35' E 122°02'375675651.8
2015-May-02 05:28N 31°20' E 121°48'50475551.0
2015-May-02 05:28N 39°04' E 117°48'1645.5
2015-May-02 05:28N 39°05' E 117°46'124.3
2015-May-02 05:24N 39°04' E 117°48'5167581.5
2015-May-02 05:20N 30°57' E 121°17'63843352.2
2015-May-02 05:19N 22°51' E 113°34'6713978.0
2015-May-02 05:09N 31°59' E 120°50'450758.7
2015-May-02 04:33N 39°04' E 117°49'515927199.8
2015-May-02 04:33N 30°59' E 121°22'3136986.7
2015-May-02 04:33N 31°20' E 121°48'6651197661.2
2015-May-02 04:33N 23°04' E 113°29'97494757.4
2015-May-02 04:33N 37°37' E 121°51'20844149.5
2015-May-02 04:32N 39°04' E 117°49'587162672.4
2015-May-02 04:32N 29°56' E 122°05'6273790.6
2015-May-02 04:22N 22°55' E 113°27'995115538.2
2015-May-02 04:22N 39°04' E 117°49'327.8
2015-May-02 04:16N 39°05' E 117°46'9851389.3
2015-May-02 03:33N 23°04' E 113°29'66585547.2
2015-May-02 03:33N 31°20' E 121°48'50318091.2
2015-May-02 03:31N 39°04' E 117°50'4445158.2
2015-May-02 03:26N 32°19' E 121°35'31916620.9
2015-May-02 03:25N 37°38' E 121°42'76331210.7
2015-May-02 03:23N 25°05' E 119°15'35018253.0
2015-May-02 03:22N 23°04' E 113°16'98823879.4
2015-May-02 03:20N 39°05' E 117°44'5102358.6
2015-May-02 03:07N 31°08' E 121°24'64712664.9
2015-May-02 03:04N 22°57' E 113°30'6701282.4
2015-May-02 02:32N 31°20' E 121°48'665798446.0
2015-May-02 02:32N 23°04' E 113°29'64439289.1
2015-May-02 02:31N 31°08' E 121°26'38951854.7
2015-May-02 02:31N 37°37' E 121°43'37522131.7
2015-May-02 02:30N 31°22' E 121°30'49637988.1
2015-May-02 02:29N 39°04' E 117°50'98838262.7
2015-May-02 02:28N 23°04' E 113°16'651180364.8
2015-May-02 02:27N 31°06' E 121°28'51240944.1
2015-May-02 02:27N 39°05' E 117°46'98884697.6
2015-May-02 02:26N 23°01' E 113°31'98841861.1
2015-May-02 02:24N 39°04' E 117°51'9851156.3
2015-May-02 01:33N 23°04' E 113°29'98554559.4
2015-May-02 01:32N 39°04' E 117°47'50423268.5
2015-May-02 01:31N 31°20' E 121°48'375675500.0
2015-May-02 01:31N 37°36' E 121°44'2075094.4
2015-May-02 01:29N 39°05' E 117°46'9857254.3
2015-May-02 01:20N 23°04' E 113°29'940.3
2015-May-02 01:08N 22°56' E 113°33'915.4
2015-May-02 00:33N 23°04' E 113°29'017.8
2015-May-02 00:32N 23°04' E 113°29'9714.8
2015-May-02 00:32N 22°56' E 113°33'66960180.4
2015-May-02 00:31N 31°20' E 121°48'374336928.7
2015-May-02 00:31N 37°35' E 121°45'2052480.6
2015-May-02 00:26N 39°04' E 117°49'102316009.7
2015-May-02 00:22N 22°19' E 114°07'5770.2
2015-May-01 23:33N 23°04' E 113°29'583612.6
2015-May-01 23:32N 22°18' E 114°07'68028463.1
2015-May-01 23:31N 31°20' E 121°48'375674115.7
2015-May-01 23:31N 37°35' E 121°47'1061081.9
2015-May-01 23:25N 36°06' E 120°34'864997.0
2015-May-01 22:33N 23°04' E 113°29'582718.7
2015-May-01 22:32N 22°18' E 114°07'68053213.2
2015-May-01 22:31N 31°20' E 121°48'37619888.9
2015-May-01 22:30N 37°36' E 121°46'107601.6
2015-May-01 22:19N 36°07' E 120°33'293382.8
2015-May-01 21:33N 31°20' E 121°48'66544348.9
2015-May-01 21:32N 23°04' E 113°29'97322604.7
2015-May-01 21:30N 37°38' E 121°47'1092649.9
2015-May-01 21:27N 36°06' E 120°33'89444678.4
2015-May-01 21:26N 22°18' E 114°07'133611060.4
2015-May-01 21:19N 00°02' E 114°07'19302524.7
2015-May-01 20:33N 31°20' E 121°48'665133048.4
2015-May-01 20:33N 23°04' E 113°29'37383946.5
2015-May-01 20:32N 25°44' E 119°39'36652759.1
2015-May-01 20:32N 22°18' E 114°07'100343498.7
2015-May-01 20:31N 37°39' E 121°47'343933.0
2015-May-01 20:09N 31°59' E 120°50'66642828.8
2015-May-01 20:08N 22°56' E 113°33'915.3
2015-May-01 19:33N 23°04' E 113°29'665114045.9
2015-May-01 19:33N 31°20' E 121°48'67448493.9
2015-May-01 19:32N 22°54' E 113°28'98532545.5
2015-May-01 19:30N 37°40' E 121°47'100542547.9
2015-May-01 19:29N 22°18' E 114°07'50319.6
2015-May-01 19:20N 22°56' E 113°33'911.4
2015-May-01 18:33N 23°04' E 113°29'61656878.9
2015-May-01 18:33N 29°55' E 122°02'8623856.9
2015-May-01 18:33N 31°20' E 121°48'68055638.5
2015-May-01 18:32N 22°18' E 114°07'50339.0
2015-May-01 18:23N 22°56' E 113°33'63815305.3
2015-May-01 18:21N 30°59' E 121°21'1317.1
2015-May-01 17:33N 31°11' E 121°28'64730650.7
2015-May-01 17:32N 23°04' E 113°29'587480.1
2015-May-01 17:32N 22°18' E 114°07'68011884.0
2015-May-01 17:28N 31°20' E 121°48'82664.4
2015-May-01 17:21N 29°58' E 121°51'132884.5
2015-May-01 17:12N 31°59' E 120°50'563880.8
2015-May-01 16:33N 22°37' E 120°12'372446705.2
2015-May-01 16:33N 23°04' E 113°29'644772536.1
2015-May-01 16:33N 31°07' E 121°28'615028.7
2015-May-01 16:33N 31°59' E 120°50'6274988.7
2015-May-01 16:33N 31°20' E 121°48'68036001.4
2015-May-01 16:31N 22°18' E 114°07'65620730.0
2015-May-01 16:30N 31°03' E 121°29'4002931.6
2015-May-01 16:21N 37°43' E 121°47'99615005.0
2015-May-01 16:17N 22°48' E 113°19'15151.8
2015-May-01 16:11N 22°56' E 113°33'6456397.3
2015-May-01 16:05N 31°03' E 121°29'5 9.8
2015-May-01 15:34N 31°08' E 121°28'6882055.3
2015-May-01 15:33N 32°16' E 121°32'698419035.2
2015-May-01 15:33N 23°04' E 113°29'64231220.4
2015-May-01 15:32N 31°03' E 121°29'2414103.7
2015-May-01 15:32N 31°20' E 121°48'6805653.8
2015-May-01 15:25N 22°18' E 114°07'49202.9
2015-May-01 15:10N 22°45' E 113°23'2031.5
2015-May-01 14:33N 23°04' E 113°29'64977922.0
2015-May-01 14:33N 31°12' E 121°30'172020.3
2015-May-01 14:32N 31°20' E 121°48'68048961.5
2015-May-01 14:31N 22°18' E 114°07'44158.6
2015-May-01 14:14N 22°44' E 113°28'2029.7
2015-May-01 13:33N 23°04' E 113°29'6657930.9
2015-May-01 13:28N 31°20' E 121°48'67810947.8
2015-May-01 13:24N 22°45' E 113°33'99420448.2
2015-May-01 13:21N 37°43' E 121°46'3463221.0
2015-May-01 13:15N 32°00' E 120°43'6897.2
2015-May-01 12:33N 31°20' E 121°48'68018406.7
2015-May-01 12:31N 22°18' E 114°07'531499.0
2015-May-01 12:29N 22°60' E 113°31'66582516.9
2015-May-01 12:28N 32°01' E 120°46'34623928.1
2015-May-01 12:27N 37°43' E 121°46'3471588.3
2015-May-01 12:14N 31°59' E 120°50'23702.8
2015-May-01 12:12N 31°42' E 121°08'4060.1
2015-May-01 11:33N 31°20' E 121°48'67310492.0
2015-May-01 11:29N 22°54' E 113°29'98743341.7
2015-May-01 11:27N 37°43' E 121°46'204226.8
2015-May-01 10:33N 39°04' E 117°47'20491661.2
2015-May-01 10:33N 37°43' E 121°46'104889868.8
2015-May-01 10:33N 21°54' E 113°13'730656657.4
2015-May-01 10:33N 31°20' E 121°48'15104.0
2015-May-01 10:24N 31°24' E 121°31'26160.8
2015-May-01 10:14N 31°42' E 121°08'4057.2
2015-May-01 09:33N 31°20' E 121°48'3814506.4
2015-May-01 09:27N 37°41' E 121°46'10123642010.0
2015-May-01 09:27N 22°18' E 113°46'483062.1
2015-May-01 09:27N 23°04' E 113°29'6453806.1
2015-May-01 09:16N 31°09' E 121°27'6484658.4
2015-May-01 09:08N 22°56' E 113°33'99239243.5
2015-May-01 09:06N 39°05' E 117°46'203368.8
2015-May-01 08:33N 37°38' E 121°40'37868094.5
2015-May-01 08:33N 31°20' E 121°48'66621232.1
2015-May-01 08:31N 23°05' E 113°26'98582481.8
2015-May-01 08:31N 39°04' E 117°48'488135205.8
2015-May-01 08:30N 31°29' E 121°25'6873992.6
2015-May-01 08:20N 22°17' E 113°47'102818418.5
2015-May-01 08:17N 39°05' E 117°44'10311428.0
2015-May-01 07:33N 22°15' E 113°48'103056196.2
2015-May-01 07:32N 39°04' E 117°47'472850005.2
2015-May-01 07:32N 31°42' E 121°08'47131404.7
2015-May-01 07:31N 39°04' E 117°50'50324806.4
2015-May-01 07:30N 31°20' E 121°48'245333.5
2015-May-01 07:30N 31°31' E 121°23'315095.5
2015-May-01 07:29N 30°59' E 121°24'39915973.2
2015-May-01 07:28N 37°38' E 121°51'100210550.0
2015-May-01 07:22N 22°20' E 114°07'67626163.4
2015-May-01 07:21N 31°41' E 121°09'3948.9
2015-May-01 06:33N 31°20' E 121°48'493320.0
2015-May-01 06:32N 31°47' E 120°60'9176.6
2015-May-01 06:29N 31°42' E 121°08'69460900.9
2015-May-01 06:28N 22°10' E 113°48'69269188.5
2015-May-01 06:28N 31°31' E 121°23'2754810.9
2015-May-01 06:24N 36°03' E 120°32'30122540.7
2015-May-01 06:24N 31°09' E 121°52'51638732.1
2015-May-01 06:23N 39°05' E 117°45'252.3
2015-May-01 06:20N 39°04' E 117°48'508649.1
2015-May-01 05:33N 31°15' E 121°46'1922660.5
2015-May-01 05:33N 31°04' E 121°28'2589033.4
2015-May-01 05:33N 31°23' E 121°47'50036753.5
2015-May-01 05:32N 39°04' E 117°50'46717143.4
2015-May-01 05:31N 31°45' E 121°06'69519242.1
2015-May-01 05:28N 22°10' E 113°48'69225944.4
2015-May-01 05:27N 31°31' E 121°22'675757.5
2015-May-01 04:33N 22°28' E 113°53'680122437.6
2015-May-01 04:33N 31°20' E 121°48'2110786.8
2015-May-01 04:33N 31°08' E 121°28'223462.0
2015-May-01 04:33N 31°23' E 121°47'363774.0
2015-May-01 04:32N 31°41' E 121°11'69464088.5
2015-May-01 04:31N 22°10' E 113°48'69427743.9
2015-May-01 04:30N 31°42' E 121°08'44567.3
2015-May-01 04:25N 30°58' E 121°14'34464.4
2015-May-01 04:21N 31°31' E 121°22'4884173.1
2015-May-01 04:14N 39°05' E 117°44'10171512.2
2015-May-01 03:33N 22°28' E 113°53'677812585.5
2015-May-01 03:33N 31°38' E 121°17'288460.2
2015-May-01 03:33N 31°12' E 121°29'505454526.8
2015-May-01 03:33N 39°04' E 117°50'496357427.3
2015-May-01 03:33N 31°27' E 121°48'4474.7
2015-May-01 03:33N 31°23' E 121°47'50211651.1
2015-May-01 03:30N 39°05' E 117°46'98926762.7
2015-May-01 03:28N 23°02' E 113°22'9898052.0
2015-May-01 03:20N 39°04' E 117°48'50914669.4
2015-May-01 03:18N 31°08' E 121°28'38400.3
2015-May-01 03:13N 31°42' E 121°08'6645395.1
2015-May-01 03:05N 22°55' E 113°33'3362.6
2015-May-01 02:34N 22°28' E 113°53'6671199842.4
2015-May-01 02:33N 31°15' E 121°30'682409109.4
2015-May-01 02:33N 22°12' E 113°48'67859528.3
2015-May-01 02:33N 31°11' E 121°28'20378.9
2015-May-01 02:30N 31°23' E 121°47'29159.1
2015-May-01 02:19N 31°38' E 121°17'47918136.6
2015-May-01 02:17N 39°05' E 117°46'98822101.4
2015-May-01 02:14N 23°03' E 113°21'66215881.9
2015-May-01 02:12N 32°01' E 120°34'51789.0
2015-May-01 02:08N 31°31' E 121°22'6751168.8
2015-May-01 01:33N 22°28' E 113°53'67011832.1
2015-May-01 01:30N 31°17' E 121°34'12225.0
2015-May-01 01:27N 31°23' E 121°47'381156.0
2015-May-01 01:25N 31°42' E 121°08'7237274.9
2015-May-01 01:19N 21°56' E 113°13'725434934.3
2015-May-01 01:19N 31°38' E 121°17'40143157.6
2015-May-01 01:19N 32°00' E 120°38'6180.6
2015-May-01 00:33N 31°21' E 121°32'672483908.8
2015-May-01 00:33N 22°28' E 113°53'67557826.8
2015-May-01 00:33N 31°31' E 121°22'2219769.4
2015-May-01 00:32N 31°23' E 121°47'661312.6
2015-May-01 00:29N 32°01' E 120°42'4464777.1
2015-May-01 00:24N 39°04' E 117°49'471105931.9
2015-May-01 00:24N 31°42' E 121°08'8255.1
2015-May-01 00:22N 31°38' E 121°17'678841.5
2015-Apr-30 23:33N 22°28' E 113°53'681272476.2
2015-Apr-30 23:33N 32°01' E 120°47'537338.1
2015-Apr-30 23:33N 31°23' E 121°30'33154239.7
2015-Apr-30 23:32N 36°51' E 122°27'25618777.0
2015-Apr-30 23:32N 39°04' E 117°50'50064262.5
2015-Apr-30 23:31N 31°23' E 121°47'141675.8
2015-Apr-30 23:31N 31°22' E 121°30'19396.7
2015-Apr-30 23:28N 31°38' E 121°17'858.0
2015-Apr-30 23:19N 31°42' E 121°08'1682.0
2015-Apr-30 23:07N 31°31' E 121°23'2239.6
2015-Apr-30 22:34N 31°23' E 121°47'224944.3
2015-Apr-30 22:33N 31°31' E 121°23'87150.1
2015-Apr-30 22:33N 31°26' E 121°30'32924669.6
2015-Apr-30 22:32N 36°51' E 122°27'3167533.4
2015-Apr-30 22:30N 31°42' E 121°08'898.4
2015-Apr-30 22:25N 31°38' E 121°17'2934.3
2015-Apr-30 21:33N 31°23' E 121°47'2072744.3
2015-Apr-30 21:33N 31°29' E 121°24'10228.0
2015-Apr-30 21:31N 31°38' E 121°17'26912240.0
2015-Apr-30 21:29N 36°04' E 120°34'2431616.8
2015-Apr-30 21:20N 32°01' E 120°48'6824307.0
2015-Apr-30 21:11N 22°28' E 113°52'6821093.2
2015-Apr-30 20:33N 31°23' E 121°47'2215823.1
2015-Apr-30 20:33N 31°31' E 121°23'41422.7
2015-Apr-30 20:33N 31°33' E 121°20'5819.6
2015-Apr-30 20:33N 31°38' E 121°17'344213.0
2015-Apr-30 20:32N 32°01' E 120°48'17797.3
2015-Apr-30 20:31N 31°46' E 120°57'1048.0
2015-Apr-30 20:18N 31°42' E 121°08'67619475.0
2015-Apr-30 20:16N 22°18' E 114°09'681953.4
2015-Apr-30 19:33N 31°23' E 121°47'307834.8
2015-Apr-30 19:33N 31°37' E 121°15'2333.4
2015-Apr-30 19:33N 31°38' E 121°17'34675.8
2015-Apr-30 19:30N 32°01' E 120°48'42662.9
2015-Apr-30 19:26N 31°31' E 121°23'67453936.3
2015-Apr-30 19:25N 22°18' E 114°09'9747953.7
2015-Apr-30 19:18N 36°51' E 122°27'330444.4
2015-Apr-30 18:33N 31°23' E 121°47'293654.3
2015-Apr-30 18:33N 31°38' E 121°17'6163.7
2015-Apr-30 18:31N 31°41' E 121°10'28754.1
2015-Apr-30 18:28N 32°01' E 120°48'3014110.8
2015-Apr-30 18:24N 36°51' E 122°27'330390.9
2015-Apr-30 17:33N 31°23' E 121°47'591227.8
2015-Apr-30 17:30N 31°58' E 120°51'30271.1
2015-Apr-30 17:24N 31°38' E 121°17'843.6
2015-Apr-30 17:13N 31°42' E 121°09'3152590.3
2015-Apr-30 17:06N 36°51' E 122°27'329609.4
2015-Apr-30 16:33N 31°23' E 121°47'37971.9
2015-Apr-30 16:31N 31°42' E 121°09'8380.6
2015-Apr-30 16:30N 31°38' E 121°17'2931.1
2015-Apr-30 15:33N 31°25' E 121°48'4250213.4
2015-Apr-30 15:33N 31°45' E 121°05'12131130.7
2015-Apr-30 15:33N 29°55' E 122°04'1174020.8
2015-Apr-30 15:31N 31°42' E 121°09'846.1
2015-Apr-30 15:21N 31°38' E 121°17'3182095.2
2015-Apr-30 15:12N 36°51' E 122°27'414643.8
2015-Apr-30 14:33N 29°58' E 121°57'8731357.9
2015-Apr-30 14:33N 31°25' E 121°48'29566.1
2015-Apr-30 14:30N 31°38' E 121°17'103109.4
2015-Apr-30 13:34N 29°59' E 121°50'41451331.4
2015-Apr-30 13:33N 36°51' E 122°28'3289527.3
2015-Apr-30 13:31N 31°25' E 121°48'35112510.3
2015-Apr-30 13:29N 25°57' E 119°23'6042384.9
2015-Apr-30 13:14N 35°58' E 120°32'2632133.0
2015-Apr-30 13:07N 31°38' E 121°17'350627.9
2015-Apr-30 12:33N 26°01' E 119°29'38024858.1
2015-Apr-30 12:32N 22°55' E 113°26'67024367.1
2015-Apr-30 12:31N 31°38' E 121°17'29617.7
2015-Apr-30 12:28N 31°25' E 121°48'42375.0
2015-Apr-30 12:21N 30°57' E 121°11'37819.6
2015-Apr-30 12:19N 31°33' E 121°19'2634.1
2015-Apr-30 11:33N 31°24' E 121°47'67690192.2
2015-Apr-30 11:33N 22°54' E 113°28'668141378.1
2015-Apr-30 11:33N 31°36' E 121°16'371645.1
2015-Apr-30 11:31N 32°02' E 120°45'30630575.2
2015-Apr-30 11:31N 36°55' E 122°29'3193101.0
2015-Apr-30 11:25N 31°46' E 120°57'351317.1
2015-Apr-30 11:23N 31°22' E 121°28'18952.8
2015-Apr-30 11:22N 31°38' E 121°17'37164.9
2015-Apr-30 11:08N 31°02' E 121°04'62717922.2
2015-Apr-30 11:06N 23°02' E 113°31'6661226.5
2015-Apr-30 10:33N 31°20' E 121°48'33755164.3
2015-Apr-30 10:33N 36°55' E 122°29'3377623.3
2015-Apr-30 10:30N 31°22' E 121°30'18197.3
2015-Apr-30 10:25N 31°38' E 121°17'24325.8
2015-Apr-30 10:20N 31°50' E 120°54'14168.1
2015-Apr-30 10:15N 32°02' E 120°45'306433.5
2015-Apr-30 09:33N 36°55' E 122°29'33829003.6
2015-Apr-30 09:32N 31°19' E 121°47'281221.6
2015-Apr-30 09:31N 31°33' E 121°19'66679959.7
2015-Apr-30 09:31N 22°52' E 113°33'66811239.4
2015-Apr-30 09:27N 31°37' E 121°18'3015400.1
2015-Apr-30 09:27N 31°56' E 120°52'66214980.9
2015-Apr-30 09:24N 23°03' E 113°30'1505.8
2015-Apr-30 09:24N 23°04' E 113°29'98111697.1
2015-Apr-30 09:19N 37°36' E 122°10'1263521.5
2015-Apr-30 09:17N 35°58' E 120°32'2391342.0
2015-Apr-30 09:06N 31°60' E 120°49'67846924.7
2015-Apr-30 09:05N 22°53' E 113°17'6771263.6
2015-Apr-30 08:33N 32°00' E 120°47'307221024.4
2015-Apr-30 08:33N 36°55' E 122°29'324166706.9
2015-Apr-30 08:33N 31°37' E 121°18'3136854.7
2015-Apr-30 08:33N 31°19' E 121°47'37525956.5
2015-Apr-30 08:32N 37°33' E 122°20'3421830.8
2015-Apr-30 08:21N 31°59' E 120°50'663831.3
2015-Apr-30 07:33N 23°04' E 113°29'6602377794.5
2015-Apr-30 07:33N 31°37' E 121°18'3113822.1
2015-Apr-30 07:33N 31°19' E 121°47'33814676.8
2015-Apr-30 07:32N 36°55' E 122°29'98027549.0
2015-Apr-30 07:29N 22°18' E 114°07'102447864.1
2015-Apr-30 07:28N 39°05' E 117°44'4498410.3
2015-Apr-30 07:25N 32°01' E 120°44'3843.6
2015-Apr-30 06:33N 31°37' E 121°18'319217.8
2015-Apr-30 06:33N 31°19' E 121°47'311984.1
2015-Apr-30 06:32N 30°59' E 121°20'3613350.2
2015-Apr-30 06:25N 36°55' E 122°29'32010462.6
2015-Apr-30 06:24N 31°57' E 120°11'66399413.6
2015-Apr-30 06:23N 22°18' E 114°07'10256481.9
2015-Apr-30 06:14N 39°05' E 117°52'2331437.3
2015-Apr-30 06:04N 37°34' E 122°25'398776.1
2015-Apr-30 05:33N 30°59' E 121°20'315023.0
2015-Apr-30 05:33N 31°19' E 121°47'318511.7
2015-Apr-30 05:33N 31°37' E 121°18'6782439058.9
2015-Apr-30 05:33N 22°18' E 114°07'1024118935.6
2015-Apr-30 05:32N 39°05' E 117°50'443199477.3
2015-Apr-30 05:32N 31°58' E 120°17'31738050.6
2015-Apr-30 05:31N 36°55' E 122°29'41380.3
2015-Apr-30 05:25N 37°35' E 122°19'34529543.5
2015-Apr-30 05:24N 31°59' E 120°50'65359.0
2015-Apr-30 05:13N 30°59' E 121°21'4770.7
2015-Apr-30 04:33N 31°44' E 121°05'4717017.1
2015-Apr-30 04:33N 30°60' E 121°24'284152.3
2015-Apr-30 04:33N 31°19' E 121°47'33815419.9
2015-Apr-30 04:32N 36°55' E 122°29'32410703.4
2015-Apr-30 04:30N 31°37' E 121°18'423.6
2015-Apr-30 04:20N 31°33' E 121°20'3342.6
2015-Apr-30 03:33N 31°01' E 121°29'242707.9
2015-Apr-30 03:33N 31°19' E 121°48'33812303.5
2015-Apr-30 03:31N 36°55' E 122°29'443.1
2015-Apr-30 03:26N 36°52' E 122°28'3208172.2
2015-Apr-30 03:23N 31°37' E 121°18'3671278.7
2015-Apr-30 03:06N 37°42' E 121°55'398727.4
2015-Apr-30 02:33N 31°05' E 121°28'221658.4
2015-Apr-30 02:32N 31°19' E 121°48'3113898.6
2015-Apr-30 02:32N 31°37' E 121°18'36728758.8
2015-Apr-30 02:32N 37°43' E 121°49'579377.0
2015-Apr-30 02:31N 36°55' E 122°29'31537859.4
2015-Apr-30 02:31N 31°58' E 120°20'2403072.2
2015-Apr-30 02:26N 35°58' E 120°32'120136.9
2015-Apr-30 01:34N 37°45' E 121°39'356128312.6
2015-Apr-30 01:33N 31°56' E 120°13'7947283.6
2015-Apr-30 01:33N 31°09' E 121°28'202342.4
2015-Apr-30 01:33N 31°19' E 121°48'31805.6
2015-Apr-30 01:30N 31°37' E 121°18'32110503.6
2015-Apr-30 01:29N 36°52' E 122°28'354.8
2015-Apr-30 01:25N 36°55' E 122°29'110397767.7
2015-Apr-30 01:25N 35°58' E 120°32'264306.7
2015-Apr-30 00:33N 31°37' E 121°18'321128406.6
2015-Apr-30 00:33N 36°52' E 122°33'343246879.8
2015-Apr-30 00:33N 31°13' E 121°30'161804.0
2015-Apr-30 00:33N 31°19' E 121°48'28614114.3
2015-Apr-30 00:32N 35°58' E 120°32'1183994.2
2015-Apr-30 00:30N 37°47' E 121°27'3484945.2
2015-Apr-30 00:26N 32°01' E 120°45'6618917.0
2015-Apr-30 00:21N 23°04' E 113°29'0 2.9
2015-Apr-30 00:11N 23°04' E 113°29'12779.1
2015-Apr-30 00:10N 22°52' E 113°32'12256.1
2015-Apr-30 00:08N 23°04' E 113°29'6651145.2
2015-Apr-29 23:33N 31°20' E 121°48'673161633.2
2015-Apr-29 23:32N 22°54' E 113°28'64650576.0
2015-Apr-29 23:32N 31°17' E 121°05'233160.8
2015-Apr-29 23:31N 31°15' E 121°31'242096.9
2015-Apr-29 23:31N 31°37' E 121°18'6605504.0
2015-Apr-29 23:23N 23°04' E 113°29'97218506.4
2015-Apr-29 23:20N 37°49' E 121°15'9713728.3
2015-Apr-29 23:05N 23°04' E 113°29'0 0.2
2015-Apr-29 22:33N 23°04' E 113°29'665104120.1
2015-Apr-29 22:33N 31°20' E 121°48'665119727.3
2015-Apr-29 22:32N 23°04' E 113°29'65525346.4
2015-Apr-29 22:31N 31°17' E 121°34'24117.9
2015-Apr-29 22:19N 31°37' E 121°18'66330206.3
2015-Apr-29 22:17N 22°57' E 113°36'658867.6
2015-Apr-29 21:32N 31°19' E 121°33'12908.5
2015-Apr-29 21:31N 31°20' E 121°48'305724.3
2015-Apr-29 21:31N 31°37' E 121°18'6603891.5
2015-Apr-29 21:20N 23°04' E 113°29'9501205.0
2015-Apr-29 20:33N 36°50' E 122°30'33137234.6
2015-Apr-29 20:33N 31°21' E 121°48'30910.0
2015-Apr-29 20:31N 31°37' E 121°18'19593.7
2015-Apr-29 20:29N 31°21' E 121°31'6563872.3
2015-Apr-29 20:19N 23°04' E 113°29'666869.5
2015-Apr-29 19:33N 31°21' E 121°48'1518146.4
2015-Apr-29 19:33N 31°23' E 121°30'65719708.4
2015-Apr-29 19:31N 23°04' E 113°29'561128.7
2015-Apr-29 19:28N 22°20' E 114°07'67714330.4
2015-Apr-29 19:25N 31°37' E 121°18'4911911.0
2015-Apr-29 19:09N 39°44' E 120°01'2234271.6
2015-Apr-29 19:06N 36°02' E 120°37'242439.2
2015-Apr-29 18:33N 32°01' E 120°47'656911.1
2015-Apr-29 18:33N 31°21' E 121°48'30959.3
2015-Apr-29 18:31N 31°37' E 121°18'660198147.5
2015-Apr-29 18:31N 23°04' E 113°29'583146.0
2015-Apr-29 18:29N 22°18' E 114°07'58171.7
2015-Apr-29 18:09N 23°04' E 113°29'6661104.3
2015-Apr-29 17:33N 31°21' E 121°48'40697502.8
2015-Apr-29 17:33N 38°07' E 122°09'43277682.2
2015-Apr-29 17:32N 30°58' E 121°15'391511.7
2015-Apr-29 17:31N 31°37' E 121°18'660148611.6
2015-Apr-29 17:31N 23°04' E 113°29'58478.5
2015-Apr-29 17:23N 22°18' E 114°07'26233655.4
2015-Apr-29 17:23N 24°18' E 118°21'461554.2
2015-Apr-29 16:33N 31°21' E 121°48'322840.5
2015-Apr-29 16:32N 30°59' E 121°20'381646.9
2015-Apr-29 16:31N 31°37' E 121°18'661125148.8
2015-Apr-29 16:31N 23°04' E 113°29'2705952.7
2015-Apr-29 16:28N 24°14' E 118°13'486145808.7
2015-Apr-29 16:28N 32°00' E 120°49'68327322.0
2015-Apr-29 16:26N 22°18' E 114°07'58247.6
2015-Apr-29 16:12N 23°04' E 113°29'6661021.2
2015-Apr-29 15:33N 31°21' E 121°48'66639946.2
2015-Apr-29 15:32N 23°04' E 113°30'2627199.0
2015-Apr-29 15:30N 24°09' E 118°07'2632820.9
2015-Apr-29 15:24N 23°04' E 113°29'583077.0
2015-Apr-29 15:23N 22°18' E 114°07'65469241.9
2015-Apr-29 15:22N 31°01' E 121°27'2732.1
2015-Apr-29 14:32N 31°21' E 121°48'48210655.1
2015-Apr-29 14:30N 24°02' E 118°01'49111624.5
2015-Apr-29 14:27N 31°48' E 120°56'67632900.1
2015-Apr-29 14:26N 22°18' E 114°07'58717.4
2015-Apr-29 14:21N 23°04' E 113°29'140.6
2015-Apr-29 14:20N 23°04' E 113°30'3651313663.5
2015-Apr-29 14:20N 22°34' E 120°04'5 6.7
2015-Apr-29 13:32N 22°35' E 120°10'33538922.3
2015-Apr-29 13:32N 22°18' E 114°07'68144559.4
2015-Apr-29 13:31N 31°21' E 121°48'6666479.8
2015-Apr-29 13:25N 23°04' E 113°29'6606891.4
2015-Apr-29 13:19N 31°37' E 121°18'6605674.8
2015-Apr-29 13:12N 23°04' E 113°29'376580.9
2015-Apr-29 12:33N 22°37' E 120°16'376150511.7
2015-Apr-29 12:33N 23°04' E 113°29'138.4
2015-Apr-29 12:32N 23°04' E 113°30'030.9
2015-Apr-29 12:32N 23°04' E 113°30'66052815.7
2015-Apr-29 12:31N 31°37' E 121°18'30568.9
2015-Apr-29 12:28N 31°21' E 121°48'38222.0
2015-Apr-29 12:18N 31°41' E 121°10'514688.3
2015-Apr-29 11:33N 23°42' E 117°41'50963128.9
2015-Apr-29 11:32N 31°21' E 121°48'66695872.8
2015-Apr-29 11:32N 23°04' E 113°30'645290093.5
2015-Apr-29 11:32N 31°09' E 121°27'29462.7
2015-Apr-29 11:28N 31°37' E 121°18'468.0
2015-Apr-29 11:25N 31°39' E 121°15'66045688.7
2015-Apr-29 11:24N 23°04' E 113°29'9503153.0
2015-Apr-29 11:06N 36°53' E 122°26'95049572.6
2015-Apr-29 11:05N 23°04' E 113°30'6461231.6
2015-Apr-29 10:33N 31°10' E 121°28'211275.7
2015-Apr-29 10:32N 31°21' E 121°48'301438.8
2015-Apr-29 10:31N 31°37' E 121°18'112.0
2015-Apr-29 10:24N 31°35' E 121°19'660148440.8
2015-Apr-29 10:24N 23°04' E 113°29'95090035.9
2015-Apr-29 10:23N 36°53' E 122°26'95015911.0
2015-Apr-29 10:20N 23°04' E 113°30'0 0.3
2015-Apr-29 10:08N 23°04' E 113°30'6591119.7
2015-Apr-29 09:33N 31°32' E 121°22'256915.5
2015-Apr-29 09:32N 31°21' E 121°48'344486.4
2015-Apr-29 09:32N 31°39' E 121°14'65929301.9
2015-Apr-29 09:31N 23°04' E 113°30'95025720.8
2015-Apr-29 09:28N 36°53' E 122°26'95013158.8
2015-Apr-29 09:24N 23°04' E 113°29'135.6
2015-Apr-29 09:23N 23°04' E 113°30'86521772.6
2015-Apr-29 09:21N 36°07' E 120°33'292372.7
2015-Apr-29 08:34N 31°21' E 121°48'66624963.6
2015-Apr-29 08:32N 23°04' E 113°30'0 0.7
2015-Apr-29 08:28N 23°04' E 113°30'95010690.2
2015-Apr-29 08:22N 36°53' E 122°26'3273308.4
2015-Apr-29 08:16N 31°29' E 121°26'6609241.9
2015-Apr-29 08:12N 23°04' E 113°29'6661036.9
2015-Apr-29 07:34N 31°21' E 121°48'478997.4
2015-Apr-29 07:33N 31°46' E 121°00'65816685.4
2015-Apr-29 07:31N 23°04' E 113°29'659263797.9
2015-Apr-29 07:31N 31°28' E 121°28'6645454.1
2015-Apr-29 07:23N 22°56' E 113°33'95650605.1
2015-Apr-29 07:22N 36°53' E 122°26'95010792.6
2015-Apr-29 07:17N 23°04' E 113°29'6607662.5
2015-Apr-29 07:12N 31°41' E 121°11'3757.6
2015-Apr-29 06:34N 31°21' E 121°48'66663098.1
2015-Apr-29 06:33N 23°03' E 113°30'169.4
2015-Apr-29 06:32N 23°04' E 113°29'0 4.0
2015-Apr-29 06:31N 23°04' E 113°29'187672077.4
2015-Apr-29 06:31N 23°18' E 116°51'55386487.4
2015-Apr-29 06:31N 31°39' E 121°15'17762.0
2015-Apr-29 06:29N 31°26' E 121°28'33121648.1
2015-Apr-29 06:28N 36°53' E 122°26'9504266.2
2015-Apr-29 06:15N 23°04' E 113°29'666964.7
2015-Apr-29 05:34N 31°21' E 121°48'64229322.3
2015-Apr-29 05:33N 32°00' E 120°49'56359636.3
2015-Apr-29 05:33N 23°21' E 116°44'18011150.1
2015-Apr-29 05:32N 23°04' E 113°29'65838827.3
2015-Apr-29 05:31N 31°26' E 121°28'65812872.2
2015-Apr-29 05:28N 23°04' E 113°29'413.2
2015-Apr-29 05:10N 23°03' E 113°25'914.3
2015-Apr-29 04:33N 22°55' E 113°27'17422416.9
2015-Apr-29 04:33N 23°22' E 116°35'550989593.6
2015-Apr-29 04:33N 31°26' E 121°28'172065.2
2015-Apr-29 04:32N 31°21' E 121°48'49263294.5
2015-Apr-29 04:32N 38°55' E 117°54'97756727.7
2015-Apr-29 04:31N 23°04' E 113°29'440.6
2015-Apr-29 04:25N 23°03' E 113°25'429.5
2015-Apr-29 04:17N 23°04' E 113°29'6583784.7
2015-Apr-29 04:07N 31°29' E 121°24'6661177.6
2015-Apr-29 03:33N 22°54' E 113°29'10170.0
2015-Apr-29 03:29N 23°04' E 113°29'65876423.3
2015-Apr-29 03:28N 31°29' E 121°24'21594.2
2015-Apr-29 03:26N 31°21' E 121°48'33628139.8
2015-Apr-29 03:26N 36°56' E 122°28'33410010.1
2015-Apr-29 03:24N 31°26' E 121°28'5484874.3
2015-Apr-29 03:17N 23°26' E 116°28'1702578.0
2015-Apr-29 03:13N 23°03' E 113°25'66022637.5
2015-Apr-29 03:11N 31°23' E 121°30'66148559.8
2015-Apr-29 03:10N 22°58' E 113°30'16248.3
2015-Apr-29 03:06N 22°54' E 113°13'18560.9
2015-Apr-29 03:05N 23°04' E 113°29'2 4.5
2015-Apr-29 02:33N 23°03' E 113°30'65898771.9
2015-Apr-29 02:33N 31°26' E 121°28'415024.6
2015-Apr-29 02:33N 31°21' E 121°27'659103081.1
2015-Apr-29 02:33N 22°58' E 113°30'6689.7
2015-Apr-29 02:32N 23°04' E 113°29'66699898.3
2015-Apr-29 02:32N 31°21' E 121°48'642.6
2015-Apr-29 02:23N 31°27' E 121°48'67429220.5
2015-Apr-29 02:22N 23°03' E 113°25'416.1
2015-Apr-29 02:07N 23°04' E 113°29'4 7.0
2015-Apr-29 01:33N 23°03' E 113°25'42166.2
2015-Apr-29 01:33N 23°04' E 113°29'66695972.5
2015-Apr-29 01:33N 31°22' E 121°48'168.2
2015-Apr-29 01:32N 31°21' E 121°48'66611987.9
2015-Apr-29 01:29N 23°04' E 113°29'0 8.2
2015-Apr-29 01:28N 23°04' E 113°29'65864016.0
2015-Apr-29 01:28N 31°26' E 121°28'6612659.9
2015-Apr-29 01:13N 23°03' E 113°25'4 6.3
2015-Apr-29 00:34N 23°04' E 113°29'66252928.5
2015-Apr-29 00:33N 31°17' E 121°45'1720135.9
2015-Apr-29 00:33N 31°26' E 121°28'17963.9
2015-Apr-29 00:32N 31°21' E 121°48'666171253.9
2015-Apr-29 00:31N 23°04' E 113°29'580.8
2015-Apr-29 00:28N 23°02' E 113°24'128.2
2015-Apr-29 00:25N 23°03' E 113°25'591303.3
2015-Apr-29 00:22N 22°18' E 114°07'581122.8
2015-Apr-29 00:19N 23°04' E 113°29'6596872.5
2015-Apr-29 00:13N 32°00' E 120°40'1381.7
2015-Apr-29 00:04N 32°01' E 120°25'64125.7
2015-Apr-28 23:33N 31°26' E 121°28'2517985.2
2015-Apr-28 23:33N 31°11' E 121°52'661103430.0
2015-Apr-28 23:33N 23°04' E 113°29'66670521.9
2015-Apr-28 23:32N 31°21' E 121°48'68133561.1
2015-Apr-28 23:31N 22°18' E 114°07'581315.1
2015-Apr-28 23:28N 23°04' E 113°29'012.5
2015-Apr-28 23:28N 23°04' E 113°29'5791.3
2015-Apr-28 23:28N 23°02' E 113°24'6593048.1
2015-Apr-28 23:15N 32°02' E 120°30'65721712.8
2015-Apr-28 23:13N 23°03' E 113°25'4 6.1
2015-Apr-28 22:33N 23°04' E 113°29'66668507.5
2015-Apr-28 22:32N 31°21' E 121°48'33412129.7
2015-Apr-28 22:31N 36°53' E 122°26'95025921.8
2015-Apr-28 22:28N 23°04' E 113°29'5411.5
2015-Apr-28 22:28N 23°02' E 113°24'535.2
2015-Apr-28 22:19N 23°04' E 113°29'6593568.5
2015-Apr-28 22:08N 31°25' E 121°31'6591137.7
2015-Apr-28 21:33N 23°04' E 113°29'66641335.3
2015-Apr-28 21:32N 31°21' E 121°48'667800122.7
2015-Apr-28 21:32N 23°05' E 113°27'2108.6
2015-Apr-28 21:31N 23°04' E 113°29'590.5
2015-Apr-28 21:28N 23°02' E 113°24'955491137.4
2015-Apr-28 21:28N 36°54' E 122°26'9516999.9
2015-Apr-28 21:19N 23°04' E 113°29'6403728.8
2015-Apr-28 21:09N 31°57' E 120°09'317533.4
2015-Apr-28 20:33N 36°53' E 122°26'953201863.5
2015-Apr-28 20:33N 22°60' E 113°31'4786.5
2015-Apr-28 20:33N 23°04' E 113°29'666171247.6
2015-Apr-28 20:33N 31°21' E 121°48'66625502.6
2015-Apr-28 20:31N 23°04' E 113°29'0 1.5
2015-Apr-28 20:28N 23°04' E 113°29'6512290.3
2015-Apr-28 20:11N 31°15' E 121°30'341540.5
2015-Apr-28 19:33N 36°53' E 122°26'950201231.5
2015-Apr-28 19:33N 23°04' E 113°30'648179401.3
2015-Apr-28 19:33N 31°12' E 121°29'181478.5
2015-Apr-28 19:32N 31°21' E 121°48'66633764.1
2015-Apr-28 19:31N 23°04' E 113°29'65841553.7
2015-Apr-28 19:30N 31°26' E 121°28'65823451.3
2015-Apr-28 19:28N 23°04' E 113°29'5479.2
2015-Apr-28 19:28N 23°02' E 113°24'13117.0
2015-Apr-28 19:21N 22°53' E 113°34'664831.8
2015-Apr-28 18:33N 31°26' E 121°28'65851474.1
2015-Apr-28 18:33N 23°04' E 113°30'666126129.0
2015-Apr-28 18:32N 31°21' E 121°48'66649943.3
2015-Apr-28 18:31N 23°04' E 113°29'0 1.2
2015-Apr-28 18:28N 23°04' E 113°29'5591.2
2015-Apr-28 18:28N 23°02' E 113°24'95522313.6
2015-Apr-28 18:25N 36°53' E 122°26'9763085.6
2015-Apr-28 18:06N 22°18' E 114°07'2787533.0
2015-Apr-28 18:04N 24°24' E 118°38'293566.9
2015-Apr-28 17:33N 23°04' E 113°30'66661447.5
2015-Apr-28 17:32N 31°21' E 121°48'332170919.1
2015-Apr-28 17:32N 36°51' E 122°33'95257121.4
2015-Apr-28 17:31N 23°04' E 113°29'65833360.0
2015-Apr-28 17:30N 31°26' E 121°28'66318782.1
2015-Apr-28 17:28N 23°02' E 113°24'59365.2
2015-Apr-28 17:18N 22°18' E 114°07'5876.9
2015-Apr-28 16:33N 23°04' E 113°30'658147988.1
2015-Apr-28 16:33N 31°26' E 121°28'65825745.5
2015-Apr-28 16:31N 23°04' E 113°29'666217935.6
2015-Apr-28 16:31N 31°21' E 121°48'68123789.6
2015-Apr-28 16:30N 22°18' E 114°07'58137.6
2015-Apr-28 16:04N 23°04' E 113°29'5555.6
2015-Apr-28 16:04N 23°02' E 113°24'610.7
2015-Apr-28 15:33N 23°04' E 113°30'66659911.3
2015-Apr-28 15:32N 31°21' E 121°48'66651005.2
2015-Apr-28 15:31N 23°04' E 113°29'0 4.5
2015-Apr-28 15:31N 23°04' E 113°29'369331878.9
2015-Apr-28 15:30N 22°37' E 120°08'53321330.6
2015-Apr-28 15:29N 31°26' E 121°28'6632444.0
2015-Apr-28 15:13N 23°02' E 113°24'6 8.4
2015-Apr-28 14:33N 23°04' E 113°30'3321.7
2015-Apr-28 14:33N 23°01' E 113°31'667109218.6
2015-Apr-28 14:32N 31°21' E 121°48'66651009.1
2015-Apr-28 14:31N 23°04' E 113°29'6588029.0
2015-Apr-28 14:27N 31°26' E 121°28'6632873.9
2015-Apr-28 14:13N 23°02' E 113°24'5 7.8
2015-Apr-28 13:34N 23°04' E 113°29'667141201.4
2015-Apr-28 13:33N 31°23' E 121°47'175434.4
2015-Apr-28 13:33N 31°21' E 121°27'63228013.0
2015-Apr-28 13:33N 32°02' E 120°30'614243.2
2015-Apr-28 13:32N 31°26' E 121°28'65852634.6
2015-Apr-28 13:31N 23°04' E 113°29'1155.4
2015-Apr-28 13:20N 22°53' E 113°30'10155.7
2015-Apr-28 13:16N 23°02' E 113°24'5 7.1
2015-Apr-28 12:33N 23°04' E 113°29'667300055.1
2015-Apr-28 12:33N 31°23' E 121°47'171811.4
2015-Apr-28 12:32N 31°21' E 121°27'65451219.5
2015-Apr-28 12:31N 23°04' E 113°29'658197381.2
2015-Apr-28 12:31N 31°26' E 121°28'6702098.1
2015-Apr-28 12:12N 22°54' E 113°22'856.3
2015-Apr-28 12:04N 23°02' E 113°24'6711326.8
2015-Apr-28 11:33N 31°23' E 121°47'667400073.5
2015-Apr-28 11:33N 23°04' E 113°29'65436246.4
2015-Apr-28 11:32N 31°21' E 121°27'4358.2
2015-Apr-28 11:31N 31°26' E 121°28'65813086.1
2015-Apr-28 11:28N 23°04' E 113°29'10672.0
2015-Apr-28 11:28N 22°57' E 113°36'12249.7
2015-Apr-28 11:25N 23°02' E 113°24'44177.6
2015-Apr-28 11:10N 22°27' E 113°53'71473449.8
2015-Apr-28 11:09N 32°14' E 121°31'6961168.0
2015-Apr-28 10:34N 23°04' E 113°29'654471206.5
2015-Apr-28 10:33N 31°21' E 121°27'4200.3
2015-Apr-28 10:32N 31°26' E 121°28'16548.6
2015-Apr-28 10:30N 31°23' E 121°47'68224071.6
2015-Apr-28 10:29N 22°27' E 113°53'438657.1
2015-Apr-28 10:28N 23°04' E 113°29'1087.9
2015-Apr-28 10:21N 22°54' E 113°28'70657767.0
2015-Apr-28 10:21N 32°16' E 121°31'7025211.1
2015-Apr-28 10:13N 23°02' E 113°24'5 7.8
2015-Apr-28 09:33N 23°04' E 113°29'654168286.8
2015-Apr-28 09:33N 31°21' E 121°27'175142.6
2015-Apr-28 09:33N 31°24' E 121°47'66828978.7
2015-Apr-28 09:31N 23°04' E 113°29'65826613.0
2015-Apr-28 09:30N 31°26' E 121°28'6637572.4
2015-Apr-28 09:25N 23°02' E 113°24'5 5.9
2015-Apr-28 08:33N 23°04' E 113°29'66932523.8
2015-Apr-28 08:32N 31°25' E 121°47'172394.6
2015-Apr-28 08:32N 31°21' E 121°27'654294510.0
2015-Apr-28 08:31N 23°04' E 113°29'6581184286.9
2015-Apr-28 08:31N 31°26' E 121°28'66310744.7
2015-Apr-28 08:28N 23°02' E 113°24'171546.2
2015-Apr-28 08:09N 23°27' E 116°28'544919.7
2015-Apr-28 07:33N 31°21' E 121°27'65471393.9
2015-Apr-28 07:33N 23°04' E 113°29'1599.5
2015-Apr-28 07:33N 23°05' E 113°27'66951255.4
2015-Apr-28 07:32N 31°25' E 121°47'66975221.2
2015-Apr-28 07:31N 23°04' E 113°29'659107910.7
2015-Apr-28 07:31N 31°53' E 120°54'557286541.1
2015-Apr-28 07:31N 23°26' E 116°32'54716409.4
2015-Apr-28 07:29N 31°26' E 121°28'6667284.1
2015-Apr-28 07:23N 23°03' E 113°17'677809.9
2015-Apr-28 06:33N 31°25' E 121°47'1412778.8
2015-Apr-28 06:33N 31°11' E 121°50'660103316.9
2015-Apr-28 06:33N 23°04' E 113°29'654336570.3
2015-Apr-28 06:33N 31°21' E 121°27'54639311.9
2015-Apr-28 06:32N 23°21' E 116°35'1769331.2
2015-Apr-28 06:31N 23°02' E 113°25'66232199.5
2015-Apr-28 06:30N 31°26' E 121°28'67615504.5
2015-Apr-28 06:27N 22°54' E 113°12'63721039.8
2015-Apr-28 06:25N 30°02' E 121°59'61947432.0
2015-Apr-28 06:24N 22°57' E 113°36'33956.6
2015-Apr-28 06:22N 22°27' E 113°53'43175.5
2015-Apr-28 06:07N 23°04' E 113°29'6378343.7
2015-Apr-28 06:03N 31°09' E 121°14'3366.1
2015-Apr-28 05:33N 31°25' E 121°47'669481331.1
2015-Apr-28 05:33N 23°04' E 113°29'4377709.7
2015-Apr-28 05:33N 22°27' E 113°53'629755119.2
2015-Apr-28 05:33N 29°57' E 122°04'490117480.9
2015-Apr-28 05:33N 23°21' E 116°42'548219370.1
2015-Apr-28 05:33N 31°18' E 121°46'301330.3
2015-Apr-28 05:31N 31°08' E 121°13'224614.2
2015-Apr-28 05:31N 31°26' E 121°28'4102.8
2015-Apr-28 05:29N 31°21' E 121°27'6543210.0
2015-Apr-28 05:16N 23°04' E 113°29'10146.3
2015-Apr-28 05:12N 22°57' E 113°36'124713.3
2015-Apr-28 05:12N 23°02' E 113°25'187286.3
2015-Apr-28 04:33N 23°17' E 116°47'526631787.7
2015-Apr-28 04:33N 31°09' E 121°09'3415426.4
2015-Apr-28 04:33N 31°20' E 121°48'182004.9
2015-Apr-28 04:32N 31°26' E 121°28'1425354.8
2015-Apr-28 04:32N 31°26' E 121°45'967540.6
2015-Apr-28 04:31N 29°52' E 122°10'620743530.4
2015-Apr-28 04:31N 23°04' E 113°29'4257.7
2015-Apr-28 04:30N 23°02' E 113°25'131393.7
2015-Apr-28 04:30N 22°54' E 113°35'95755546.8
2015-Apr-28 04:29N 36°53' E 122°26'33518853.8
2015-Apr-28 04:28N 31°21' E 121°27'8987.6
2015-Apr-28 04:27N 31°29' E 121°24'66111326.7
2015-Apr-28 04:24N 22°59' E 113°32'6632046.1
2015-Apr-28 04:04N 31°45' E 121°05'2344.6
2015-Apr-28 03:33N 31°29' E 121°24'827652.3
2015-Apr-28 03:33N 31°21' E 121°27'1762386.1
2015-Apr-28 03:33N 31°19' E 121°48'89159884.2
2015-Apr-28 03:33N 29°52' E 122°10'62023756.0
2015-Apr-28 03:31N 23°05' E 113°28'4107.1
2015-Apr-28 03:29N 23°02' E 113°25'123535.0
2015-Apr-28 03:29N 22°57' E 113°36'1782.6
2015-Apr-28 03:29N 22°57' E 113°37'111463.2
2015-Apr-28 03:28N 23°04' E 113°29'95195054.5
2015-Apr-28 03:28N 36°53' E 122°26'3311191616.5
2015-Apr-28 03:28N 31°26' E 121°28'45768.6
2015-Apr-28 03:24N 31°58' E 120°52'4842868.2
2015-Apr-28 03:24N 31°23' E 121°30'6734907.4
2015-Apr-28 03:16N 22°27' E 113°53'4462.0
2015-Apr-28 02:33N 23°03' E 113°25'661198385.6
2015-Apr-28 02:33N 31°26' E 121°28'329395313.9
2015-Apr-28 02:33N 36°51' E 122°27'33421879.4
2015-Apr-28 02:32N 31°19' E 121°47'221439.6
2015-Apr-28 02:31N 31°29' E 121°24'66049528.5
2015-Apr-28 02:30N 22°57' E 113°36'65773870.6
2015-Apr-28 02:30N 31°21' E 121°27'9786930.7
2015-Apr-28 02:30N 29°52' E 122°10'620371834.5
2015-Apr-28 02:30N 23°04' E 113°29'66456942.7
2015-Apr-28 02:29N 32°02' E 120°50'66454349.9
2015-Apr-28 02:28N 23°04' E 113°29'63645804.6
2015-Apr-28 02:27N 31°11' E 121°09'64028077.1
2015-Apr-28 02:26N 23°03' E 113°25'70472436.9
2015-Apr-28 02:25N 32°18' E 121°34'7017088.7
2015-Apr-28 02:19N 23°04' E 113°29'65322595.4
2015-Apr-28 02:18N 31°21' E 121°26'411891.3
2015-Apr-28 02:16N 31°52' E 120°54'1115.0
2015-Apr-28 01:34N 32°01' E 120°49'1518335.6
2015-Apr-28 01:33N 31°48' E 120°57'4439638.1
2015-Apr-28 01:33N 32°18' E 121°34'6941621.2
2015-Apr-28 01:33N 31°12' E 121°09'1865126.2
2015-Apr-28 01:33N 31°21' E 121°27'65549088.0
2015-Apr-28 01:32N 23°03' E 113°30'66455608.0
2015-Apr-28 01:32N 31°19' E 121°47'183772.1
2015-Apr-28 01:31N 31°26' E 121°28'1003220.3
2015-Apr-28 01:30N 29°52' E 122°10'6202231249.4
2015-Apr-28 01:30N 23°04' E 113°29'5265.2
2015-Apr-28 01:28N 23°02' E 113°24'553.3
2015-Apr-28 01:23N 23°04' E 113°29'43360.7
2015-Apr-28 01:16N 22°27' E 113°53'441432.6
2015-Apr-28 01:14N 23°03' E 113°25'1217.3
2015-Apr-28 00:33N 22°57' E 113°36'706133784.5
2015-Apr-28 00:33N 32°19' E 121°38'6814382.5
2015-Apr-28 00:33N 31°16' E 121°09'9971001.2
2015-Apr-28 00:33N 29°52' E 122°10'896797.3
2015-Apr-28 00:32N 31°19' E 121°47'66877595.9
2015-Apr-28 00:31N 23°02' E 113°25'662397192.2
2015-Apr-28 00:31N 31°26' E 121°28'665125971.0
2015-Apr-28 00:31N 22°55' E 113°30'66119040.8
2015-Apr-28 00:29N 31°21' E 121°27'65414723.1
2015-Apr-28 00:26N 23°04' E 113°29'42332.6
2015-Apr-28 00:26N 23°03' E 113°25'6684496.8
2015-Apr-28 00:17N 32°02' E 120°50'6653500.7
2015-Apr-28 00:06N 23°04' E 113°29'66022846.9
2015-Apr-28 00:04N 31°44' E 121°07'2853.7
2015-Apr-27 23:33N 31°17' E 121°08'28835796.8
2015-Apr-27 23:33N 36°04' E 120°33'8881065613.4
2015-Apr-27 23:33N 22°27' E 113°53'6741213602.6
2015-Apr-27 23:33N 31°26' E 121°28'10060051.7
2015-Apr-27 23:32N 29°52' E 122°10'12187450.4
2015-Apr-27 23:32N 31°42' E 121°09'403680.6
2015-Apr-27 23:32N 31°19' E 121°48'66816941.0
2015-Apr-27 23:29N 23°02' E 113°25'496.0
2015-Apr-27 23:27N 23°04' E 113°29'016.7
2015-Apr-27 23:26N 23°04' E 113°29'44662.7
2015-Apr-27 23:26N 23°03' E 113°25'1235.7
2015-Apr-27 23:06N 22°57' E 113°36'66420082.2
2015-Apr-27 23:04N 32°00' E 120°45'5199.2
2015-Apr-27 22:33N 31°26' E 121°28'1760330.3
2015-Apr-27 22:33N 31°38' E 121°15'2035411.1
2015-Apr-27 22:33N 31°21' E 121°27'213706.4
2015-Apr-27 22:33N 31°16' E 121°04'1017913.6
2015-Apr-27 22:32N 29°53' E 122°10'889927.6
2015-Apr-27 22:32N 31°19' E 121°48'66840734.8
2015-Apr-27 22:31N 23°03' E 113°25'4199.8
2015-Apr-27 22:30N 23°04' E 113°29'10238.5
2015-Apr-27 22:27N 22°57' E 113°36'10517.5
2015-Apr-27 22:26N 23°04' E 113°29'664759.7
2015-Apr-27 21:33N 31°19' E 121°48'282693.1
2015-Apr-27 21:33N 31°33' E 121°20'142714.5
2015-Apr-27 21:33N 31°21' E 121°27'34185.2
2015-Apr-27 21:33N 31°24' E 121°31'273460.4
2015-Apr-27 21:32N 31°17' E 121°00'63926440.7
2015-Apr-27 21:31N 23°03' E 113°25'4244.8
2015-Apr-27 21:30N 23°04' E 113°29'65817167.8
2015-Apr-27 21:27N 31°26' E 121°28'660158461.6
2015-Apr-27 21:27N 22°57' E 113°36'10144.1
2015-Apr-27 21:23N 23°04' E 113°29'660798.9
2015-Apr-27 20:33N 31°30' E 121°26'5921.3
2015-Apr-27 20:33N 31°26' E 121°28'183996.2
2015-Apr-27 20:33N 31°19' E 121°48'66818209.5
2015-Apr-27 20:31N 23°03' E 113°25'662476477.5
2015-Apr-27 20:31N 31°24' E 121°31'65840869.8
2015-Apr-27 20:30N 23°04' E 113°29'65444450.6
2015-Apr-27 20:29N 31°21' E 121°27'65414452.4
2015-Apr-27 20:26N 23°04' E 113°29'6209299.1
2015-Apr-27 20:22N 29°52' E 122°10'4 5.4
2015-Apr-27 19:34N 29°55' E 122°06'9638430.7
2015-Apr-27 19:33N 31°26' E 121°30'192025.7
2015-Apr-27 19:33N 31°14' E 121°48'662198642.7
2015-Apr-27 19:33N 22°57' E 113°37'131269.7
2015-Apr-27 19:32N 23°04' E 113°25'65743783.7
2015-Apr-27 19:31N 31°21' E 121°27'65425607.4
2015-Apr-27 19:30N 23°04' E 113°29'65843098.5
2015-Apr-27 19:29N 31°24' E 121°31'3104.5
2015-Apr-27 19:27N 31°26' E 121°28'6582991.2
2015-Apr-27 19:14N 23°04' E 113°29'664969.0
2015-Apr-27 18:33N 31°19' E 121°48'66748983.2
2015-Apr-27 18:32N 23°04' E 113°25'659169376.5
2015-Apr-27 18:32N 31°21' E 121°31'832934.9
2015-Apr-27 18:30N 30°01' E 121°58'61871731.3
2015-Apr-27 18:30N 23°04' E 113°29'65853842.4
2015-Apr-27 18:29N 31°26' E 121°28'4219.6
2015-Apr-27 18:28N 31°21' E 121°27'65638070.4
2015-Apr-27 18:27N 22°57' E 113°37'1149.8
2015-Apr-27 18:14N 23°04' E 113°29'665984.2
2015-Apr-27 17:33N 31°20' E 121°48'145081.2
2015-Apr-27 17:33N 31°15' E 121°32'1922197674.3
2015-Apr-27 17:33N 00°02' E 114°08'1383124469.9
2015-Apr-27 17:32N 23°04' E 113°25'657262700.1
2015-Apr-27 17:32N 31°21' E 121°27'4102.2
2015-Apr-27 17:29N 31°26' E 121°28'27129605.8
2015-Apr-27 17:29N 35°52' E 120°26'8498735.7
2015-Apr-27 17:23N 23°04' E 113°29'0 2.0
2015-Apr-27 17:18N 23°04' E 113°29'647871.5
2015-Apr-27 16:33N 31°11' E 121°28'19941.2
2015-Apr-27 16:32N 31°20' E 121°48'66760025.6
2015-Apr-27 16:31N 23°04' E 113°26'656472352.1
2015-Apr-27 16:31N 31°21' E 121°27'65424541.9
2015-Apr-27 16:30N 23°04' E 113°29'65843871.3
2015-Apr-27 16:29N 31°26' E 121°28'65814622.9
2015-Apr-27 16:26N 23°04' E 113°29'642728.8
2015-Apr-27 15:33N 31°04' E 121°28'181671.4
2015-Apr-27 15:32N 31°21' E 121°27'65573646.3
2015-Apr-27 15:32N 23°03' E 113°30'6661197912.4
2015-Apr-27 15:32N 31°20' E 121°48'171021.9
2015-Apr-27 15:31N 31°26' E 121°28'65960830.3
2015-Apr-27 15:30N 23°02' E 113°31'8871.7
2015-Apr-27 15:30N 22°54' E 113°28'10158.3
2015-Apr-27 15:26N 23°04' E 113°29'9 9.9
2015-Apr-27 14:32N 22°55' E 113°30'671805679.0
2015-Apr-27 14:32N 31°20' E 121°48'17428.4
2015-Apr-27 14:29N 31°21' E 121°27'4141.5
2015-Apr-27 14:28N 31°26' E 121°28'65823225.1
2015-Apr-27 14:26N 23°04' E 113°29'657750.2
2015-Apr-27 13:33N 31°23' E 121°30'3546.1
2015-Apr-27 13:33N 31°26' E 121°28'1710377.2
2015-Apr-27 13:33N 31°20' E 121°48'68147115.2
2015-Apr-27 13:32N 22°27' E 113°53'3713483.0
2015-Apr-27 13:32N 22°55' E 113°25'9221.3
2015-Apr-27 13:29N 22°50' E 113°34'768.6
2015-Apr-27 13:23N 22°57' E 113°37'64210696.2
2015-Apr-27 13:20N 31°01' E 121°30'21358.5
2015-Apr-27 13:19N 31°03' E 121°29'1 0.8
2015-Apr-27 12:33N 31°02' E 121°29'2486766.2
2015-Apr-27 12:33N 31°20' E 121°48'17889.6
2015-Apr-27 12:32N 31°26' E 121°28'111.2
2015-Apr-27 12:28N 31°26' E 121°28'65923951.8
2015-Apr-27 12:26N 23°04' E 113°29'643734.3
2015-Apr-27 11:34N 31°06' E 121°27'222343.0
2015-Apr-27 11:33N 31°20' E 121°48'172223.7
2015-Apr-27 11:32N 31°26' E 121°28'6586027.6
2015-Apr-27 11:26N 23°04' E 113°29'43420.1
2015-Apr-27 11:20N 22°27' E 113°53'336280.1
2015-Apr-27 11:19N 22°57' E 113°37'13610.7
2015-Apr-27 11:18N 23°02' E 113°25'650872.8
2015-Apr-27 10:33N 31°10' E 121°28'202216.3
2015-Apr-27 10:33N 31°20' E 121°48'68240937.7
2015-Apr-27 10:32N 22°54' E 113°14'4510124.1
2015-Apr-27 10:32N 22°27' E 113°53'4439581.2
2015-Apr-27 10:32N 23°02' E 113°25'662794347.8
2015-Apr-27 10:32N 31°26' E 121°28'66042431.3
2015-Apr-27 10:31N 22°57' E 113°35'237.3
2015-Apr-27 10:28N 22°57' E 113°37'11320.9
2015-Apr-27 10:26N 23°04' E 113°29'650743.5
2015-Apr-27 09:34N 31°13' E 121°30'131739.6
2015-Apr-27 09:33N 31°26' E 121°28'66243325.5
2015-Apr-27 09:32N 23°02' E 113°25'66963406.9
2015-Apr-27 09:32N 31°20' E 121°48'6665539.4
2015-Apr-27 09:24N 22°57' E 113°37'63828691.7
2015-Apr-27 09:23N 31°20' E 120°57'636763372.7
2015-Apr-27 09:23N 23°04' E 113°29'43277.8
2015-Apr-27 09:14N 22°27' E 113°53'6741000.4
2015-Apr-27 08:33N 31°26' E 121°28'17628.8
2015-Apr-27 08:32N 31°20' E 121°48'66938247.5
2015-Apr-27 08:30N 23°02' E 113°25'4412178.8
2015-Apr-27 08:30N 22°27' E 113°53'66834856.1
2015-Apr-27 08:29N 31°15' E 121°32'6526365.6
2015-Apr-27 08:23N 23°04' E 113°29'658770.6
2015-Apr-27 07:32N 31°26' E 121°28'174446.9
2015-Apr-27 07:31N 31°20' E 121°48'6654678.2
2015-Apr-27 07:23N 23°04' E 113°29'11240.7
2015-Apr-27 07:20N 22°57' E 113°37'13704.6
2015-Apr-27 07:19N 23°02' E 113°25'646843.4
2015-Apr-27 06:33N 31°03' E 121°29'64626413.3
2015-Apr-27 06:32N 23°02' E 113°25'669104749.1
2015-Apr-27 06:31N 31°20' E 121°48'176235.8
2015-Apr-27 06:31N 31°26' E 121°28'6227.5
2015-Apr-27 06:30N 31°21' E 121°32'65610364.0
2015-Apr-27 06:26N 23°04' E 113°29'65940931.8
2015-Apr-27 06:25N 31°38' E 121°14'6612382.1
2015-Apr-27 06:08N 22°57' E 113°37'6581124.7
2015-Apr-27 05:33N 31°22' E 121°30'65839459.2
2015-Apr-27 05:32N 22°57' E 113°37'66648953.2
2015-Apr-27 05:31N 31°20' E 121°48'29111627.2
2015-Apr-27 05:30N 36°04' E 120°34'28253498.5
2015-Apr-27 05:30N 31°26' E 121°28'66213773.7
2015-Apr-27 05:27N 23°02' E 113°25'468.6
2015-Apr-27 05:23N 23°04' E 113°29'15106.2
2015-Apr-27 05:14N 22°53' E 113°18'681990.7
2015-Apr-27 04:33N 31°20' E 121°48'66623288.1
2015-Apr-27 04:31N 22°57' E 113°37'13483.2
2015-Apr-27 04:30N 23°02' E 113°25'66299290.8
2015-Apr-27 04:29N 31°26' E 121°28'677152257.8
2015-Apr-27 04:29N 22°24' E 113°54'89422499.3
2015-Apr-27 04:27N 36°07' E 120°33'86577845.2
2015-Apr-27 04:26N 23°04' E 113°29'1036.2
2015-Apr-27 04:09N 22°57' E 113°36'6608031.8
2015-Apr-27 04:05N 31°29' E 121°24'6621273.9
2015-Apr-27 03:33N 23°02' E 113°25'662238301.2
2015-Apr-27 03:33N 31°26' E 121°28'173667.7
2015-Apr-27 03:33N 31°20' E 121°48'2934689.0
2015-Apr-27 03:29N 36°07' E 120°33'8658348.3
2015-Apr-27 03:23N 23°04' E 113°29'65822565.6
2015-Apr-27 03:21N 31°29' E 121°24'112.4
2015-Apr-27 03:15N 31°30' E 121°24'6653530.5
2015-Apr-27 03:04N 22°55' E 113°30'1221.4
2015-Apr-27 02:31N 23°05' E 113°24'86628592.6
2015-Apr-27 02:30N 36°07' E 120°33'29365889.0
2015-Apr-27 02:29N 31°20' E 121°48'261822.8
2015-Apr-27 02:29N 31°32' E 121°20'10107.3
2015-Apr-27 02:23N 31°26' E 121°28'6584291.3
2015-Apr-27 02:14N 23°04' E 113°29'6584609.4
2015-Apr-27 02:05N 31°29' E 121°24'2037.0
2015-Apr-27 01:33N 31°23' E 121°47'67023632.7
2015-Apr-27 01:31N 23°04' E 113°25'66158020.2
2015-Apr-27 01:30N 31°26' E 121°28'28515768.7
2015-Apr-27 01:29N 36°07' E 120°33'2816703.0
2015-Apr-27 01:27N 31°29' E 121°24'65840849.1
2015-Apr-27 01:26N 23°04' E 113°29'1078.9
2015-Apr-27 01:18N 22°57' E 113°36'66221657.3
2015-Apr-27 01:17N 31°37' E 121°16'6597150.5
2015-Apr-27 01:11N 23°04' E 113°29'658993.4
2015-Apr-27 00:31N 31°26' E 121°28'67434181.4
2015-Apr-27 00:30N 22°18' E 114°07'481051.4
2015-Apr-27 00:27N 22°57' E 113°36'12328.8
2015-Apr-27 00:25N 23°02' E 113°25'6718443.2
2015-Apr-27 00:20N 31°23' E 121°47'6676235.5
2015-Apr-27 00:14N 23°04' E 113°29'0148.4
2015-Apr-27 00:14N 23°04' E 113°29'619906.5
2015-Apr-26 23:33N 29°55' E 122°07'975276.3
2015-Apr-26 23:32N 31°26' E 121°28'674110318.6
2015-Apr-26 23:31N 22°18' E 114°07'893247193.1
2015-Apr-26 23:31N 36°05' E 120°34'867519987.7
2015-Apr-26 23:31N 23°02' E 113°25'8139.7
2015-Apr-26 23:28N 22°58' E 113°32'7266.1
2015-Apr-26 23:26N 23°04' E 113°29'0 3.8
2015-Apr-26 23:23N 23°04' E 113°29'615732.0
2015-Apr-26 22:33N 29°56' E 121°60'931465.8
2015-Apr-26 22:29N 31°26' E 121°28'66048504.4
2015-Apr-26 22:28N 22°59' E 113°32'6183.0
2015-Apr-26 22:26N 23°04' E 113°29'585516.6
2015-Apr-26 22:25N 22°18' E 114°07'58227.1
2015-Apr-26 22:10N 23°04' E 113°30'611986.9
2015-Apr-26 21:33N 29°57' E 121°53'916533.0
2015-Apr-26 21:32N 31°26' E 121°28'66420421.7
2015-Apr-26 21:30N 23°02' E 113°22'611518.2
2015-Apr-26 21:28N 22°18' E 114°07'58602.2
2015-Apr-26 21:22N 23°04' E 113°30'1 5.8
2015-Apr-26 21:14N 23°04' E 113°29'1 1.5
2015-Apr-26 20:33N 23°05' E 113°28'658107737.9
2015-Apr-26 20:33N 31°26' E 121°28'67422896.1
2015-Apr-26 20:31N 22°18' E 114°07'52981.4
2015-Apr-26 20:28N 22°59' E 113°32'6201.3
2015-Apr-26 20:26N 23°04' E 113°29'1 2.9
2015-Apr-26 20:10N 23°04' E 113°30'5894.5
2015-Apr-26 19:33N 22°18' E 114°07'  

Dump ship's entire track history